Provisional Data: Loyalsock Creek near Ringdale, PA


Please select a monitoring station.
Please select start date.
Please select start date.

<
Toggle Unit: C/F Toggle Unit: C/F
Sample Time Temperature (C) Temperature (F) Specific Conductivity (mS/cm) pH   Turbidity (NTU+) DO (mg/L)
11/1/2022 12:00:00 AM 8.78 47.804 0.029 6.68 5.4 10.61
11/1/2022 12:15:00 AM 8.78 47.804 0.029 6.68 5.36 10.61
11/1/2022 12:30:00 AM 8.79 47.822 0.029 6.68 5.36 10.6
11/1/2022 12:45:00 AM 8.79 47.822 0.029 6.68 5.41 10.62
11/1/2022 1:00:00 AM 8.79 47.822 0.029 6.68 5.34 10.61
11/1/2022 1:15:00 AM 8.79 47.822 0.029 6.68 5.39 10.59
11/1/2022 1:30:00 AM 8.79 47.822 0.029 6.68 5.47 10.61
11/1/2022 1:45:00 AM 8.79 47.822 0.029 6.68 5.33 10.58
11/1/2022 2:00:00 AM 8.8 47.84 0.029 6.68 5.36 10.6
11/1/2022 2:15:00 AM 8.79 47.822 0.029 6.67 5.38 10.6
11/1/2022 2:30:00 AM 8.79 47.822 0.029 6.67 5.35 10.6
11/1/2022 2:45:00 AM 8.8 47.84 0.029 6.67 5.39 10.6
11/1/2022 3:00:00 AM 8.8 47.84 0.029 6.67 5.34 10.59
11/1/2022 3:15:00 AM 8.8 47.84 0.029 6.66 5.33 10.59
11/1/2022 3:30:00 AM 8.8 47.84 0.029 6.66 5.38 10.59
11/1/2022 3:45:00 AM 8.8 47.84 0.029 6.66 5.43 10.58
11/1/2022 4:00:00 AM 8.8 47.84 0.03 6.66 5.37 10.57
11/1/2022 4:15:00 AM 8.81 47.858 0.03 6.65 5.33 10.58
11/1/2022 4:30:00 AM 8.81 47.858 0.03 6.65 5.37 10.56
11/1/2022 4:45:00 AM 8.82 47.876 0.029 6.65 5.36 10.57
11/1/2022 5:00:00 AM 8.83 47.894 0.03 6.65 5.36 10.58
11/1/2022 5:15:00 AM 8.84 47.912 0.029 6.65 5.34 10.58
11/1/2022 5:30:00 AM 8.84 47.912 0.029 6.65 5.39 10.58
11/1/2022 5:45:00 AM 8.85 47.93 0.029 6.65 5.32 10.59
11/1/2022 6:00:00 AM 8.86 47.948 0.029 6.65 5.36 10.57
11/1/2022 6:15:00 AM 8.87 47.966 0.03 6.64 5.4 10.56
11/1/2022 6:30:00 AM 8.87 47.966 0.03 6.64 5.36 10.55
11/1/2022 6:45:00 AM 8.88 47.984 0.03 6.64 5.4 10.57
11/1/2022 7:00:00 AM 8.89 48.002 0.03 6.64 5.39 10.56
11/1/2022 7:15:00 AM 8.89 48.002 0.03 6.64 5.39 10.56
11/1/2022 7:30:00 AM 8.9 48.02 0.03 6.64 5.62 10.56
11/1/2022 7:45:00 AM 8.91 48.038 0.03 6.64 5.46 10.55
11/1/2022 8:00:00 AM 8.92 48.056 0.03 6.64 5.15 10.51
11/1/2022 8:15:00 AM 8.92 48.056 0.029 6.65 5.05 10.55
11/1/2022 8:30:00 AM 8.94 48.092 0.03 6.65 5.09 10.55
11/1/2022 8:45:00 AM 8.95 48.11 0.03 6.65 5.09 10.57
11/1/2022 9:00:00 AM 8.98 48.164 0.029 6.65 5.17 10.61
11/1/2022 9:15:00 AM 9 48.2 0.029 6.66 5.14 10.64
11/1/2022 9:30:00 AM 9.03 48.254 0.029 6.66 5.14 10.67
11/1/2022 9:45:00 AM 9.06 48.308 0.029 6.67 5.15 10.71
11/1/2022 10:00:00 AM 9.09 48.362 0.029 6.68 5.1 10.77
11/1/2022 10:15:00 AM 9.12 48.416 0.029 6.69 5.16 10.76
11/1/2022 10:30:00 AM 9.15 48.47 0.029 6.69 5.11 10.76
11/1/2022 10:45:00 AM 9.19 48.542 0.029 6.69 5.09 10.77
11/1/2022 11:00:00 AM 9.22 48.596 0.029 6.7 5.14 10.79
11/1/2022 11:15:00 AM 9.26 48.668 0.029 6.7 5.2 10.75
11/1/2022 11:30:00 AM 9.31 48.758 0.029 6.71 5.31 10.76
11/1/2022 11:45:00 AM 9.37 48.866 0.029 6.71 5.49 10.79
11/1/2022 12:00:00 PM 9.43 48.974 0.03 6.72 5.79 10.8
11/1/2022 12:15:00 PM 9.49 49.082 0.031 6.73 5.94 10.77
11/1/2022 12:30:00 PM 9.56 49.208 0.031 6.74 6.18 10.78
11/1/2022 12:45:00 PM 9.63 49.334 0.031 6.74 6.18 10.8
11/1/2022 1:00:00 PM 9.7 49.46 0.031 6.75 5.89 10.8
11/1/2022 1:15:00 PM 9.76 49.568 0.031 6.76 5.65 10.79
11/1/2022 1:30:00 PM 9.82 49.676 0.03 6.76 5.44 10.79
11/1/2022 1:45:00 PM 9.89 49.802 0.03 6.76 5.32 10.83
11/1/2022 2:00:00 PM 9.96 49.928 0.029 6.77 5.3 10.81
11/1/2022 2:15:00 PM 10.05 50.09 0.029 6.77 5.36 10.81
11/1/2022 2:30:00 PM 10.14 50.252 0.029 6.77 5.3 10.82
11/1/2022 2:45:00 PM 10.21 50.378 0.029 6.78 5.23 10.82
11/1/2022 3:00:00 PM 10.28 50.504 0.029 6.77 5.28 10.79
11/1/2022 3:15:00 PM 10.34 50.612 0.029 6.78 8.35 10.78
11/1/2022 3:30:00 PM 10.39 50.702 0.029 6.78 5.46 10.76
11/1/2022 3:45:00 PM 10.45 50.81 0.029 6.78 5.35 10.73
11/1/2022 4:00:00 PM 10.5 50.9 0.029 6.78 5.48 10.71
11/1/2022 4:15:00 PM 10.53 50.954 0.029 6.79 5.44 10.7
11/1/2022 4:30:00 PM 10.54 50.972 0.029 6.79 5.42 10.7
11/1/2022 4:45:00 PM 10.54 50.972 0.029 6.79 5.29 10.65
11/1/2022 5:00:00 PM 10.53 50.954 0.029 6.79 5.18 10.63
11/1/2022 5:15:00 PM 10.51 50.918 0.029 6.78 5.34 10.58
11/1/2022 5:30:00 PM 10.49 50.882 0.029 6.78 5.25 10.51
11/1/2022 5:45:00 PM 10.47 50.846 0.029 6.77 5.61 10.46
11/1/2022 6:00:00 PM 10.43 50.774 0.029 6.76 5.75 10.42
11/1/2022 6:15:00 PM 10.38 50.684 0.029 6.76 5.57 10.38
11/1/2022 6:30:00 PM 10.33 50.594 0.029 6.75 5.52 10.37
11/1/2022 6:45:00 PM 10.28 50.504 0.029 6.74 5.47 10.32
11/1/2022 7:00:00 PM 10.23 50.414 0.029 6.73 5.41 10.33
11/1/2022 7:15:00 PM 10.19 50.342 0.029 6.72 5.53 10.32
11/1/2022 7:30:00 PM 10.14 50.252 0.029 6.71 5.41 10.3
11/1/2022 7:45:00 PM 10.09 50.162 0.029 6.7 5.45 10.32
11/1/2022 8:00:00 PM 10.05 50.09 0.029 6.69 5.44 10.33
11/1/2022 8:15:00 PM 10.02 50.036 0.03 6.69 5.57 10.33
11/1/2022 8:30:00 PM 9.99 49.982 0.03 6.68 5.57 10.33
11/1/2022 8:45:00 PM 9.95 49.91 0.03 6.67 5.6 10.32
11/1/2022 9:00:00 PM 9.91 49.838 0.031 6.67 5.47 10.34
11/1/2022 9:15:00 PM 9.87 49.766 0.031 6.67 5.57 10.33
11/1/2022 9:30:00 PM 9.83 49.694 0.031 6.67 5.88 10.33
11/1/2022 9:45:00 PM 9.79 49.622 0.031 6.67 5.62 10.35
11/1/2022 10:00:00 PM 9.75 49.55 0.031 6.66 5.48 10.36
11/1/2022 10:15:00 PM 9.71 49.478 0.031 6.66 5.55 10.41
11/1/2022 10:30:00 PM 9.66 49.388 0.03 6.66 5.46 10.41
11/1/2022 10:45:00 PM 9.62 49.316 0.03 6.66 5.48 10.43
11/1/2022 11:00:00 PM 9.57 49.226 0.03 6.66 5.42 10.45
11/1/2022 11:15:00 PM 9.52 49.136 0.03 6.66 5.35 10.46
11/1/2022 11:30:00 PM 9.47 49.046 0.03 6.66 5.4 10.47
11/1/2022 11:45:00 PM 9.41 48.938 0.03 6.65 5.43 10.47
11/2/2022 12:00:00 AM 9.34 48.812 0.03 6.65 5.4 10.49
11/2/2022 12:15:00 AM 9.28 48.704 0.03 6.65 5.39 10.5
11/2/2022 12:30:00 AM 9.23 48.614 0.03 6.64 5.43 10.48
11/2/2022 12:45:00 AM 9.17 48.506 0.03 6.64 5.4 10.5
11/2/2022 1:00:00 AM 9.11 48.398 0.03 6.64 5.4 10.51
11/2/2022 1:15:00 AM 9.06 48.308 0.03 6.64 5.46 10.54
11/2/2022 1:30:00 AM 9.01 48.218 0.03 6.64 5.34 10.59
11/2/2022 1:45:00 AM 8.96 48.128 0.03 6.64 5.31 10.58
11/2/2022 2:00:00 AM 8.9 48.02 0.03 6.64 5.33 10.6
11/2/2022 2:15:00 AM 8.84 47.912 0.03 6.64 5.42 10.62
11/2/2022 2:30:00 AM 8.77 47.786 0.03 6.63 5.35 10.65
11/2/2022 2:45:00 AM 8.72 47.696 0.029 6.63 5.29 10.65
11/2/2022 3:00:00 AM 8.66 47.588 0.029 6.63 5.36 10.65
11/2/2022 3:15:00 AM 8.59 47.462 0.029 6.63 5.52 10.66
11/2/2022 3:30:00 AM 8.54 47.372 0.029 6.63 5.48 10.68
11/2/2022 3:45:00 AM 8.5 47.3 0.029 6.63 5.48 10.71
11/2/2022 4:00:00 AM 8.47 47.246 0.029 6.63 5.42 10.73
11/2/2022 4:15:00 AM 8.42 47.156 0.029 6.63 5.41 10.72
11/2/2022 4:30:00 AM 8.39 47.102 0.029 6.63 5.5 10.74
11/2/2022 4:45:00 AM 8.37 47.066 0.029 6.63 5.43 10.76
11/2/2022 5:00:00 AM 8.37 47.066 0.029 6.63 5.41 10.77
11/2/2022 5:15:00 AM 8.36 47.048 0.029 6.63 5.47 10.76
11/2/2022 5:30:00 AM 8.37 47.066 0.029 6.63 5.5 10.78
11/2/2022 5:45:00 AM 8.37 47.066 0.029 6.63 5.4 10.79
11/2/2022 6:00:00 AM 8.38 47.084 0.029 6.63 5.36 10.79
11/2/2022 6:15:00 AM 8.39 47.102 0.029 6.63 5.48 10.79
11/2/2022 6:30:00 AM 8.4 47.12 0.029 6.63 5.47 10.76
11/2/2022 6:45:00 AM 8.41 47.138 0.029 6.63 5.42 10.8
11/2/2022 7:00:00 AM 8.42 47.156 0.029 6.63 5.45 10.82
11/2/2022 7:15:00 AM 8.42 47.156 0.029 6.63 5.44 10.81
11/2/2022 7:30:00 AM 8.42 47.156 0.029 6.63 5.36 10.82
11/2/2022 7:45:00 AM 8.42 47.156 0.029 6.63 5.43 10.8
11/2/2022 8:00:00 AM 8.43 47.174 0.029 6.63 5.69 10.83
11/2/2022 8:15:00 AM 8.43 47.174 0.029 6.64 5.4 10.82
11/2/2022 8:30:00 AM 8.45 47.21 0.029 6.64 5.38 10.86
11/2/2022 8:45:00 AM 8.48 47.264 0.029 6.64 5.37 10.85
11/2/2022 9:00:00 AM 8.51 47.318 0.029 6.65 5.37 10.89
11/2/2022 9:15:00 AM 8.56 47.408 0.029 6.65 5.48 10.9
11/2/2022 9:30:00 AM 8.63 47.534 0.029 6.65 5.32 10.9
11/2/2022 9:45:00 AM 8.69 47.642 0.029 6.66 5.33 10.94
11/2/2022 10:00:00 AM 8.73 47.714 0.029 6.67 5.4 10.99
11/2/2022 10:15:00 AM 8.79 47.822 0.029 6.68 5.38 11.02
11/2/2022 10:30:00 AM 8.86 47.948 0.029 6.68 5.42 11.03
11/2/2022 10:45:00 AM 8.92 48.056 0.029 6.69 5.32 11.06
11/2/2022 11:00:00 AM 8.99 48.182 0.029 6.7 5.27 11.04
11/2/2022 11:15:00 AM 9.12 48.416 0.029 6.7 5.39 11.06
11/2/2022 11:30:00 AM 9.23 48.614 0.028 6.71 5.35 11.04
11/2/2022 11:45:00 AM 9.35 48.83 0.029 6.71 5.8 11.01
11/2/2022 12:00:00 PM 9.46 49.028 0.029 6.7 5.31 10.97
11/2/2022 12:15:00 PM 9.68 49.424 0.029 6.7 5.41 10.94
11/2/2022 12:30:00 PM 9.83 49.694 0.029 6.71 5.34 10.95
11/2/2022 12:45:00 PM 9.94 49.892 0.029 6.71 5.36 10.9
11/2/2022 1:00:00 PM 10.15 50.27 0.029 6.7 5.29 10.89
11/2/2022 1:15:00 PM 10.26 50.468 0.029 6.71 5.32 10.86
11/2/2022 1:30:00 PM 10.36 50.648 0.029 6.71 5.32 10.83
11/2/2022 1:45:00 PM 10.53 50.954 0.029 6.71 5.27 10.8
11/2/2022 2:00:00 PM 10.64 51.152 0.029 6.72 5.32 10.81
11/2/2022 2:15:00 PM 10.72 51.296 0.029 6.73 5.28 10.78
11/2/2022 2:30:00 PM 10.77 51.386 0.029 6.73 5.22 10.75
11/2/2022 2:45:00 PM 10.85 51.53 0.029 6.71 5.27 10.7
11/2/2022 3:00:00 PM 10.92 51.656 0.029 6.71 5.25 10.68
11/2/2022 3:15:00 PM 10.97 51.746 0.029 6.73 5.35 10.66
11/2/2022 3:30:00 PM 10.96 51.728 0.029 6.71 5.25 10.61
11/2/2022 3:45:00 PM 11.01 51.818 0.029 6.69 5.25 10.55
11/2/2022 4:00:00 PM 11.02 51.836 0.029 6.69 5.2 10.52
11/2/2022 4:15:00 PM 11 51.8 0.029 6.69 5.27 10.54
11/2/2022 4:30:00 PM 10.98 51.764 0.029 6.7 5.24 10.55
11/2/2022 4:45:00 PM 10.94 51.692 0.029 6.7 5.25 10.53
11/2/2022 5:00:00 PM 10.87 51.566 0.029 6.69 5.31 10.53
11/2/2022 5:15:00 PM 10.78 51.404 0.029 6.69 5.35 10.49
11/2/2022 5:30:00 PM 10.7 51.26 0.029 6.7 5.25 10.51
11/2/2022 5:45:00 PM 10.59 51.062 0.029 6.7 5.15 10.48
11/2/2022 6:00:00 PM 10.47 50.846 0.029 6.71 5.28 10.5
11/2/2022 6:15:00 PM 10.36 50.648 0.029 6.7 5.25 10.46
11/2/2022 6:30:00 PM 10.24 50.432 0.029 6.7 5.39 10.48
11/2/2022 6:45:00 PM 10.16 50.288 0.029 6.7 5.45 10.4
11/2/2022 7:00:00 PM 10.03 50.054 0.029 6.7 5.36 10.43
11/2/2022 7:15:00 PM 9.95 49.91 0.029 6.69 5.45 10.45
11/2/2022 7:30:00 PM 9.87 49.766 0.029 6.69 5.39 10.44
11/2/2022 7:45:00 PM 9.78 49.604 0.029 6.68 5.36 10.4
11/2/2022 8:00:00 PM 9.73 49.514 0.029 6.67 5.22 10.4
11/2/2022 8:15:00 PM 9.64 49.352 0.029 6.66 5.25 10.38
11/2/2022 8:30:00 PM 9.57 49.226 0.029 6.65 5.43 10.39
11/2/2022 8:45:00 PM 9.49 49.082 0.029 6.66 5.34 10.44
11/2/2022 9:00:00 PM 9.42 48.956 0.029 6.65 5.28 10.45
11/2/2022 9:15:00 PM 9.36 48.848 0.029 6.65 5.3 10.46
11/2/2022 9:30:00 PM 9.29 48.722 0.03 6.64 5.15 10.47
11/2/2022 9:45:00 PM 9.23 48.614 0.029 6.64 5.15 10.52
11/2/2022 10:00:00 PM 9.17 48.506 0.029 6.65 5.34 10.53
11/2/2022 10:15:00 PM 9.13 48.434 0.029 6.65 5.22 10.53
11/2/2022 10:30:00 PM 9.06 48.308 0.029 6.64 5.22 10.5
11/2/2022 10:45:00 PM 9 48.2 0.029 6.63 5.12 10.55
11/2/2022 11:00:00 PM 8.93 48.074 0.03 6.62 5.27 10.5
11/2/2022 11:15:00 PM 8.87 47.966 0.03 6.61 5.4 10.51
11/2/2022 11:30:00 PM 8.8 47.84 0.03 6.61 5.4 10.48
11/2/2022 11:45:00 PM 8.76 47.768 0.03 6.61 5.42 10.55
11/3/2022 12:00:00 AM 8.69 47.642 0.029 6.61 5.38 10.54
11/3/2022 12:15:00 AM 8.63 47.534 0.029 6.61 5.43 10.56
11/3/2022 12:30:00 AM 8.57 47.426 0.029 6.61 5.44 10.57
11/3/2022 12:45:00 AM 8.51 47.318 0.029 6.61 5.38 10.64
11/3/2022 1:00:00 AM 8.45 47.21 0.029 6.61 5.38 10.69
11/3/2022 1:15:00 AM 8.4 47.12 0.029 6.61 5.41 10.68
11/3/2022 1:30:00 AM 8.36 47.048 0.029 6.61 5.35 10.71
11/3/2022 1:45:00 AM 8.3 46.94 0.029 6.61 5.33 10.71
11/3/2022 2:00:00 AM 8.23 46.814 0.03 6.6 5.4 10.67
11/3/2022 2:15:00 AM 8.18 46.724 0.03 6.59 5.38 10.69
11/3/2022 2:30:00 AM 8.13 46.634 0.029 6.6 5.41 10.66
11/3/2022 2:45:00 AM 8.1 46.58 0.029 6.6 5.38 10.72
11/3/2022 3:00:00 AM 8.06 46.508 0.03 6.6 5.58 10.73
11/3/2022 3:15:00 AM 8 46.4 0.03 6.6 5.46 10.77
11/3/2022 3:30:00 AM 7.94 46.292 0.029 6.6 5.5 10.79
11/3/2022 3:45:00 AM 7.89 46.202 0.029 6.59 5.43 10.8
11/3/2022 4:00:00 AM 7.85 46.13 0.029 6.59 5.4 10.82
11/3/2022 4:15:00 AM 7.81 46.058 0.029 6.6 5.39 10.88
11/3/2022 4:30:00 AM 7.74 45.932 0.029 6.59 5.34 10.84
11/3/2022 4:45:00 AM 7.69 45.842 0.029 6.59 5.4 10.84
11/3/2022 5:00:00 AM 7.66 45.788 0.029 6.59 5.52 10.83
11/3/2022 5:15:00 AM 7.58 45.644 0.029 6.57 5.39 10.83
11/3/2022 5:30:00 AM 7.56 45.608 0.029 6.59 5.39 10.85
11/3/2022 5:45:00 AM 7.51 45.518 0.029 6.59 5.47 10.86
11/3/2022 6:00:00 AM 7.46 45.428 0.029 6.58 5.42 10.84
11/3/2022 6:15:00 AM 7.42 45.356 0.03 6.57 5.56 10.86
11/3/2022 6:30:00 AM 7.38 45.284 0.03 6.58 5.66 10.9
11/3/2022 6:45:00 AM 7.33 45.194 0.029 6.58 5.54 10.94
11/3/2022 7:00:00 AM 7.29 45.122 0.03 6.58 5.58 10.94
11/3/2022 7:15:00 AM 7.25 45.05 0.029 6.59 5.69 10.97
11/3/2022 7:30:00 AM 7.19 44.942 0.029 6.59 5.64 10.99
11/3/2022 7:45:00 AM 7.15 44.87 0.029 6.59 5.62 10.99
11/3/2022 8:00:00 AM 7.11 44.798 0.029 6.59 5.63 11.02
11/3/2022 8:15:00 AM 7.08 44.744 0.03 6.58 5.59 11.03
11/3/2022 8:30:00 AM 7.02 44.636 0.03 6.58 5.6 11.01
11/3/2022 8:45:00 AM 7 44.6 0.03 6.58 5.69 10.99
11/3/2022 9:00:00 AM 6.96 44.528 0.03 6.58 5.66 11.04
11/3/2022 9:15:00 AM 6.95 44.51 0.03 6.59 5.62 11.12
11/3/2022 9:30:00 AM 6.94 44.492 0.03 6.59 5.6 11.11
11/3/2022 9:45:00 AM 6.95 44.51 0.03 6.59 5.52 11.14
11/3/2022 10:00:00 AM 6.98 44.564 0.03 6.59 5.58 11.17
11/3/2022 10:15:00 AM 7.02 44.636 0.03 6.6 5.59 11.19
11/3/2022 10:30:00 AM 7.09 44.762 0.029 6.61 5.6 11.26
11/3/2022 10:45:00 AM 7.18 44.924 0.029 6.62 5.61 11.28
11/3/2022 11:00:00 AM 7.34 45.212 0.029 6.63 5.58 11.31
11/3/2022 11:15:00 AM 7.5 45.5 0.029 6.65 5.57 11.37
11/3/2022 11:30:00 AM 7.64 45.752 0.029 6.66 5.55 11.39
11/3/2022 11:45:00 AM 7.86 46.148 0.029 6.67 5.61 11.41
11/3/2022 12:00:00 PM 7.97 46.346 0.028 6.68 5.51 11.39
11/3/2022 12:15:00 PM 8.07 46.526 0.028 6.68 5.54 11.35
11/3/2022 12:30:00 PM 8.32 46.976 0.029 6.68 5.54 11.35
11/3/2022 12:45:00 PM 8.49 47.282 0.028 6.67 5.59 11.32
11/3/2022 1:00:00 PM 8.71 47.678 0.029 6.67 5.56 11.28
11/3/2022 1:15:00 PM 8.87 47.966 0.029 6.67 5.52 11.26
11/3/2022 1:30:00 PM 9.05 48.29 0.028 6.69 5.53 11.24
11/3/2022 1:45:00 PM 9.19 48.542 0.028 6.7 5.7 11.21
11/3/2022 2:00:00 PM 9.33 48.794 0.028 6.71 5.45 11.19
11/3/2022 2:15:00 PM 9.43 48.974 0.028 6.73 5.55 11.16
11/3/2022 2:30:00 PM 9.55 49.19 0.028 6.73 5.49 11.12
11/3/2022 2:45:00 PM 9.63 49.334 0.028 6.74 5.55 11.08
11/3/2022 3:00:00 PM 9.73 49.514 0.028 6.74 5.48 11.06
11/3/2022 3:15:00 PM 9.78 49.604 0.028 6.73 5.43 11.01
11/3/2022 3:30:00 PM 9.83 49.694 0.028 6.73 5.49 10.99
11/3/2022 3:45:00 PM 9.89 49.802 0.028 6.73 5.5 10.96
11/3/2022 4:00:00 PM 9.91 49.838 0.028 6.74 5.43 10.94
11/3/2022 4:15:00 PM 9.91 49.838 0.028 6.73 5.4 10.91
11/3/2022 4:30:00 PM 9.91 49.838 0.028 6.73 5.51 10.88
11/3/2022 4:45:00 PM 9.88 49.784 0.028 6.73 5.5 10.85
11/3/2022 5:00:00 PM 9.83 49.694 0.028 6.71 5.45 10.78
11/3/2022 5:15:00 PM 9.77 49.586 0.028 6.7 5.5 10.79
11/3/2022 5:30:00 PM 9.69 49.442 0.028 6.71 5.46 10.8
11/3/2022 5:45:00 PM 9.58 49.244 0.028 6.72 5.47 10.81
11/3/2022 6:00:00 PM 9.49 49.082 0.028 6.72 5.5 10.8
11/3/2022 6:15:00 PM 9.39 48.902 0.028 6.72 5.46 10.79
11/3/2022 6:30:00 PM 9.3 48.74 0.028 6.71 5.46 10.75
11/3/2022 6:45:00 PM 9.2 48.56 0.028 6.7 5.55 10.74
11/3/2022 7:00:00 PM 9.15 48.47 0.028 6.69 5.56 10.71
11/3/2022 7:15:00 PM 9.05 48.29 0.029 6.66 5.52 10.66
11/3/2022 7:30:00 PM 8.98 48.164 0.029 6.66 5.46 10.61
11/3/2022 7:45:00 PM 8.84 47.912 0.029 6.65 5.52 10.61
11/3/2022 8:00:00 PM 8.76 47.768 0.029 6.66 5.51 10.67
11/3/2022 8:15:00 PM 8.7 47.66 0.029 6.66 5.5 10.67
11/3/2022 8:30:00 PM 8.65 47.57 0.029 6.66 5.56 10.7
11/3/2022 8:45:00 PM 8.57 47.426 0.029 6.64 5.5 10.69
11/3/2022 9:00:00 PM 8.49 47.282 0.029 6.64 5.55 10.68
11/3/2022 9:15:00 PM 8.42 47.156 0.029 6.63 5.52 10.68
11/3/2022 9:30:00 PM 8.37 47.066 0.029 6.64 5.34 10.62
11/3/2022 9:45:00 PM 8.33 46.994 0.029 6.64 5.32 10.67
11/3/2022 10:00:00 PM 8.27 46.886 0.029 6.63 5.34 10.64
11/3/2022 10:15:00 PM 8.22 46.796 0.029 6.62 5.47 10.67
11/3/2022 10:30:00 PM 8.15 46.67 0.029 6.62 5.4 10.69
11/3/2022 10:45:00 PM 8.1 46.58 0.029 6.62 5.42 10.76
11/3/2022 11:00:00 PM 8.06 46.508 0.029 6.62 5.32 10.78
11/3/2022 11:15:00 PM 8 46.4 0.029 6.61 5.36 10.68
11/3/2022 11:30:00 PM 7.91 46.238 0.029 6.61 5.36 10.74
11/3/2022 11:45:00 PM 7.89 46.202 0.029 6.6 5.36 10.79
11/4/2022 12:00:00 AM 7.83 46.094 0.029 6.61 5.35 10.79
11/4/2022 12:15:00 AM 7.77 45.986 0.029 6.6 5.48 10.73
11/4/2022 12:30:00 AM 7.71 45.878 0.029 6.59 5.36 10.77
11/4/2022 12:45:00 AM 7.66 45.788 0.029 6.59 5.34 10.83
11/4/2022 1:00:00 AM 7.59 45.662 0.029 6.59 5.44 10.85
11/4/2022 1:15:00 AM 7.53 45.554 0.029 6.59 5.78 10.89
11/4/2022 1:30:00 AM 7.47 45.446 0.029 6.6 5.45 10.95
11/4/2022 1:45:00 AM 7.44 45.392 0.029 6.6 5.42 10.95
11/4/2022 2:00:00 AM 7.38 45.284 0.03 6.6 5.38 10.93
11/4/2022 2:15:00 AM 7.34 45.212 0.03 6.6 5.33 11
11/4/2022 2:30:00 AM 7.29 45.122 0.03 6.6 5.4 10.98
11/4/2022 2:45:00 AM 7.26 45.068 0.03 6.59 5.39 11.01
11/4/2022 3:00:00 AM 7.2 44.96 0.03 6.59 5.47 10.99
11/4/2022 3:15:00 AM 7.17 44.906 0.03 6.6 5.4 11.01
11/4/2022 3:30:00 AM 7.14 44.852 0.03 6.61 5.55 11.06
11/4/2022 3:45:00 AM 7.1 44.78 0.03 6.61 5.59 11.05
11/4/2022 4:00:00 AM 7.04 44.672 0.03 6.61 5.61 11.09
11/4/2022 4:15:00 AM 7 44.6 0.03 6.61 5.56 11.1
11/4/2022 4:30:00 AM 6.96 44.528 0.029 6.62 5.46 11.12
11/4/2022 4:45:00 AM 6.93 44.474 0.029 6.62 5.41 11.13
11/4/2022 5:00:00 AM 6.9 44.42 0.029 6.62 5.5 11.12
11/4/2022 5:15:00 AM 6.87 44.366 0.029 6.62 5.52 11.14
11/4/2022 5:30:00 AM 6.84 44.312 0.03 6.62 5.42 11.14
11/4/2022 5:45:00 AM 6.82 44.276 0.03 6.62 5.49 11.14
11/4/2022 6:00:00 AM 6.78 44.204 0.03 6.62 5.42 11.17
11/4/2022 6:15:00 AM 6.75 44.15 0.03 6.61 5.44 11.18
11/4/2022 6:30:00 AM 6.72 44.096 0.03 6.62 5.48 11.19
11/4/2022 6:45:00 AM 6.69 44.042 0.03 6.62 5.51 11.2
11/4/2022 7:00:00 AM 6.68 44.024 0.03 6.62 5.4 11.22
11/4/2022 7:15:00 AM 6.65 43.97 0.03 6.61 5.52 11.18
11/4/2022 7:30:00 AM 6.6 43.88 0.03 6.61 5.41 11.24
11/4/2022 7:45:00 AM 6.57 43.826 0.03 6.62 5.46 11.25
11/4/2022 8:00:00 AM 6.56 43.808 0.029 6.62 5.45 11.26
11/4/2022 8:15:00 AM 6.55 43.79 0.029 6.63 5.46 11.28
11/4/2022 8:30:00 AM 6.54 43.772 0.029 6.63 5.46 11.29
11/4/2022 8:45:00 AM 6.54 43.772 0.029 6.63 5.43 11.32
11/4/2022 9:00:00 AM 6.56 43.808 0.029 6.63 5.44 11.38
11/4/2022 9:15:00 AM 6.58 43.844 0.029 6.64 5.39 11.4
11/4/2022 9:30:00 AM 6.6 43.88 0.029 6.65 5.29 11.4
11/4/2022 9:45:00 AM 6.66 43.988 0.029 6.65 5.39 11.42
11/4/2022 10:00:00 AM 6.73 44.114 0.029 6.66 5.38 11.46
11/4/2022 10:15:00 AM 6.83 44.294 0.029 6.66 5.44 11.5
11/4/2022 10:30:00 AM 6.93 44.474 0.029 6.67 5.38 11.51
11/4/2022 10:45:00 AM 7.07 44.726 0.029 6.68 5.35 11.57
11/4/2022 11:00:00 AM 7.27 45.086 0.029 6.69 5.38 11.56
11/4/2022 11:15:00 AM 7.42 45.356 0.029 6.7 5.32 11.55
11/4/2022 11:30:00 AM 7.63 45.734 0.029 6.7 5.35 11.54
11/4/2022 11:45:00 AM 7.81 46.058 0.029 6.71 5.31 11.5
11/4/2022 12:00:00 PM 8.05 46.49 0.029 6.72 5.34 11.48
11/4/2022 12:15:00 PM 8.29 46.922 0.028 6.72 5.3 11.46
11/4/2022 12:30:00 PM 8.45 47.21 0.028 6.73 5.25 11.42
11/4/2022 12:45:00 PM 8.69 47.642 0.028 6.73 5.34 11.38
11/4/2022 1:00:00 PM 8.86 47.948 0.028 6.73 5.29 11.33
11/4/2022 1:15:00 PM 9.09 48.362 0.028 6.73 5.3 11.31
11/4/2022 1:30:00 PM 9.3 48.74 0.028 6.74 5.23 11.27
11/4/2022 1:45:00 PM 9.52 49.136 0.028 6.74 5.26 11.23
11/4/2022 2:00:00 PM 9.72 49.496 0.028 6.74 5.22 11.22
11/4/2022 2:15:00 PM 9.87 49.766 0.028 6.75 5.19 11.18
11/4/2022 2:30:00 PM 9.99 49.982 0.028 6.76 5.17 11.13
11/4/2022 2:45:00 PM 10.1 50.18 0.028 6.76 5.23 11.09
11/4/2022 3:00:00 PM 10.19 50.342 0.028 6.76 5.24 11.05
11/4/2022 3:15:00 PM 10.27 50.486 0.028 6.76 5.23 11.02
11/4/2022 3:30:00 PM 10.36 50.648 0.028 6.76 5.16 10.98
11/4/2022 3:45:00 PM 10.43 50.774 0.028 6.76 5.23 10.95
11/4/2022 4:00:00 PM 10.48 50.864 0.028 6.76 5.29 10.92
11/4/2022 4:15:00 PM 10.55 50.99 0.028 6.76 5.16 10.88
11/4/2022 4:30:00 PM 10.59 51.062 0.028 6.76 5.24 10.87
11/4/2022 4:45:00 PM 10.59 51.062 0.028 6.77 5.21 10.83
11/4/2022 5:00:00 PM 10.56 51.008 0.028 6.75 5.31 10.66
11/4/2022 5:15:00 PM 10.52 50.936 0.028 6.76 5.08 10.73
11/4/2022 5:30:00 PM 10.45 50.81 0.029 6.76 5.17 10.73
11/4/2022 5:45:00 PM 10.39 50.702 0.028 6.77 5.17 10.73
11/4/2022 6:00:00 PM 10.32 50.576 0.028 6.77 5.19 10.69
11/4/2022 6:15:00 PM 10.26 50.468 0.029 6.77 5.18 10.64
11/4/2022 6:30:00 PM 10.19 50.342 0.029 6.76 5.2 10.57
11/4/2022 6:45:00 PM 10.12 50.216 0.029 6.75 5.2 10.53
11/4/2022 7:00:00 PM 10.04 50.072 0.029 6.75 5.25 10.52
11/4/2022 7:15:00 PM 9.98 49.964 0.029 6.74 5.18 10.5
11/4/2022 7:30:00 PM 9.91 49.838 0.029 6.74 5.21 10.47
11/4/2022 7:45:00 PM 9.86 49.748 0.029 6.73 5.22 10.47
11/4/2022 8:00:00 PM 9.81 49.658 0.029 6.73 5.2 10.46
11/4/2022 8:15:00 PM 9.75 49.55 0.029 6.72 5.25 10.46
11/4/2022 8:30:00 PM 9.7 49.46 0.029 6.72 5.26 10.45
11/4/2022 8:45:00 PM 9.65 49.37 0.029 6.71 5.28 10.46
11/4/2022 9:00:00 PM 9.61 49.298 0.029 6.71 5.28 10.45
11/4/2022 9:15:00 PM 9.58 49.244 0.029 6.7 5.29 10.46
11/4/2022 9:30:00 PM 9.55 49.19 0.029 6.7 5.23 10.47
11/4/2022 9:45:00 PM 9.5 49.1 0.029 6.7 5.22 10.46
11/4/2022 10:00:00 PM 9.46 49.028 0.029 6.7 5.23 10.48
11/4/2022 10:15:00 PM 9.43 48.974 0.03 6.7 5.26 10.49
11/4/2022 10:30:00 PM 9.38 48.884 0.03 6.69 5.31 10.49
11/4/2022 10:45:00 PM 9.34 48.812 0.03 6.69 5.31 10.5
11/4/2022 11:00:00 PM 9.31 48.758 0.03 6.69 5.32 10.51
11/4/2022 11:15:00 PM 9.29 48.722 0.03 6.69 5.26 10.51
11/4/2022 11:30:00 PM 9.29 48.722 0.03 6.69 5.24 10.51
11/4/2022 11:45:00 PM 9.3 48.74 0.03 6.68 5.28 10.53
11/5/2022 12:00:00 AM 9.32 48.776 0.03 6.68 5.32 10.52
11/5/2022 12:15:00 AM 9.35 48.83 0.03 6.68 5.3 10.5
11/5/2022 12:30:00 AM 9.38 48.884 0.03 6.68 5.24 10.49
11/5/2022 12:45:00 AM 9.41 48.938 0.03 6.68 5.24 10.5
11/5/2022 1:00:00 AM 9.45 49.01 0.03 6.68 5.4 10.48
11/5/2022 1:15:00 AM 9.5 49.1 0.03 6.68 5.31 10.5
11/5/2022 1:30:00 AM 9.54 49.172 0.03 6.68 5.29 10.5
11/5/2022 1:45:00 AM 9.57 49.226 0.03 6.69 5.22 10.49
11/5/2022 2:00:00 AM 9.62 49.316 0.03 6.69 5.33 10.47
11/5/2022 2:15:00 AM 9.65 49.37 0.03 6.69 5.32 10.45
11/5/2022 2:30:00 AM 9.69 49.442 0.03 6.69 5.28 10.43
11/5/2022 2:45:00 AM 9.73 49.514 0.03 6.69 5.37 10.44
11/5/2022 3:00:00 AM 9.78 49.604 0.03 6.68 5.4 10.44
11/5/2022 3:15:00 AM 9.81 49.658 0.03 6.69 5.42 10.43
11/5/2022 3:30:00 AM 9.85 49.73 0.03 6.69 5.47 10.42
11/5/2022 3:45:00 AM 9.89 49.802 0.03 6.69 5.33 10.41
11/5/2022 4:00:00 AM 9.93 49.874 0.03 6.69 5.3 10.38
11/5/2022 4:15:00 AM 9.97 49.946 0.03 6.68 5.45 10.35
11/5/2022 4:30:00 AM 10 50 0.03 6.69 5.31 10.36
11/5/2022 4:45:00 AM 10.05 50.09 0.03 6.68 5.45 10.33
11/5/2022 5:00:00 AM 10.08 50.144 0.03 6.69 5.29 10.34
11/5/2022 5:15:00 AM 10.1 50.18 0.03 6.69 5.31 10.33
11/5/2022 5:30:00 AM 10.15 50.27 0.03 6.68 5.31 10.32
11/5/2022 5:45:00 AM 10.17 50.306 0.03 6.69 5.3 10.33
11/5/2022 6:00:00 AM 10.2 50.36 0.03 6.69 5.31 10.31
11/5/2022 6:15:00 AM 10.22 50.396 0.03 6.69 5.35 10.31
11/5/2022 6:30:00 AM 10.25 50.45 0.03 6.69 5.24 10.31
11/5/2022 6:45:00 AM 10.27 50.486 0.03 6.69 5.26 10.3
11/5/2022 7:00:00 AM 10.3 50.54 0.03 6.69 5.38 10.27
11/5/2022 7:15:00 AM 10.32 50.576 0.03 6.69 5.3 10.27
11/5/2022 7:30:00 AM 10.35 50.63 0.03 6.69 5.29 10.25
11/5/2022 7:45:00 AM 10.4 50.72 0.03 6.68 5.32 10.23
11/5/2022 8:00:00 AM 10.43 50.774 0.03 6.69 5.32 10.21
11/5/2022 8:15:00 AM 10.47 50.846 0.03 6.68 5.33 10.2
11/5/2022 8:30:00 AM 10.52 50.936 0.03 6.67 30.33 10.16
11/5/2022 8:45:00 AM 10.58 51.044 0.03 6.67 5.56 10.15
11/5/2022 9:00:00 AM 10.64 51.152 0.03 6.68 5.39 10.18
11/5/2022 9:15:00 AM 10.71 51.278 0.029 6.68 4.9 10.2
11/5/2022 9:30:00 AM 10.76 51.368 0.029 6.69 4.89 10.18
11/5/2022 9:45:00 AM 10.83 51.494 0.029 6.69 4.91 10.13
11/5/2022 10:00:00 AM 10.92 51.656 0.03 6.68 4.95 10.12
11/5/2022 10:15:00 AM 11 51.8 0.03 6.68 4.93 10.18
11/5/2022 10:30:00 AM 11.09 51.962 0.029 6.69 4.86 10.19
11/5/2022 10:45:00 AM 11.17 52.106 0.029 6.7 4.84 10.19
11/5/2022 11:00:00 AM 11.27 52.286 0.029 6.71 15.97 10.22
11/5/2022 11:15:00 AM 11.36 52.448 0.029 6.71 4.81 10.26
11/5/2022 11:30:00 AM 11.45 52.61 0.029 6.71 4.8 10.3
11/5/2022 11:45:00 AM 11.57 52.826 0.029 6.72 4.79 10.29
11/5/2022 12:00:00 PM 11.66 52.988 0.029 6.73 4.81 10.3
11/5/2022 12:15:00 PM 11.8 53.24 0.029 6.74 4.75 10.33
11/5/2022 12:30:00 PM 11.92 53.456 0.029 6.74 4.81 10.36
11/5/2022 12:45:00 PM 12.04 53.672 0.029 6.74 4.79 10.34
11/5/2022 1:00:00 PM 12.18 53.924 0.029 6.74 4.74 10.37
11/5/2022 1:15:00 PM 12.28 54.104 0.029 6.75 4.78 10.37
11/5/2022 1:30:00 PM 12.44 54.392 0.029 6.74 4.8 10.35
11/5/2022 1:45:00 PM 12.57 54.626 0.029 6.75 4.8 10.36
11/5/2022 2:00:00 PM 12.69 54.842 0.029 6.76 4.74 10.32
11/5/2022 2:15:00 PM 12.82 55.076 0.029 6.76 4.71 10.31
11/5/2022 2:30:00 PM 12.93 55.274 0.029 6.77 4.69 10.28
11/5/2022 2:45:00 PM 13.01 55.418 0.029 6.77 4.76 10.28
11/5/2022 3:00:00 PM 13.1 55.58 0.029 6.77 4.91 10.24
11/5/2022 3:15:00 PM 13.17 55.706 0.029 6.77 4.7 10.22
11/5/2022 3:30:00 PM 13.2 55.76 0.029 6.78 4.91 10.22
11/5/2022 3:45:00 PM 13.25 55.85 0.028 6.79 4.8 10.2
11/5/2022 4:00:00 PM 13.28 55.904 0.029 6.8 4.7 10.18
11/5/2022 4:15:00 PM 13.28 55.904 0.029 6.79 4.71 10.13
11/5/2022 4:30:00 PM 13.32 55.976 0.029 6.79 4.75 10.1
11/5/2022 4:45:00 PM 13.32 55.976 0.029 6.79 4.69 10.09
11/5/2022 5:00:00 PM 13.32 55.976 0.029 6.79 4.65 10.05
11/5/2022 5:15:00 PM 13.32 55.976 0.029 6.78 4.75 10.02
11/5/2022 5:30:00 PM 13.32 55.976 0.029 6.78 4.75 9.96
11/5/2022 5:45:00 PM 13.31 55.958 0.029 6.78 4.72 9.92
11/5/2022 6:00:00 PM 13.27 55.886 0.029 6.77 4.82 9.86
11/5/2022 6:15:00 PM 13.22 55.796 0.029 6.77 4.71 9.8
11/5/2022 6:30:00 PM 13.19 55.742 0.029 6.76 4.79 9.73
11/5/2022 6:45:00 PM 13.15 55.67 0.029 6.75 4.81 9.69
11/5/2022 7:00:00 PM 13.11 55.598 0.03 6.74 4.76 9.64
11/5/2022 7:15:00 PM 13.08 55.544 0.029 6.74 4.72 9.61
11/5/2022 7:30:00 PM 13.03 55.454 0.03 6.73 4.93 9.59
11/5/2022 7:45:00 PM 12.99 55.382 0.03 6.72 4.77 9.54
11/5/2022 8:00:00 PM 12.95 55.31 0.03 6.71 4.81 9.54
11/5/2022 8:15:00 PM 12.9 55.22 0.03 6.71 4.81 9.52
11/5/2022 8:30:00 PM 12.87 55.166 0.03 6.71 4.85 9.54
11/5/2022 8:45:00 PM 12.84 55.112 0.03 6.71 4.84 9.53
11/5/2022 9:00:00 PM 12.81 55.058 0.03 6.71 4.82 9.53
11/5/2022 9:15:00 PM 12.8 55.04 0.03 6.71 4.9 9.53
11/5/2022 9:30:00 PM 12.78 55.004 0.03 6.71 4.75 9.55
11/5/2022 9:45:00 PM 12.76 54.968 0.03 6.71 4.84 9.56
11/5/2022 10:00:00 PM 12.74 54.932 0.03 6.71 4.77 9.56
11/5/2022 10:15:00 PM 12.72 54.896 0.03 6.71 4.8 9.55
11/5/2022 10:30:00 PM 12.7 54.86 0.03 6.71 4.85 9.57
11/5/2022 10:45:00 PM 12.68 54.824 0.03 6.71 4.79 9.59
11/5/2022 11:00:00 PM 12.68 54.824 0.03 6.71 4.81 9.6
11/5/2022 11:15:00 PM 12.67 54.806 0.03 6.71 4.86 9.61
11/5/2022 11:30:00 PM 12.67 54.806 0.03 6.71 4.9 9.6
11/5/2022 11:45:00 PM 12.67 54.806 0.03 6.71 5.14 9.6
11/6/2022 12:00:00 AM 12.68 54.824 0.03 6.71 5.08 9.61
11/6/2022 12:15:00 AM 12.69 54.842 0.029 6.71 4.84 9.61
11/6/2022 12:30:00 AM 12.69 54.842 0.029 6.71 4.87 9.6
11/6/2022 12:45:00 AM 12.7 54.86 0.03 6.71 4.85 9.57
11/6/2022 1:00:00 AM 12.71 54.878 0.03 6.71 4.9 9.57
11/6/2022 1:15:00 AM 12.73 54.914 0.03 6.7 4.87 9.53
11/6/2022 1:30:00 AM 12.74 54.932 0.03 6.7 4.83 9.55
11/6/2022 1:45:00 AM 12.77 54.986 0.03 6.71 4.83 9.58
11/6/2022 2:00:00 AM 12.78 55.004 0.03 6.71 4.84 9.56
11/6/2022 2:15:00 AM 12.8 55.04 0.03 6.71 4.95 9.58
11/6/2022 2:30:00 AM 12.82 55.076 0.03 6.71 4.89 9.58
11/6/2022 2:45:00 AM 12.84 55.112 0.03 6.7 4.91 9.57
11/6/2022 3:00:00 AM 12.84 55.112 0.03 6.7 4.87 9.54
11/6/2022 3:15:00 AM 12.84 55.112 0.03 6.7 4.86 9.56
11/6/2022 3:30:00 AM 12.85 55.13 0.03 6.7 4.94 9.56
11/6/2022 3:45:00 AM 12.86 55.148 0.03 6.7 4.95 9.54
11/6/2022 4:00:00 AM 12.87 55.166 0.03 6.7 4.99 9.55
11/6/2022 4:15:00 AM 12.88 55.184 0.03 6.7 5.06 9.54
11/6/2022 4:30:00 AM 12.9 55.22 0.03 6.7 5.11 9.55
11/6/2022 4:45:00 AM 12.91 55.238 0.03 6.7 4.92 9.55
11/6/2022 5:00:00 AM 12.93 55.274 0.03 6.7 4.9 9.54
11/6/2022 5:15:00 AM 12.94 55.292 0.03 6.7 4.93 9.52
11/6/2022 5:30:00 AM 12.96 55.328 0.03 6.7 5.02 9.53
11/6/2022 5:45:00 AM 12.98 55.364 0.03 6.7 4.94 9.52
11/6/2022 6:00:00 AM 12.99 55.382 0.03 6.7 5 9.52
11/6/2022 6:15:00 AM 13.01 55.418 0.03 6.7 4.93 9.5
11/6/2022 6:30:00 AM 13.02 55.436 0.03 6.7 4.94 9.51
11/6/2022 6:45:00 AM 13.03 55.454 0.03 6.7 4.96 9.52
11/6/2022 7:00:00 AM 13.04 55.472 0.03 6.7 4.98 9.49
11/6/2022 7:15:00 AM 13.05 55.49 0.03 6.7 4.95 9.5
11/6/2022 7:30:00 AM 13.05 55.49 0.03 6.7 4.97 9.51
11/6/2022 7:45:00 AM 13.05 55.49 0.03 6.7 4.92 9.51
11/6/2022 8:00:00 AM 13.07 55.526 0.03 6.7 4.89 9.51
11/6/2022 8:15:00 AM 13.08 55.544 0.03 6.7 4.97 9.49
11/6/2022 8:30:00 AM 13.09 55.562 0.03 6.69 4.97 9.47
11/6/2022 8:45:00 AM 13.11 55.598 0.03 6.7 5.02 9.48
11/6/2022 9:00:00 AM 13.13 55.634 0.03 6.69 4.93 9.43
11/6/2022 9:15:00 AM 13.15 55.67 0.03 6.69 4.97 9.46
11/6/2022 9:30:00 AM 13.17 55.706 0.03 6.7 4.95 9.49
11/6/2022 9:45:00 AM 13.19 55.742 0.03 6.7 4.89 9.52
11/6/2022 10:00:00 AM 13.21 55.778 0.03 6.71 4.92 9.54
11/6/2022 10:15:00 AM 13.43 56.174 0.03 6.73 4.95 9.65
11/6/2022 10:30:00 AM 13.53 56.354 0.03 6.74 4.98 9.66
11/6/2022 10:45:00 AM 13.61 56.498 0.03 6.75 4.96 9.66
11/6/2022 11:00:00 AM 13.68 56.624 0.029 6.76 4.92 9.8
11/6/2022 11:15:00 AM 13.76 56.768 0.029 6.77 5.07 9.82
11/6/2022 11:30:00 AM 13.82 56.876 0.029 6.77 4.93 9.85
11/6/2022 11:45:00 AM 13.89 57.002 0.029 6.77 4.99 9.86
11/6/2022 12:00:00 PM 14 57.2 0.029 6.78 4.94 9.87
11/6/2022 12:15:00 PM 14.07 57.326 0.029 6.79 5.05 9.92
11/6/2022 12:30:00 PM 14.14 57.452 0.029 6.8 4.98 9.97
11/6/2022 12:45:00 PM 14.21 57.578 0.029 6.8 4.97 9.95
11/6/2022 1:00:00 PM 14.26 57.668 0.029 6.8 4.99 9.96
11/6/2022 1:15:00 PM 14.35 57.83 0.029 6.81 4.95 9.91
11/6/2022 1:30:00 PM 14.45 58.01 0.029 6.81 6.16 9.9
11/6/2022 1:45:00 PM 14.54 58.172 0.029 6.81 6.2 9.91
11/6/2022 2:00:00 PM 14.63 58.334 0.029 6.8 6.36 9.89
11/6/2022 2:15:00 PM 14.72 58.496 0.029 6.79 5.13 9.74
11/6/2022 2:30:00 PM 14.8 58.64 0.029 6.8 5.11 9.79
11/6/2022 2:45:00 PM 14.84 58.712 0.029 6.81 5.08 9.84
11/6/2022 3:00:00 PM 14.89 58.802 0.029 6.82 5.07 9.85
11/6/2022 3:15:00 PM 14.91 58.838 0.029 6.82 5.11 9.84
11/6/2022 3:30:00 PM 14.91 58.838 0.029 6.83 5.08 9.84
11/6/2022 3:45:00 PM 14.89 58.802 0.029 6.83 5.05 9.82
11/6/2022 4:00:00 PM 14.88 58.784 0.029 6.83 5.13 9.77
11/6/2022 4:15:00 PM 14.85 58.73 0.029 6.83 5.08 9.73
11/6/2022 4:30:00 PM 14.81 58.658 0.029 6.82 5.08 9.66
11/6/2022 4:45:00 PM 14.77 58.586 0.029 6.81 5.12 9.63
11/6/2022 5:00:00 PM 14.73 58.514 0.029 6.8 5.11 9.56
11/6/2022 5:15:00 PM 14.68 58.424 0.029 6.79 5.17 9.5
11/6/2022 5:30:00 PM 14.64 58.352 0.03 6.78 5.31 9.41
11/6/2022 5:45:00 PM 14.59 58.262 0.03 6.76 5.15 9.36
11/6/2022 6:00:00 PM 14.56 58.208 0.03 6.76 5.11 9.34
11/6/2022 6:15:00 PM 14.53 58.154 0.03 6.75 5.16 9.3
11/6/2022 6:30:00 PM 14.5 58.1 0.03 6.74 5.15 9.25
11/6/2022 6:45:00 PM 14.49 58.082 0.03 6.73 5.15 9.25
11/6/2022 7:00:00 PM 14.47 58.046 0.03 6.73 5.22 9.23
11/6/2022 7:15:00 PM 14.46 58.028 0.03 6.73 5.16 9.21
11/6/2022 7:30:00 PM 14.45 58.01 0.03 6.73 5.21 9.21
11/6/2022 7:45:00 PM 14.44 57.992 0.03 6.72 5.17 9.2
11/6/2022 8:00:00 PM 14.43 57.974 0.03 6.72 5.22 9.19
11/6/2022 8:15:00 PM 14.42 57.956 0.03 6.71 5.24 9.17
11/6/2022 8:30:00 PM 14.41 57.938 0.03 6.71 5.28 9.16
11/6/2022 8:45:00 PM 14.4 57.92 0.03 6.71 5.43 9.17
11/6/2022 9:00:00 PM 14.4 57.92 0.03 6.71 5.21 9.17
11/6/2022 9:15:00 PM 14.39 57.902 0.03 6.7 5.19 9.18
11/6/2022 9:30:00 PM 14.39 57.902 0.03 6.69 5.23 9.12
11/6/2022 9:45:00 PM 14.39 57.902 0.03 6.69 5.33 9.14
11/6/2022 10:00:00 PM 14.4 57.92 0.03 6.69 5.25 9.17
11/6/2022 10:15:00 PM 14.39 57.902 0.03 6.69 5.24 9.15
11/6/2022 10:30:00 PM 14.4 57.92 0.03 6.69 5.23 9.15
11/6/2022 10:45:00 PM 14.41 57.938 0.03 6.69 5.19 9.17
11/6/2022 11:00:00 PM 14.42 57.956 0.03 6.69 5.29 9.14
11/6/2022 11:15:00 PM 14.41 57.938 0.031 6.68 5.25 9.13
11/6/2022 11:30:00 PM 14.41 57.938 0.031 6.69 5.22 9.13
11/6/2022 11:45:00 PM 14.41 57.938 0.03 6.69 5.26 9.16
11/7/2022 12:00:00 AM 14.41 57.938 0.03 6.69 5.24 9.17
11/7/2022 12:15:00 AM 14.41 57.938 0.03 6.7 5.26 9.17
11/7/2022 12:30:00 AM 14.41 57.938 0.03 6.7 5.26 9.17
11/7/2022 12:45:00 AM 14.4 57.92 0.03 6.69 5.44 9.17
11/7/2022 1:00:00 AM 14.4 57.92 0.03 6.69 5.25 9.16
11/7/2022 1:15:00 AM 14.4 57.92 0.03 6.7 5.41 9.16
11/7/2022 1:30:00 AM 14.38 57.884 0.03 6.69 5.23 9.16
11/7/2022 1:45:00 AM 14.38 57.884 0.03 6.69 5.26 9.09
11/7/2022 2:00:00 AM 14.36 57.848 0.03 6.68 5.25 9.15
11/7/2022 2:15:00 AM 14.35 57.83 0.03 6.68 5.21 9.14
11/7/2022 2:30:00 AM 14.32 57.776 0.03 6.68 5.26 9.16
11/7/2022 2:45:00 AM 14.29 57.722 0.03 6.68 5.28 9.15
11/7/2022 3:00:00 AM 14.25 57.65 0.03 6.68 5.27 9.17
11/7/2022 3:15:00 AM 14.2 57.56 0.03 6.68 5.24 9.17
11/7/2022 3:30:00 AM 14.16 57.488 0.03 6.68 5.39 9.21
11/7/2022 3:45:00 AM 14.11 57.398 0.03 6.67 5.25 9.2
11/7/2022 4:00:00 AM 14.07 57.326 0.03 6.67 5.29 9.22
11/7/2022 4:15:00 AM 14.02 57.236 0.031 6.65 5.27 9.17
11/7/2022 4:30:00 AM 13.97 57.146 0.03 6.66 5.33 9.2
11/7/2022 4:45:00 AM 13.92 57.056 0.03 6.66 5.33 9.22
11/7/2022 5:00:00 AM 13.85 56.93 0.03 6.65 5.32 9.22
11/7/2022 5:15:00 AM 13.8 56.84 0.03 6.65 6.22 9.21
11/7/2022 5:30:00 AM 13.75 56.75 0.03 6.64 5.62 9.18
11/7/2022 5:45:00 AM 13.69 56.642 0.03 6.64 6.45 9.23
11/7/2022 6:00:00 AM 13.62 56.516 0.03 6.63 6.29 9.17
11/7/2022 6:15:00 AM 13.56 56.408 0.03 6.63 5.7 9.23
11/7/2022 6:30:00 AM 13.47 56.246 0.03 6.63 5.43 9.29
11/7/2022 6:45:00 AM 13.39 56.102 0.03 6.63 5.46 9.34
11/7/2022 7:00:00 AM 13.31 55.958 0.03 6.63 5.46 9.38
11/7/2022 7:15:00 AM 13.24 55.832 0.029 6.63 5.39 9.35
11/7/2022 7:30:00 AM 13.16 55.688 0.029 6.64 5.33 9.44
11/7/2022 7:45:00 AM 13.09 55.562 0.029 6.63 5.41 9.47
11/7/2022 8:00:00 AM 13.04 55.472 0.03 6.63 5.4 9.52
11/7/2022 8:15:00 AM 12.98 55.364 0.03 6.63 5.35 9.56
11/7/2022 8:30:00 AM 12.94 55.292 0.029 6.65 5.53 9.6
11/7/2022 8:45:00 AM 12.9 55.22 0.03 6.66 14 9.63
11/7/2022 9:00:00 AM 12.87 55.166 0.029 6.66 14.27 9.69
11/7/2022 9:15:00 AM 12.86 55.148 0.029 6.67 15.72 9.75
11/7/2022 9:30:00 AM 12.87 55.166 0.029 6.69 15.81 9.77
11/7/2022 9:45:00 AM 12.91 55.238 0.029 6.7 15.93 9.77
11/7/2022 10:00:00 AM 12.96 55.328 0.029 6.71 15.28 9.83
11/7/2022 10:15:00 AM 13.02 55.436 0.029 6.72 15.55 9.8
11/7/2022 10:30:00 AM 13.1 55.58 0.029 6.72 15.47 9.83
11/7/2022 10:45:00 AM 13.19 55.742 0.029 6.73 15.72 9.88
11/7/2022 11:00:00 AM 13.28 55.904 0.029 6.74 15.74 9.9
11/7/2022 11:15:00 AM 13.38 56.084 0.029 6.75 15.52 9.94
11/7/2022 11:30:00 AM 13.49 56.282 0.029 6.75 15.88 9.95
11/7/2022 11:45:00 AM 13.59 56.462 0.029 6.75 15.94 9.92
11/7/2022 12:00:00 PM 13.66 56.588 0.029 6.76 16.07 9.95
11/7/2022 12:15:00 PM 13.77 56.786 0.029 6.76 16.04 9.95
11/7/2022 12:30:00 PM 13.85 56.93 0.028 6.76 16.18 9.95
11/7/2022 12:45:00 PM 13.94 57.092 0.028 6.76 16.17 9.93
11/7/2022 1:00:00 PM 13.99 57.182 0.028 6.77 16.27 9.95
11/7/2022 1:15:00 PM 14.04 57.272 0.029 6.77 16.31 9.92
11/7/2022 1:30:00 PM 14.07 57.326 0.029 6.77 18.48 9.87
11/7/2022 1:45:00 PM 14.08 57.344 0.029 6.76 18.56 9.8
11/7/2022 2:00:00 PM 14.09 57.362 0.029 6.76 18.48 9.83
11/7/2022 2:15:00 PM 14.09 57.362 0.029 6.76 18.48 9.86
11/7/2022 2:30:00 PM 14.07 57.326 0.029 6.77 18.42 9.88
11/7/2022 2:45:00 PM 14.04 57.272 0.029 6.77 18.55 9.9
11/7/2022 3:00:00 PM 13.99 57.182 0.029 6.78 18.51 9.89
11/7/2022 3:15:00 PM 13.91 57.038 0.029 6.78 18.55 9.89
11/7/2022 3:30:00 PM 13.82 56.876 0.029 6.77 18.71 9.79
11/7/2022 3:45:00 PM 13.69 56.642 0.029 6.77 18.56 9.86
11/7/2022 4:00:00 PM 13.56 56.408 0.029 6.78 18.67 9.82
11/7/2022 4:15:00 PM 13.43 56.174 0.029 6.78 18.71 9.85
11/7/2022 4:30:00 PM 13.29 55.922 0.029 6.78 18.49 9.81
11/7/2022 4:45:00 PM 13.15 55.67 0.029 6.77 18.46 9.81
11/7/2022 5:00:00 PM 13.03 55.454 0.029 6.76 18.69 9.78
11/7/2022 5:15:00 PM 12.89 55.202 0.029 6.75 17.96 9.73
11/7/2022 5:30:00 PM 12.74 54.932 0.029 6.75 20.08 9.73
11/7/2022 5:45:00 PM 12.63 54.734 0.029 6.73 20 9.7
11/7/2022 6:00:00 PM 12.5 54.5 0.029 6.73 19.99 9.67
11/7/2022 6:15:00 PM 12.36 54.248 0.029 6.73 20.11 9.71
11/7/2022 6:30:00 PM 12.25 54.05 0.03 6.72 20.13 9.73
11/7/2022 6:45:00 PM 12.12 53.816 0.029 6.72 20.17 9.74
11/7/2022 7:00:00 PM 11.99 53.582 0.03 6.71 20.29 9.76
11/7/2022 7:15:00 PM 11.86 53.348 0.029 6.7 20.39 9.76
11/7/2022 7:30:00 PM 11.75 53.15 0.029 6.7 20.29 9.74
11/7/2022 7:45:00 PM 11.64 52.952 0.029 6.7 20.28 9.8
11/7/2022 8:00:00 PM 11.53 52.754 0.029 6.7 20.25 9.83
11/7/2022 8:15:00 PM 11.45 52.61 0.029 6.7 20.31 9.86
11/7/2022 8:30:00 PM 11.34 52.412 0.029 6.7 20.33 9.89
11/7/2022 8:45:00 PM 11.26 52.268 0.029 6.69 20.34 9.9
11/7/2022 9:00:00 PM 11.19 52.142 0.029 6.69 20.47 9.9
11/7/2022 9:15:00 PM 11.1 51.98 0.029 6.69 20.3 9.92
11/7/2022 9:30:00 PM 11.01 51.818 0.03 6.7 20.11 9.96
11/7/2022 9:45:00 PM 10.93 51.674 0.029 6.69 20.12 9.98
11/7/2022 10:00:00 PM 10.86 51.548 0.03 6.69 20.06 10
11/7/2022 10:15:00 PM 10.8 51.44 0.03 6.69 18.97 9.96
11/7/2022 10:30:00 PM 10.72 51.296 0.031 6.68 19.11 10.01
11/7/2022 10:45:00 PM 10.63 51.134 0.03 6.67 19.47 10.06
11/7/2022 11:00:00 PM 10.55 50.99 0.029 6.68 20.09 10.1
11/7/2022 11:15:00 PM 10.47 50.846 0.03 6.69 19.59 10.14
11/7/2022 11:30:00 PM 10.41 50.738 0.03 6.69 19.96 10.16
11/7/2022 11:45:00 PM 10.33 50.594 0.03 6.69 20.61 10.17
11/8/2022 12:00:00 AM 10.26 50.468 0.03 6.69 15.38 10.2
11/8/2022 12:15:00 AM 10.2 50.36 0.03 6.7 15.42 10.21
11/8/2022 12:30:00 AM 10.14 50.252 0.031 6.69 10.06 10.22
11/8/2022 12:45:00 AM 10.07 50.126 0.03 6.69 10.22 10.24
11/8/2022 1:00:00 AM 10 50 0.03 6.69 9.94 10.26
11/8/2022 1:15:00 AM 9.9 49.82 0.03 6.69 15.52 10.29
11/8/2022 1:30:00 AM 9.82 49.676 0.03 6.69 16.6 10.31
11/8/2022 1:45:00 AM 9.76 49.568 0.03 6.69 16.49 10.34
11/8/2022 2:00:00 AM 9.69 49.442 0.03 6.68 15.58 10.37
11/8/2022 2:15:00 AM 9.62 49.316 0.03 6.68 16.17 10.39
11/8/2022 2:30:00 AM 9.56 49.208 0.03 6.68 18.01 10.4
11/8/2022 2:45:00 AM 9.52 49.136 0.03 6.68 19.74 10.42
11/8/2022 3:00:00 AM 9.48 49.064 0.03 6.68 20.15 10.43
11/8/2022 3:15:00 AM 9.45 49.01 0.03 6.68 20.37 10.45
11/8/2022 3:30:00 AM 9.42 48.956 0.03 6.68 20.56 10.46
11/8/2022 3:45:00 AM 9.41 48.938 0.03 6.68 20.42 10.47
11/8/2022 4:00:00 AM 9.38 48.884 0.03 6.67 20.46 10.49
11/8/2022 4:15:00 AM 9.36 48.848 0.03 6.66 20.53 10.48
11/8/2022 4:30:00 AM 9.32 48.776 0.03 6.67 6.31 10.5
11/8/2022 4:45:00 AM 9.3 48.74 0.03 6.67 6.3 10.52
11/8/2022 5:00:00 AM 9.26 48.668 0.03 6.68 5.51 10.54
11/8/2022 5:15:00 AM 9.22 48.596 0.03 6.68 5.45 10.55
11/8/2022 5:30:00 AM 9.17 48.506 0.03 6.69 5.65 10.55
11/8/2022 5:45:00 AM 9.11 48.398 0.03 6.69 5.54 10.51
11/8/2022 6:00:00 AM 9.05 48.29 0.03 6.69 5.55 10.58
11/8/2022 6:15:00 AM 8.99 48.182 0.03 6.68 5.48 10.6
11/8/2022 6:30:00 AM 8.93 48.074 0.03 6.68 5.77 10.61
11/8/2022 6:45:00 AM 8.87 47.966 0.03 6.68 5.59 10.59
11/8/2022 7:00:00 AM 8.83 47.894 0.03 6.68 5.89 10.54
11/8/2022 7:15:00 AM 8.79 47.822 0.03 6.68 5.37 10.6
11/8/2022 7:30:00 AM 8.77 47.786 0.03 6.69 5.29 10.69
11/8/2022 7:45:00 AM 8.75 47.75 0.03 6.69 5.44 10.75
11/8/2022 8:00:00 AM 8.73 47.714 0.03 6.7 5.28 10.82
11/8/2022 8:15:00 AM 8.72 47.696 0.03 6.71 5.31 10.88
11/8/2022 8:30:00 AM 8.71 47.678 0.03 6.72 5.25 10.94
11/8/2022 8:45:00 AM 8.7 47.66 0.03 6.72 5.31 11.01
11/8/2022 9:00:00 AM 8.68 47.624 0.029 6.74 5.32 11.07
11/8/2022 9:15:00 AM 8.69 47.642 0.03 6.74 5.28 11.12
11/8/2022 9:30:00 AM 8.7 47.66 0.029 6.75 5.22 11.15
11/8/2022 9:45:00 AM 8.73 47.714 0.029 6.76 5.22 11.21
11/8/2022 10:00:00 AM 8.75 47.75 0.029 6.77 5.32 11.24
11/8/2022 10:15:00 AM 8.76 47.768 0.029 6.77 5.32 11.24
11/8/2022 10:30:00 AM 8.82 47.876 0.029 6.78 5.24 11.24
11/8/2022 10:45:00 AM 8.89 48.002 0.029 6.78 5.3 11.21
11/8/2022 11:00:00 AM 8.98 48.164 0.029 6.78 5.23 11.19
11/8/2022 11:15:00 AM 9.09 48.362 0.029 6.79 5.24 11.17
11/8/2022 11:30:00 AM 9.21 48.578 0.029 6.79 5.2 11.15
11/8/2022 11:45:00 AM 9.32 48.776 0.03 6.78 5.21 11.17
11/8/2022 12:00:00 PM 9.46 49.028 0.029 6.78 5.27 11.13
11/8/2022 12:15:00 PM 9.6 49.28 0.029 6.78 5.24 11.12
11/8/2022 12:30:00 PM 9.74 49.532 0.029 6.79 5.16 11.11
11/8/2022 12:45:00 PM 9.83 49.694 0.029 6.8 13.67 11.09
11/8/2022 1:00:00 PM 9.93 49.874 0.029 6.79 7.9 11.05
11/8/2022 1:15:00 PM 10 50 0.029 6.8 5.19 11.04
11/8/2022 1:30:00 PM 10.04 50.072 0.03 6.8 5.26 11.02
11/8/2022 1:45:00 PM 10.11 50.198 0.029 6.75 4.99 10.8
11/8/2022 2:00:00 PM 10.14 50.252 0.03 6.78 5.14 10.97
11/8/2022 2:15:00 PM 10.15 50.27 0.029 6.79 5.03 10.98
11/8/2022 2:30:00 PM 10.16 50.288 0.029 6.79 5.06 10.97
11/8/2022 2:45:00 PM 10.15 50.27 0.029 6.8 5.06 10.98
11/8/2022 3:00:00 PM 10.12 50.216 0.03 6.8 5.1 10.96
11/8/2022 3:15:00 PM 10.08 50.144 0.03 6.8 5.08 10.95
11/8/2022 3:30:00 PM 10.01 50.018 0.029 6.8 5.1 10.93
11/8/2022 3:45:00 PM 9.93 49.874 0.029 6.8 5.14 10.91
11/8/2022 4:00:00 PM 9.84 49.712 0.029 6.8 5.14 10.9
11/8/2022 4:15:00 PM 9.74 49.532 0.029 6.8 5.07 10.85
11/8/2022 4:30:00 PM 9.62 49.316 0.03 6.79 5.12 10.88
11/8/2022 4:45:00 PM 9.53 49.154 0.03 6.79 5.14 10.87
11/8/2022 5:00:00 PM 9.41 48.938 0.03 6.79 5.12 10.84
11/8/2022 5:15:00 PM 9.3 48.74 0.03 6.78 5.22 10.84
11/8/2022 5:30:00 PM 9.19 48.542 0.03 6.77 6.19 10.83
11/8/2022 5:45:00 PM 9.1 48.38 0.03 6.77 5.15 10.77
11/8/2022 6:00:00 PM 8.99 48.182 0.03 6.76 5.19 10.77
11/8/2022 6:15:00 PM 8.89 48.002 0.03 6.75 5.13 10.74
11/8/2022 6:30:00 PM 8.8 47.84 0.03 6.75 5.19 10.77
11/8/2022 6:45:00 PM 8.71 47.678 0.03 6.75 5.21 10.76
11/8/2022 7:00:00 PM 8.62 47.516 0.031 6.75 5.22 10.78
11/8/2022 7:15:00 PM 8.53 47.354 0.031 6.74 5.2 10.79
11/8/2022 7:30:00 PM 8.43 47.174 0.03 6.72 5.21 10.79
11/8/2022 7:45:00 PM 8.32 46.976 0.031 6.73 5.3 10.83
11/8/2022 8:00:00 PM 8.23 46.814 0.031 6.73 5.26 10.87
11/8/2022 8:15:00 PM 8.14 46.652 0.031 6.72 5.39 10.89
11/8/2022 8:30:00 PM 8.06 46.508 0.03 6.72 5.35 10.9
11/8/2022 8:45:00 PM 7.97 46.346 0.031 6.72 5.34 10.94
11/8/2022 9:00:00 PM 7.9 46.22 0.031 6.68 5.36 10.96
11/8/2022 9:15:00 PM 7.82 46.076 0.031 6.67 5.42 10.97
11/8/2022 9:30:00 PM 7.76 45.968 0.031 6.68 5.48 11
11/8/2022 9:45:00 PM 7.71 45.878 0.032 6.68 5.49 11
11/8/2022 10:00:00 PM 7.62 45.716 0.031 6.67 5.47 10.98
11/8/2022 10:15:00 PM 7.56 45.608 0.031 6.67 5.48 11.01
11/8/2022 10:30:00 PM 7.49 45.482 0.031 6.67 5.46 11.04
11/8/2022 10:45:00 PM 7.43 45.374 0.031 6.68 5.43 11.07
11/8/2022 11:00:00 PM 7.37 45.266 0.031 6.68 5.44 11.09
11/8/2022 11:15:00 PM 7.3 45.14 0.031 6.68 5.47 11.11
11/8/2022 11:30:00 PM 7.25 45.05 0.031 6.68 5.58 11.12
11/8/2022 11:45:00 PM 7.16 44.888 0.031 6.66 5.47 11.13
11/9/2022 12:00:00 AM 7.09 44.762 0.031 6.65 5.55 11.15
11/9/2022 12:15:00 AM 7.02 44.636 0.031 6.66 5.56 11.19
11/9/2022 12:30:00 AM 6.96 44.528 0.032 6.66 5.57 11.2
11/9/2022 12:45:00 AM 6.91 44.438 0.032 6.66 5.42 11.22
11/9/2022 1:00:00 AM 6.81 44.258 0.031 6.66 5.39 11.24
11/9/2022 1:15:00 AM 6.76 44.168 0.031 6.66 5.41 11.27
11/9/2022 1:30:00 AM 6.7 44.06 0.031 6.66 5.98 11.31
11/9/2022 1:45:00 AM 6.65 43.97 0.031 6.65 5.99 11.32
11/9/2022 2:00:00 AM 6.58 43.844 0.031 6.65 5.99 11.34
11/9/2022 2:15:00 AM 6.51 43.718 0.031 6.65 5.98 11.36
11/9/2022 2:30:00 AM 6.46 43.628 0.031 6.65 5.97 11.39
11/9/2022 2:45:00 AM 6.4 43.52 0.031 6.65 6 11.4
11/9/2022 3:00:00 AM 6.34 43.412 0.032 6.65 6.11 11.42
11/9/2022 3:15:00 AM 6.29 43.322 0.031 6.65 6.07 11.43
11/9/2022 3:30:00 AM 6.23 43.214 0.032 6.65 6.01 11.41
11/9/2022 3:45:00 AM 6.16 43.088 0.032 6.64 5.96 11.42
11/9/2022 4:00:00 AM 6.1 42.98 0.031 6.64 5.96 11.46
11/9/2022 4:15:00 AM 6.05 42.89 0.033 6.6 5.65 11.12
11/9/2022 4:30:00 AM 5.98 42.764 0.032 6.57 8.68 11.19
11/9/2022 4:45:00 AM 5.91 42.638 0.032 6.53 8.47 11.11
11/9/2022 5:00:00 AM 5.83 42.494 0.031 6.58 8.32 10.55
11/9/2022 5:15:00 AM 5.78 42.404 0.035 6.58 7.09 11.37
11/9/2022 5:30:00 AM 5.7 42.26 0.031 6.59 7.71 11.44
11/9/2022 5:45:00 AM 5.65 42.17 0.031 6.61 7.08 11.59
11/9/2022 6:00:00 AM 5.58 42.044 0.031 6.63 7.34 11.66
11/9/2022 6:15:00 AM 5.51 41.918 0.031 6.64 7.05 11.71
11/9/2022 6:30:00 AM 5.47 41.846 0.034 6.49 7.04 11.4
11/9/2022 6:45:00 AM 5.41 41.738 0.032 6.52 7.31 11.42
11/9/2022 7:00:00 AM 5.35 41.63 0.032 6.47 7.38 11.43
11/9/2022 7:15:00 AM 5.3 41.54 0.032 6.46 7.44 11.22
11/9/2022 7:30:00 AM 5.27 41.486 0.038 6.48 7.48 11.3
11/9/2022 7:45:00 AM 5.19 41.342 0.032 6.59 7.49 11.8
11/9/2022 8:00:00 AM 5.16 41.288 0.031 6.63 7.49 11.89
11/9/2022 8:15:00 AM 5.13 41.234 0.032 6.65 7.44 11.95
11/9/2022 8:30:00 AM 5.1 41.18 0.032 6.66 7.45 12
11/9/2022 8:45:00 AM 5.08 41.144 0.031 6.68 7.45 12.05
11/9/2022 9:00:00 AM 5.09 41.162 0.032 6.69 7.54 12.1
11/9/2022 9:15:00 AM 5.11 41.198 0.031 6.7 7.46 12.13
11/9/2022 9:30:00 AM 5.15 41.27 0.031 6.72 7.42 12.18
11/9/2022 9:45:00 AM 5.21 41.378 0.031 6.73 7.46 12.2
11/9/2022 10:00:00 AM 5.31 41.558 0.031 6.74 7.46 12.22
11/9/2022 10:15:00 AM 5.4 41.72 0.032 6.75 7.38 12.21
11/9/2022 10:30:00 AM 5.49 41.882 0.031 6.77 7.39 12.11
11/9/2022 10:45:00 AM 5.69 42.242 0.031 6.77 7.41 12.11
11/9/2022 11:00:00 AM 5.84 42.512 0.031 6.79 7.43 12.15
11/9/2022 11:15:00 AM 6.03 42.854 0.031 6.8 7.39 12.13
11/9/2022 11:30:00 AM 6.22 43.196 0.031 6.81 7.4 12.09
11/9/2022 11:45:00 AM 6.39 43.502 0.032 6.81 7.41 12.05
11/9/2022 12:00:00 PM 6.58 43.844 0.031 6.81 7.36 12.03
11/9/2022 12:15:00 PM 6.76 44.168 0.03 6.82 7.38 11.99
11/9/2022 12:30:00 PM 6.9 44.42 0.031 6.82 7.35 11.96
11/9/2022 12:45:00 PM 7.06 44.708 0.031 6.81 7.35 11.89
11/9/2022 1:00:00 PM 7.22 44.996 0.031 6.81 7.34 11.88
11/9/2022 1:15:00 PM 7.34 45.212 0.031 6.82 8.51 11.85
11/9/2022 1:30:00 PM 7.47 45.446 0.03 6.82 8.61 11.83
11/9/2022 1:45:00 PM 7.57 45.626 0.031 6.83 8.6 11.8
11/9/2022 2:00:00 PM 7.66 45.788 0.03 6.83 8.53 11.78
11/9/2022 2:15:00 PM 7.72 45.896 0.031 6.84 8.51 11.76
11/9/2022 2:30:00 PM 7.77 45.986 0.031 6.83 8.5 11.74
11/9/2022 2:45:00 PM 7.81 46.058 0.031 6.83 8.56 11.71
11/9/2022 3:00:00 PM 7.84 46.112 0.031 6.84 8.53 11.71
11/9/2022 3:15:00 PM 7.83 46.094 0.031 6.84 8.53 11.68
11/9/2022 3:30:00 PM 7.81 46.058 0.038 6.83 9.35 11.63
11/9/2022 3:45:00 PM 7.77 45.986 0.038 6.58 7.8 10.91
11/9/2022 4:00:00 PM 7.72 45.896 0.034 6.61 7.83 10.93
11/9/2022 4:15:00 PM 7.64 45.752 0.033 6.7 7.9 11.21
11/9/2022 4:30:00 PM 7.57 45.626 0.032 6.7 7.88 11.09
11/9/2022 4:45:00 PM 7.5 45.5 0.031 6.7 7.92 11.07
11/9/2022 5:00:00 PM 7.39 45.302 0.031 6.68 7.9 11.23
11/9/2022 5:15:00 PM 7.33 45.194 0.032 6.64 8.02 11.19
11/9/2022 5:30:00 PM 7.24 45.032 0.031 6.72 8.1 11.41
11/9/2022 5:45:00 PM 7.16 44.888 0.031 6.74 8.17 11.37
11/9/2022 6:00:00 PM 7.09 44.762 0.031 6.75 6.62 11.37
11/9/2022 6:15:00 PM 7.01 44.618 0.031 6.76 6.6 11.37
11/9/2022 6:30:00 PM 6.92 44.456 0.031 6.76 6.6 11.35
11/9/2022 6:45:00 PM 6.84 44.312 0.031 6.76 6.6 11.36
11/9/2022 7:00:00 PM 6.75 44.15 0.031 6.76 6.59 11.38
11/9/2022 7:15:00 PM 6.65 43.97 0.031 6.76 6.56 11.39
11/9/2022 7:30:00 PM 6.56 43.808 0.032 6.76 6.64 11.4
11/9/2022 7:45:00 PM 6.5 43.7 0.032 6.75 6.75 11.41
11/9/2022 8:00:00 PM 6.41 43.538 0.032 6.75 6.66 11.43
11/9/2022 8:15:00 PM 6.34 43.412 0.032 6.75 7.17 11.43
11/9/2022 8:30:00 PM 6.26 43.268 0.032 6.75 6.69 11.46
11/9/2022 8:45:00 PM 6.18 43.124 0.032 6.75 6.69 11.47
11/9/2022 9:00:00 PM 6.11 42.998 0.032 6.75 6.65 11.52
11/9/2022 9:15:00 PM 6.06 42.908 0.032 6.74 6.69 11.52
11/9/2022 9:30:00 PM 6 42.8 0.032 6.75 6.63 11.53
11/9/2022 9:45:00 PM 5.94 42.692 0.032 6.74 6.68 11.54
11/9/2022 10:00:00 PM 5.89 42.602 0.032 6.74 6.69 11.57
11/9/2022 10:15:00 PM 5.84 42.512 0.032 6.74 6.69 11.59
11/9/2022 10:30:00 PM 5.8 42.44 0.032 6.73 6.66 11.58
11/9/2022 10:45:00 PM 5.75 42.35 0.032 6.74 6.93 11.62
11/9/2022 11:00:00 PM 5.71 42.278 0.032 6.74 6.69 11.62
11/9/2022 11:15:00 PM 5.67 42.206 0.032 6.74 6.63 11.62
11/9/2022 11:30:00 PM 5.64 42.152 0.032 6.73 6.66 11.63
11/9/2022 11:45:00 PM 5.6 42.08 0.032 6.73 6.72 11.65
11/10/2022 12:00:00 AM 5.57 42.026 0.032 6.72 6.72 11.67
11/10/2022 12:15:00 AM 5.54 41.972 0.032 6.72 6.68 11.68
11/10/2022 12:30:00 AM 5.52 41.936 0.032 6.71 6.69 11.68
11/10/2022 12:45:00 AM 5.48 41.864 0.032 6.72 6.72 11.69
11/10/2022 1:00:00 AM 5.46 41.828 0.032 6.73 6.67 11.72
11/10/2022 1:15:00 AM 5.46 41.828 0.032 6.73 6.67 11.72
11/10/2022 1:30:00 AM 5.44 41.792 0.033 6.69 6.73 11.7
11/10/2022 1:45:00 AM 5.41 41.738 0.032 6.7 6.72 11.71
11/10/2022 2:00:00 AM 5.39 41.702 0.032 6.71 6.75 11.74
11/10/2022 2:15:00 AM 5.37 41.666 0.032 6.7 6.75 11.71
11/10/2022 2:30:00 AM 5.36 41.648 0.032 6.69 6.72 11.74
11/10/2022 2:45:00 AM 5.35 41.63 0.032 6.7 6.71 11.75
11/10/2022 3:00:00 AM 5.32 41.576 0.031 6.72 6.69 11.76
11/10/2022 3:15:00 AM 5.31 41.558 0.032 6.7 6.85 11.76
11/10/2022 3:30:00 AM 5.29 41.522 0.032 6.7 6.72 11.78
11/10/2022 3:45:00 AM 5.27 41.486 0.032 6.71 6.71 11.75
11/10/2022 4:00:00 AM 5.26 41.468 0.032 6.7 6.79 11.77
11/10/2022 4:15:00 AM 5.23 41.414 0.031 6.71 6.7 11.79
11/10/2022 4:30:00 AM 5.21 41.378 0.031 6.72 6.64 11.79
11/10/2022 4:45:00 AM 5.21 41.378 0.031 6.7 6.65 11.79
11/10/2022 5:00:00 AM 5.19 41.342 0.031 6.69 6.62 11.79
11/10/2022 5:15:00 AM 5.17 41.306 0.031 6.7 6.63 11.79
11/10/2022 5:30:00 AM 5.15 41.27 0.032 6.7 6.65 11.78
11/10/2022 5:45:00 AM 5.14 41.252 0.031 6.71 6.67 11.79
11/10/2022 6:00:00 AM 5.11 41.198 0.031 6.72 6.65 11.8
11/10/2022 6:15:00 AM 5.1 41.18 0.031 6.71 6.59 11.81
11/10/2022 6:30:00 AM 5.1 41.18 0.031 6.67 7.06 11.73
11/10/2022 6:45:00 AM 5.1 41.18 0.044 6.58 7.18 10.8
11/10/2022 7:00:00 AM 5.07 41.126 0.034 6.57 7.07 11.01
11/10/2022 7:15:00 AM 5.06 41.108 0.034 6.55 7.11 10.93
11/10/2022 7:30:00 AM 5.05 41.09 0.033 6.57 7.11 10.96
11/10/2022 7:45:00 AM 5.05 41.09 0.039 6.57 7.09 11.04
11/10/2022 8:00:00 AM 5.04 41.072 0.035 6.6 7.14 10.79
11/10/2022 8:15:00 AM 5.04 41.072 0.033 6.58 7.13 10.93
11/10/2022 8:30:00 AM 5.04 41.072 0.032 6.53 7 11.05
11/10/2022 8:45:00 AM 5.08 41.144 0.044 6.6 7.26 11.23
11/10/2022 9:00:00 AM 5.1 41.18 0.036 6.57 7.27 11.26
11/10/2022 9:15:00 AM 5.15 41.27 0.036 6.6 7.31 11.25
11/10/2022 9:30:00 AM 5.2 41.36 0.033 6.6 7.3 11.28
11/10/2022 9:45:00 AM 5.25 41.45 0.034 6.56 7.32 11.34
11/10/2022 10:00:00 AM 5.32 41.576 0.034 6.56 7.31 11.72
11/10/2022 10:15:00 AM 5.45 41.81 0.032 6.61 7.33 11.8
11/10/2022 10:30:00 AM 5.63 42.134 0.033 6.63 7.34 11.75
11/10/2022 10:45:00 AM 5.86 42.548 0.032 6.66 7.35 11.75
11/10/2022 11:00:00 AM 6.07 42.926 0.032 6.68 7.34 11.77
11/10/2022 11:15:00 AM 6.28 43.304 0.031 6.68 7.38 11.78
11/10/2022 11:30:00 AM 6.52 43.736 0.031 6.69 7.43 11.78
11/10/2022 11:45:00 AM 6.75 44.15 0.031 6.71 7.42 11.58
11/10/2022 12:00:00 PM 6.97 44.546 0.031 6.71 7.44 11.55
11/10/2022 12:15:00 PM 7.24 45.032 0.03 6.73 7.4 11.57
11/10/2022 12:30:00 PM 7.42 45.356 0.031 6.73 7.45 8.79
11/10/2022 12:45:00 PM 7.66 45.788 0.032 6.72 7.45 11.41
11/10/2022 1:00:00 PM 7.88 46.184 0.031 6.73 8.13 11.52
11/10/2022 1:15:00 PM 8.07 46.526 0.031 6.74 8.1 11.53
11/10/2022 1:30:00 PM 8.23 46.814 0.03 6.75 8.1 11.35
11/10/2022 1:45:00 PM 8.36 47.048 0.031 6.71 8.07 11.17
11/10/2022 2:00:00 PM 8.56 47.408 0.032 6.72 7.87 11.25
11/10/2022 2:15:00 PM 8.69 47.642 0.031 6.73 27.85 11.3
11/10/2022 2:30:00 PM 8.74 47.732 0.032 6.74 7.62 11.34
11/10/2022 2:45:00 PM 8.87 47.966 0.03 6.73 8.04 10.96
11/10/2022 3:00:00 PM 8.91 48.038 0.03 6.73 7.05 11.05
11/10/2022 3:15:00 PM 8.97 48.146 0.031 6.74 7.02 11.19
11/10/2022 3:30:00 PM 8.99 48.182 0.033 6.68 7.44 10.93
11/10/2022 3:45:00 PM 9 48.2 0.031 6.69 7.5 11.07
11/10/2022 4:00:00 PM 8.98 48.164 0.034 6.65 7.4 10.53
11/10/2022 4:15:00 PM 8.95 48.11 0.032 6.68 7.46 10.81
11/10/2022 4:30:00 PM 8.92 48.056 0.031 6.72 7.45 10.98
11/10/2022 4:45:00 PM 8.86 47.948 0.031 6.74 7.48 11.05
11/10/2022 5:00:00 PM 8.8 47.84 0.031 6.74 7.48 10.98
11/10/2022 5:15:00 PM 8.74 47.732 0.034 6.73 7.43 10.91
11/10/2022 5:30:00 PM 8.65 47.57 0.031 6.73 7.54 10.85
11/10/2022 5:45:00 PM 8.57 47.426 0.031 6.72 7.47 10.79
11/10/2022 6:00:00 PM 8.48 47.264 0.031 6.72 7.92 10.78
11/10/2022 6:15:00 PM 8.39 47.102 0.031 6.73 7.48 10.82
11/10/2022 6:30:00 PM 8.32 46.976 0.033 6.7 17.5 10.7
11/10/2022 6:45:00 PM 8.25 46.85 0.031 6.73 7.11 10.85
11/10/2022 7:00:00 PM 8.2 46.76 0.031 6.74 7.09 10.86
11/10/2022 7:15:00 PM 8.13 46.634 0.031 6.74 7.09 10.86
11/10/2022 7:30:00 PM 8.06 46.508 0.031 6.75 7.11 10.87
11/10/2022 7:45:00 PM 8 46.4 0.031 6.75 7.09 10.88
11/10/2022 8:00:00 PM 7.94 46.292 0.031 6.75 7.09 10.9
11/10/2022 8:15:00 PM 7.89 46.202 0.031 6.75 7.14 10.91
11/10/2022 8:30:00 PM 7.83 46.094 0.031 6.74 7.07 10.92
11/10/2022 8:45:00 PM 7.79 46.022 0.031 6.75 7.21 10.93
11/10/2022 9:00:00 PM 7.74 45.932 0.031 6.75 7.18 10.93
11/10/2022 9:15:00 PM 7.7 45.86 0.031 6.74 7.22 10.96
11/10/2022 9:30:00 PM 7.66 45.788 0.031 6.74 7.15 10.96
11/10/2022 9:45:00 PM 7.64 45.752 0.031 6.74 7.25 10.94
11/10/2022 10:00:00 PM 7.61 45.698 0.032 6.74 7.23 10.96
11/10/2022 10:15:00 PM 7.59 45.662 0.032 6.74 7.18 10.96
11/10/2022 10:30:00 PM 7.57 45.626 0.032 6.74 7.18 10.97
11/10/2022 10:45:00 PM 7.55 45.59 0.032 6.74 7.27 10.96
11/10/2022 11:00:00 PM 7.53 45.554 0.032 6.74 7.19 10.98
11/10/2022 11:15:00 PM 7.52 45.536 0.032 6.72 7.26 10.98
11/10/2022 11:30:00 PM 7.5 45.5 0.032 6.72 7.34 10.99
11/10/2022 11:45:00 PM 7.5 45.5 0.032 6.72 7.24 10.99
11/11/2022 12:00:00 AM 7.49 45.482 0.032 6.72 7.29 11
11/11/2022 12:15:00 AM 7.47 45.446 0.033 6.72 7.37 10.98
11/11/2022 12:30:00 AM 7.46 45.428 0.033 6.71 7.25 10.98
11/11/2022 12:45:00 AM 7.45 45.41 0.033 6.71 7.26 10.99
11/11/2022 1:00:00 AM 7.44 45.392 0.033 6.72 7.49 10.98
11/11/2022 1:15:00 AM 7.43 45.374 0.033 6.7 7.31 10.94
11/11/2022 1:30:00 AM 7.42 45.356 0.033 6.71 7.28 10.98
11/11/2022 1:45:00 AM 7.41 45.338 0.033 6.71 7.44 11
11/11/2022 2:00:00 AM 7.41 45.338 0.033 6.72 7.38 11
11/11/2022 2:15:00 AM 7.41 45.338 0.033 6.72 7.39 11.01
11/11/2022 2:30:00 AM 7.41 45.338 0.032 6.72 7.41 10.99
11/11/2022 2:45:00 AM 7.41 45.338 0.033 6.72 7.42 11
11/11/2022 3:00:00 AM 7.41 45.338 0.032 6.72 7.5 11.01
11/11/2022 3:15:00 AM 7.42 45.356 0.032 6.72 7.37 11
11/11/2022 3:30:00 AM 7.43 45.374 0.032 6.72 7.47 11.01
11/11/2022 3:45:00 AM 7.45 45.41 0.032 6.72 7.31 11
11/11/2022 4:00:00 AM 7.48 45.464 0.032 6.72 7.37 11
11/11/2022 4:15:00 AM 7.51 45.518 0.032 6.73 7.34 10.99
11/11/2022 4:30:00 AM 7.56 45.608 0.033 6.72 7.41 10.99
11/11/2022 4:45:00 AM 7.62 45.716 0.033 6.72 7.4 10.95
11/11/2022 5:00:00 AM 7.67 45.806 0.032 6.72 7.38 10.95
11/11/2022 5:15:00 AM 7.73 45.914 0.032 6.73 7.37 10.94
11/11/2022 5:30:00 AM 7.78 46.004 0.032 6.73 7.37 10.92
11/11/2022 5:45:00 AM 7.84 46.112 0.032 6.73 7.31 10.9
11/11/2022 6:00:00 AM 7.88 46.184 0.033 6.7 7.35 10.69
11/11/2022 6:15:00 AM 7.92 46.256 0.036 6.65 8.41 10.59
11/11/2022 6:30:00 AM 7.97 46.346 0.033 6.59 8.56 10.26
11/11/2022 6:45:00 AM 8 46.4 0.034 6.62 8.25 10.57
11/11/2022 7:00:00 AM 8.05 46.49 0.033 6.62 8.22 10.19
11/11/2022 7:15:00 AM 8.09 46.562 0.033 6.62 6.67 10.51
11/11/2022 7:30:00 AM 8.13 46.634 0.034 6.63 6.65 10.5
11/11/2022 7:45:00 AM 8.17 46.706 0.032 6.67 7.23 10.72
11/11/2022 8:00:00 AM 8.22 46.796 0.032 6.63 7.3 10.61
11/11/2022 8:15:00 AM 8.27 46.886 0.032 6.62 7.24 10.04
11/11/2022 8:30:00 AM 8.33 46.994 0.032 6.65 7.32 10.4
11/11/2022 8:45:00 AM 8.42 47.156 0.032 6.68 7.32 10.49
11/11/2022 9:00:00 AM 8.47 47.246 0.032 6.7 7.38 10.67
11/11/2022 9:15:00 AM 8.55 47.39 0.031 6.72 7.17 10.93
11/11/2022 9:30:00 AM 8.61 47.498 0.031 6.71 6.84 10.91
11/11/2022 9:45:00 AM 8.67 47.606 0.031 6.73 6.69 10.96
11/11/2022 10:00:00 AM 8.73 47.714 0.031 6.74 6.74 10.93
11/11/2022 10:15:00 AM 8.79 47.822 0.031 6.75 6.75 10.78
11/11/2022 10:30:00 AM 8.85 47.93 0.031 6.75 6.73 10.93
11/11/2022 10:45:00 AM 8.92 48.056 0.032 6.75 7.08 10.67
11/11/2022 11:00:00 AM 8.98 48.164 0.032 6.75 7.35 10.61
11/11/2022 11:15:00 AM 9.04 48.272 0.033 6.74 7.72 10.72
11/11/2022 11:30:00 AM 9.1 48.38 0.033 6.76 7.58 10.76
11/11/2022 11:45:00 AM 9.19 48.542 0.033 6.78 7.73 10.87
11/11/2022 12:00:00 PM 9.26 48.668 0.032 6.79 7.87 10.76
11/11/2022 12:15:00 PM 9.36 48.848 0.033 6.8 8.11 10.76
11/11/2022 12:30:00 PM 9.46 49.028 0.033 6.81 7.9 9.75
11/11/2022 12:45:00 PM 9.55 49.19 0.034 6.82 8.68 10.52
11/11/2022 1:00:00 PM 9.62 49.316 0.036 6.82 9.11 10.68
11/11/2022 1:15:00 PM 9.71 49.478 0.036 6.8 8.04 10.68
11/11/2022 1:30:00 PM 9.78 49.604 0.036 6.8 7.07 10.65
11/11/2022 1:45:00 PM 9.85 49.73 0.037 6.77 7.6 10.09
11/11/2022 2:00:00 PM 9.97 49.946 0.037 6.77 9.35 10.07
11/11/2022 2:15:00 PM 10.03 50.054 0.038 6.78 7.99 8.73
11/11/2022 2:30:00 PM 10.15 50.27 0.038 6.77 8.9 10.34
11/11/2022 2:45:00 PM 10.2 50.36 0.038 6.79 8.9 10.26
11/11/2022 3:00:00 PM 10.31 50.558 0.037 6.78 9.36 10.07
11/11/2022 3:15:00 PM 10.36 50.648 0.036 6.8 8.47 10.09
11/11/2022 3:30:00 PM 10.4 50.72 0.034 6.81 7.64 10.31
11/11/2022 3:45:00 PM 10.44 50.792 0.034 6.81 7.83 10.3
11/11/2022 4:00:00 PM 10.47 50.846 0.034 6.81 7.73 10.22
11/11/2022 4:15:00 PM 10.51 50.918 0.034 6.81 7.97 10.11
11/11/2022 4:30:00 PM 10.54 50.972 0.034 6.81 8.77 10.16
11/11/2022 4:45:00 PM 10.56 51.008 0.034 6.8 9.14 10.17
11/11/2022 5:00:00 PM 10.57 51.026 0.033 6.8 9.18 10.15
11/11/2022 5:15:00 PM 10.57 51.026 0.032 6.79 8.76 10.16
11/11/2022 5:30:00 PM 10.55 50.99 0.032 6.78 9.97 10.17
11/11/2022 5:45:00 PM 10.55 50.99 0.031 6.77 9.94 10.19
11/11/2022 6:00:00 PM 10.56 51.008 0.031 6.76 11.46 10.19
11/11/2022 6:15:00 PM 10.57 51.026 0.031 6.76 11.19 10.19
11/11/2022 6:30:00 PM 10.58 51.044 0.031 6.75 19.03 10.19
11/11/2022 6:45:00 PM 10.59 51.062 0.031 6.75 14.9 10.19
11/11/2022 7:00:00 PM 10.61 51.098 0.031 6.74 13.54 10.19
11/11/2022 7:15:00 PM 10.63 51.134 0.03 6.73 13.15 10.19
11/11/2022 7:30:00 PM 10.66 51.188 0.03 6.73 16.81 10.19
11/11/2022 7:45:00 PM 10.69 51.242 0.03 6.71 75.02 10.19
11/11/2022 8:00:00 PM 10.72 51.296 0.029 6.71 65.11 10.19
11/11/2022 8:15:00 PM 10.75 51.35 0.029 6.7 16.53 10.18
11/11/2022 8:30:00 PM 10.78 51.404 0.029 6.7 13.63 10.18
11/11/2022 8:45:00 PM 10.81 51.458 0.028 6.68 13.76 10.17
11/11/2022 9:00:00 PM 10.83 51.494 0.028 6.68 13.9 10.16
11/11/2022 9:15:00 PM 10.85 51.53 0.028 6.67 12.25 10.15
11/11/2022 9:30:00 PM 10.88 51.584 0.028 6.66 14.59 10.15
11/11/2022 9:45:00 PM 10.9 51.62 0.028 6.65 13.11 10.14
11/11/2022 10:00:00 PM 10.93 51.674 0.028 6.65 11.61 10.13
11/11/2022 10:15:00 PM 10.97 51.746 0.027 6.65 14.67 10.12
11/11/2022 10:30:00 PM 11 51.8 0.027 6.64 10.82 10.1
11/11/2022 10:45:00 PM 11.04 51.872 0.027 6.64 11.1 10.09
11/11/2022 11:00:00 PM 11.08 51.944 0.027 6.64 10.76 10.08
11/11/2022 11:15:00 PM 11.14 52.052 0.027 6.63 10.68 10.06
11/11/2022 11:30:00 PM 11.19 52.142 0.027 6.64 10.93 10.04
11/11/2022 11:45:00 PM 11.23 52.214 0.028 6.63 10.98 10.02
11/12/2022 12:00:00 AM 11.26 52.268 0.028 6.63 11.44 10.01
11/12/2022 12:15:00 AM 11.3 52.34 0.028 6.63 12 10
11/12/2022 12:30:00 AM 11.34 52.412 0.028 6.64 11.82 9.99
11/12/2022 12:45:00 AM 11.39 52.502 0.028 6.63 11.72 9.97
11/12/2022 1:00:00 AM 11.44 52.592 0.028 6.64 11.87 9.96
11/12/2022 1:15:00 AM 11.5 52.7 0.028 6.64 12.46 9.94
11/12/2022 1:30:00 AM 11.53 52.754 0.028 6.64 11.65 9.93
11/12/2022 1:45:00 AM 11.55 52.79 0.028 6.63 12.03 9.92
11/12/2022 2:00:00 AM 11.58 52.844 0.028 6.62 12.6 9.91
11/12/2022 2:15:00 AM 11.61 52.898 0.028 6.62 12.12 9.89
11/12/2022 2:30:00 AM 11.73 53.114 0.029 6.62 19.77 9.87
11/12/2022 2:45:00 AM 11.77 53.186 0.031 6.64 17.39 9.85
11/12/2022 3:00:00 AM 11.77 53.186 0.03 6.64 15.72 9.85
11/12/2022 3:15:00 AM 11.76 53.168 0.029 6.63 18.91 9.86
11/12/2022 3:30:00 AM 11.77 53.186 0.029 6.62 28.69 9.88
11/12/2022 3:45:00 AM 11.78 53.204 0.03 6.62 58.04 9.88
11/12/2022 4:00:00 AM 11.79 53.222 0.029 6.62 23.89 9.88
11/12/2022 4:15:00 AM 11.79 53.222 0.028 6.59 36.73 9.89
11/12/2022 4:30:00 AM 11.78 53.204 0.027 6.55 21.93 9.89
11/12/2022 4:45:00 AM 11.77 53.186 0.026 6.51 26.18 9.89
11/12/2022 5:00:00 AM 11.75 53.15 0.026 6.49 27.89 9.91
11/12/2022 5:15:00 AM 11.75 53.15 0.025 6.47 35.11 9.91
11/12/2022 5:30:00 AM 11.76 53.168 0.025 6.43 38.35 9.92
11/12/2022 5:45:00 AM 11.75 53.15 0.024 6.38 31.63 9.94
11/12/2022 6:00:00 AM 11.74 53.132 0.024 6.36 57.21 9.93
11/12/2022 6:15:00 AM 11.72 53.096 0.024 6.33 35.56 9.94
11/12/2022 6:30:00 AM 11.7 53.06 0.024 6.32 27.94 9.95
11/12/2022 6:45:00 AM 11.68 53.024 0.024 6.29 26.49 9.96
11/12/2022 7:00:00 AM 11.66 52.988 0.024 6.27 31.08 9.97
11/12/2022 7:15:00 AM 11.64 52.952 0.024 6.28 26.61 9.98
11/12/2022 7:30:00 AM 11.63 52.934 0.024 6.26 27.59 9.99
11/12/2022 7:45:00 AM 11.62 52.916 0.024 6.29 22.66 10
11/12/2022 8:00:00 AM 11.6 52.88 0.024 6.26 22.86 10
11/12/2022 8:15:00 AM 11.6 52.88 0.024 6.26 20.94 10.01
11/12/2022 8:30:00 AM 11.59 52.862 0.023 6.25 20.39 10.02
11/12/2022 8:45:00 AM 11.59 52.862 0.023 6.24 44.57 10.02
11/12/2022 9:00:00 AM 11.59 52.862 0.023 6.24 18.85 10.03
11/12/2022 9:15:00 AM 11.6 52.88 0.023 6.25 17.93 10.03
11/12/2022 9:30:00 AM 11.6 52.88 0.023 6.24 17.73 10.04
11/12/2022 9:45:00 AM 11.61 52.898 0.023 6.27 16.89 10.03
11/12/2022 10:00:00 AM 11.62 52.916 0.023 6.25 15.79 10.04
11/12/2022 10:15:00 AM 11.61 52.898 0.023 6.26 15.34 10.02
11/12/2022 10:30:00 AM 11.6 52.88 0.023 6.24 14.67 10.04
11/12/2022 10:45:00 AM 11.61 52.898 0.023 6.24 14.51 10.04
11/12/2022 11:00:00 AM 11.63 52.934 0.023 6.25 13.5 10.04
11/12/2022 11:15:00 AM 11.65 52.97 0.023 6.25 14.13 10.05
11/12/2022 11:30:00 AM 11.69 53.042 0.023 6.24 12.55 10.05
11/12/2022 11:45:00 AM 11.72 53.096 0.023 6.24 12.12 10.04
11/12/2022 12:00:00 PM 11.73 53.114 0.023 6.25 12.36 10.04
11/12/2022 12:15:00 PM 11.77 53.186 0.023 6.24 11.62 10.05
11/12/2022 12:30:00 PM 11.75 53.15 0.023 6.25 11.07 10.03
11/12/2022 12:45:00 PM 11.77 53.186 0.023 6.24 10.38 10.04
11/12/2022 1:00:00 PM 11.78 53.204 0.023 6.23 7397.81 10.04
11/12/2022 1:15:00 PM 11.81 53.258 0.022 6.25 9.89 10.03
11/12/2022 1:30:00 PM 11.82 53.276 0.022 6.26 9.57 10.03
11/12/2022 1:45:00 PM 11.85 53.33 0.022 6.24 10.19 10.02
11/12/2022 2:00:00 PM 11.9 53.42 0.022 6.23 10.09 10.01
11/12/2022 2:15:00 PM 11.91 53.438 0.022 6.24 9.02 10
11/12/2022 2:30:00 PM 11.91 53.438 0.022 6.24 9.01 10
11/12/2022 2:45:00 PM 11.92 53.456 0.022 6.24 9.03 9.99
11/12/2022 3:00:00 PM 11.94 53.492 0.022 6.23 8.87 9.98
11/12/2022 3:15:00 PM 11.95 53.51 0.022 6.24 8.85 9.96
11/12/2022 3:30:00 PM 11.96 53.528 0.022 6.24 9.04 9.95
11/12/2022 3:45:00 PM 11.96 53.528 0.022 6.22 9.32 9.95
11/12/2022 4:00:00 PM 11.96 53.528 0.022 6.21 8.85 9.95
11/12/2022 4:15:00 PM 11.95 53.51 0.022 6.21 8.46 9.94
11/12/2022 4:30:00 PM 11.94 53.492 0.022 6.22 8.42 9.94
11/12/2022 4:45:00 PM 11.92 53.456 0.022 6.21 8.33 9.95
11/12/2022 5:00:00 PM 11.91 53.438 0.022 6.2 8.8 9.94
11/12/2022 5:15:00 PM 11.9 53.42 0.022 6.18 8.27 9.85
11/12/2022 5:30:00 PM 11.88 53.384 0.021 6.19 2048.31 9.95
11/12/2022 5:45:00 PM 11.86 53.348 0.022 6.19 8.54 9.96
11/12/2022 6:00:00 PM 11.84 53.312 0.022 6.19 8.36 9.96
11/12/2022 6:15:00 PM 11.82 53.276 0.022 6.17 7.91 9.96
11/12/2022 6:30:00 PM 11.8 53.24 0.021 6.19 8.02 9.97
11/12/2022 6:45:00 PM 11.77 53.186 0.021 6.2 7.84 9.97
11/12/2022 7:00:00 PM 11.74 53.132 0.021 6.18 7.85 9.98
11/12/2022 7:15:00 PM 11.71 53.078 0.021 6.18 7.89 9.99
11/12/2022 7:30:00 PM 11.68 53.024 0.021 6.19 7.75 10
11/12/2022 7:45:00 PM 11.66 52.988 0.021 6.19 7.87 10
11/12/2022 8:00:00 PM 11.63 52.934 0.021 6.19 7.87 10
11/12/2022 8:15:00 PM 11.6 52.88 0.021 6.18 7.74 10.01
11/12/2022 8:30:00 PM 11.57 52.826 0.021 6.16 7.97 10.03
11/12/2022 8:45:00 PM 11.54 52.772 0.021 6.17 7.63 10.04
11/12/2022 9:00:00 PM 11.51 52.718 0.021 6.19 7.63 10.04
11/12/2022 9:15:00 PM 11.48 52.664 0.021 6.17 7.65 10.05
11/12/2022 9:30:00 PM 11.45 52.61 0.021 6.17 7.61 10.06
11/12/2022 9:45:00 PM 11.43 52.574 0.021 6.18 7.72 10.07
11/12/2022 10:00:00 PM 11.4 52.52 0.021 6.17 7.5 10.08
11/12/2022 10:15:00 PM 11.37 52.466 0.021 6.17 7.4 10.09
11/12/2022 10:30:00 PM 11.34 52.412 0.021 6.18 7.23 10.1
11/12/2022 10:45:00 PM 11.31 52.358 0.021 6.18 7.42 10.1
11/12/2022 11:00:00 PM 11.28 52.304 0.021 6.19 8.53 10.11
11/12/2022 11:15:00 PM 11.25 52.25 0.021 6.17 7.12 10.12
11/12/2022 11:30:00 PM 11.22 52.196 0.02 6.16 7.2 10.13
11/12/2022 11:45:00 PM 11.18 52.124 0.02 6.18 6.93 10.13
11/13/2022 12:00:00 AM 11.15 52.07 0.02 6.17 7.02 10.14
11/13/2022 12:15:00 AM 11.12 52.016 0.02 6.17 7.21 10.16
11/13/2022 12:30:00 AM 11.08 51.944 0.02 6.17 7.01 10.16
11/13/2022 12:45:00 AM 11.05 51.89 0.02 6.15 7 10.17
11/13/2022 1:00:00 AM 11 51.8 0.02 6.16 6.94 10.18
11/13/2022 1:15:00 AM 10.96 51.728 0.02 6.17 6.97 10.19
11/13/2022 1:30:00 AM 10.92 51.656 0.02 6.15 6.91 10.2
11/13/2022 1:45:00 AM 10.88 51.584 0.02 6.16 6.92 10.21
11/13/2022 2:00:00 AM 10.83 51.494 0.02 6.17 6.88 10.23
11/13/2022 2:15:00 AM 10.78 51.404 0.021 6.17 6.81 10.24
11/13/2022 2:30:00 AM 10.73 51.314 0.021 6.17 8.06 10.25
11/13/2022 2:45:00 AM 10.67 51.206 0.021 6.17 6.79 10.27
11/13/2022 3:00:00 AM 10.62 51.116 0.021 6.18 6.81 10.28
11/13/2022 3:15:00 AM 10.57 51.026 0.021 6.18 7.09 10.29
11/13/2022 3:30:00 AM 10.52 50.936 0.021 6.16 6.73 10.3
11/13/2022 3:45:00 AM 10.48 50.864 0.021 6.18 6.56 10.31
11/13/2022 4:00:00 AM 10.43 50.774 0.021 6.17 6.54 10.33
11/13/2022 4:15:00 AM 10.38 50.684 0.021 6.17 6.56 10.34
11/13/2022 4:30:00 AM 10.32 50.576 0.021 6.17 6.59 10.35
11/13/2022 4:45:00 AM 10.27 50.486 0.017 6.18 6.54 10.37
11/13/2022 5:00:00 AM 10.21 50.378 0.017 6.17 6.54 10.38
11/13/2022 5:15:00 AM 10.16 50.288 0.016 6.17 6.47 10.4
11/13/2022 5:30:00 AM 10.11 50.198 0.017 6.17 6.54 10.42
11/13/2022 5:45:00 AM 10.06 50.108 0.017 6.18 6.42 10.42
11/13/2022 6:00:00 AM 10.02 50.036 0.017 6.18 6.56 10.44
11/13/2022 6:15:00 AM 9.97 49.946 0.016 6.17 6.32 10.45
11/13/2022 6:30:00 AM 9.93 49.874 0.017 6.17 6.4 10.46
11/13/2022 6:45:00 AM 9.88 49.784 0.017 6.17 6.41 10.49
11/13/2022 7:00:00 AM 9.84 49.712 0.016 6.18 6.44 10.49
11/13/2022 7:15:00 AM 9.8 49.64 0.016 6.17 6.42 10.51
11/13/2022 7:30:00 AM 9.76 49.568 0.017 6.18 6.41 10.52
11/13/2022 7:45:00 AM 9.72 49.496 0.016 6.18 6.33 10.54
11/13/2022 8:00:00 AM 9.7 49.46 0.017 6.18 6.47 10.56
11/13/2022 8:15:00 AM 9.67 49.406 0.017 6.18 6.35 10.58
11/13/2022 8:30:00 AM 9.65 49.37 0.015 6.19 6.39 10.6
11/13/2022 8:45:00 AM 9.62 49.316 0.017 6.19 6.25 10.61
11/13/2022 9:00:00 AM 9.6 49.28 0.016 6.19 6.21 10.63
11/13/2022 9:15:00 AM 9.58 49.244 0.017 6.2 6.34 10.64
11/13/2022 9:30:00 AM 9.56 49.208 0.017 6.2 6.21 10.66
11/13/2022 9:45:00 AM 9.55 49.19 0.017 6.22 6.19 10.67
11/13/2022 10:00:00 AM 9.53 49.154 0.016 6.22 6.17 10.68
11/13/2022 10:15:00 AM 9.52 49.136 0.016 6.22 6.21 10.7
11/13/2022 10:30:00 AM 9.52 49.136 0.016 6.22 6.39 10.7
11/13/2022 10:45:00 AM 9.52 49.136 0.016 6.23 6.07 10.72
11/13/2022 11:00:00 AM 9.53 49.154 0.016 6.23 6.17 10.72
11/13/2022 11:15:00 AM 9.55 49.19 0.016 6.24 6.14 10.71
11/13/2022 11:30:00 AM 9.54 49.172 0.015 6.24 6.28 10.72
11/13/2022 11:45:00 AM 9.51 49.118 0.016 6.23 6.09 10.73
11/13/2022 12:00:00 PM 9.51 49.118 0.017 6.23 6.06 10.73
11/13/2022 12:15:00 PM 9.5 49.1 0.017 6.23 5.99 10.73
11/13/2022 12:30:00 PM 9.44 48.992 0.016 6.24 6.07 10.72
11/13/2022 12:45:00 PM 9.38 48.884 0.017 6.22 6.02 10.73
11/13/2022 1:00:00 PM 9.31 48.758 0.017 6.25 6.1 10.73
11/13/2022 1:15:00 PM 9.26 48.668 0.017 6.24 6.11 10.75
11/13/2022 1:30:00 PM 9.25 48.65 0.017 6.24 6.11 10.77
11/13/2022 1:45:00 PM 9.24 48.632 0.017 6.24 6.06 10.78
11/13/2022 2:00:00 PM 9.23 48.614 0.017 6.24 6.1 10.79
11/13/2022 2:15:00 PM 9.21 48.578 0.017 6.25 6.07 10.79
11/13/2022 2:30:00 PM 9.19 48.542 0.017 6.25 6.11 10.8
11/13/2022 2:45:00 PM 9.17 48.506 0.017 6.25 6.14 10.8
11/13/2022 3:00:00 PM 9.16 48.488 0.017 6.25 6.11 10.81
11/13/2022 3:15:00 PM 9.15 48.47 0.017 6.24 6.07 10.81
11/13/2022 3:30:00 PM 9.12 48.416 0.016 6.27 6.32 10.8
11/13/2022 3:45:00 PM 9.08 48.344 0.015 6.27 6.22 10.81
11/13/2022 4:00:00 PM 9.03 48.254 0.016 6.26 6.14 10.81
11/13/2022 4:15:00 PM 8.96 48.128 0.016 6.25 6.13 10.8
11/13/2022 4:30:00 PM 8.91 48.038 0.017 6.26 6.05 10.8
11/13/2022 4:45:00 PM 8.86 47.948 0.016 6.28 6.22 10.8
11/13/2022 5:00:00 PM 8.82 47.876 0.015 6.27 6.29 10.8
11/13/2022 5:15:00 PM 8.78 47.804 0.015 6.26 6.32 10.81
11/13/2022 5:30:00 PM 8.75 47.75 0.015 6.27 6.29 10.81
11/13/2022 5:45:00 PM 8.72 47.696 0.015 6.27 6.37 10.82
11/13/2022 6:00:00 PM 8.67 47.606 0.015 6.27 6.35 10.83
11/13/2022 6:15:00 PM 8.63 47.534 0.017 6.25 6.26 10.86
11/13/2022 6:30:00 PM 8.59 47.462 0.018 6.25 6.18 10.87
11/13/2022 6:45:00 PM 8.56 47.408 0.017 6.25 6.24 10.88
11/13/2022 7:00:00 PM 8.52 47.336 0.02 6.25 6.34 10.89
11/13/2022 7:15:00 PM 8.49 47.282 0.02 6.25 6.23 10.9
11/13/2022 7:30:00 PM 8.45 47.21 0.02 6.26 6.29 10.91
11/13/2022 7:45:00 PM 8.41 47.138 0.02 6.25 6.31 10.92
11/13/2022 8:00:00 PM 8.38 47.084 0.02 6.24 6.35 10.93
11/13/2022 8:15:00 PM 8.34 47.012 0.021 6.25 6.32 10.94
11/13/2022 8:30:00 PM 8.3 46.94 0.02 6.25 6.27 10.96
11/13/2022 8:45:00 PM 8.26 46.868 0.02 6.25 6.33 10.97
11/13/2022 9:00:00 PM 8.23 46.814 0.02 6.26 6.26 10.99
11/13/2022 9:15:00 PM 8.19 46.742 0.021 6.25 6.32 10.99
11/13/2022 9:30:00 PM 8.13 46.634 0.02 6.26 6.3 11.01
11/13/2022 9:45:00 PM 8.09 46.562 0.021 6.24 6.37 11.01
11/13/2022 10:00:00 PM 8.05 46.49 0.021 6.24 6.41 11.03
11/13/2022 10:15:00 PM 8 46.4 0.021 6.25 6.44 11.05
11/13/2022 10:30:00 PM 7.94 46.292 0.021 6.25 6.47 11.05
11/13/2022 10:45:00 PM 7.89 46.202 0.021 6.26 6.39 11.06
11/13/2022 11:00:00 PM 7.86 46.148 0.021 6.26 6.45 11.08
11/13/2022 11:15:00 PM 7.82 46.076 0.021 6.25 6.45 11.09
11/13/2022 11:30:00 PM 7.78 46.004 0.021 6.25 6.53 11.07
11/13/2022 11:45:00 PM 7.74 45.932 0.021 6.26 6.52 11.1
11/14/2022 12:00:00 AM 7.69 45.842 0.021 6.25 6.46 11.08
11/14/2022 12:15:00 AM 7.63 45.734 0.021 6.26 6.45 11.14
11/14/2022 12:30:00 AM 7.59 45.662 0.021 6.26 6.44 11.14
11/14/2022 12:45:00 AM 7.56 45.608 0.021 6.26 6.47 11.16
11/14/2022 1:00:00 AM 7.53 45.554 0.021 6.26 6.49 11.17
11/14/2022 1:15:00 AM 7.51 45.518 0.021 6.26 6.53 11.19
11/14/2022 1:30:00 AM 7.47 45.446 0.021 6.27 6.49 11.21
11/14/2022 1:45:00 AM 7.43 45.374 0.021 6.27 6.55 11.21
11/14/2022 2:00:00 AM 7.37 45.266 0.021 6.27 6.49 11.23
11/14/2022 2:15:00 AM 7.32 45.176 0.021 6.27 6.47 11.24
11/14/2022 2:30:00 AM 7.28 45.104 0.021 6.26 6.49 11.26
11/14/2022 2:45:00 AM 7.23 45.014 0.021 6.27 6.51 11.28
11/14/2022 3:00:00 AM 7.18 44.924 0.021 6.26 6.59 11.29
11/14/2022 3:15:00 AM 7.1 44.78 0.021 6.27 6.48 11.31
11/14/2022 3:30:00 AM 7.04 44.672 0.021 6.28 6.58 11.33
11/14/2022 3:45:00 AM 6.99 44.582 0.021 6.27 6.51 11.34
11/14/2022 4:00:00 AM 6.92 44.456 0.021 6.27 6.57 11.36
11/14/2022 4:15:00 AM 6.85 44.33 0.021 6.28 6.47 11.38
11/14/2022 4:30:00 AM 6.8 44.24 0.021 6.27 6.55 11.41
11/14/2022 4:45:00 AM 6.75 44.15 0.021 6.27 6.56 11.42
11/14/2022 5:00:00 AM 6.7 44.06 0.021 6.27 6.48 11.44
11/14/2022 5:15:00 AM 6.65 43.97 0.021 6.27 6.43 11.46
11/14/2022 5:30:00 AM 6.6 43.88 0.021 6.27 6.56 11.47
11/14/2022 5:45:00 AM 6.55 43.79 0.021 6.27 6.56 11.49
11/14/2022 6:00:00 AM 6.5 43.7 0.021 6.27 6.68 11.51
11/14/2022 6:15:00 AM 6.45 43.61 0.022 6.27 6.53 11.53
11/14/2022 6:30:00 AM 6.4 43.52 0.021 6.27 6.54 11.55
11/14/2022 6:45:00 AM 6.36 43.448 0.021 6.27 6.57 11.56
11/14/2022 7:00:00 AM 6.31 43.358 0.021 6.27 6.53 11.58
11/14/2022 7:15:00 AM 6.27 43.286 0.022 6.27 6.56 11.6
11/14/2022 7:30:00 AM 6.22 43.196 0.022 6.27 6.53 11.63
11/14/2022 7:45:00 AM 6.18 43.124 0.021 6.27 6.52 11.66
11/14/2022 8:00:00 AM 6.15 43.07 0.022 6.27 6.7 11.68
11/14/2022 8:15:00 AM 6.13 43.034 0.022 6.21 6.52 11.7
11/14/2022 8:30:00 AM 6.1 42.98 0.022 6.26 6.44 11.71
11/14/2022 8:45:00 AM 6.08 42.944 0.022 6.27 6.49 11.74
11/14/2022 9:00:00 AM 6.08 42.944 0.022 6.27 6.41 11.76
11/14/2022 9:15:00 AM 6.09 42.962 0.022 6.28 6.56 11.78
11/14/2022 9:30:00 AM 6.1 42.98 0.022 6.29 6.53 11.8
11/14/2022 9:45:00 AM 6.1 42.98 0.022 6.29 6.48 11.81
11/14/2022 10:00:00 AM 6.11 42.998 0.022 6.29 6.55 11.83
11/14/2022 10:15:00 AM 6.15 43.07 0.022 6.3 6.41 11.83
11/14/2022 10:30:00 AM 6.15 43.07 0.022 6.3 6.35 11.83
11/14/2022 10:45:00 AM 6.16 43.088 0.022 6.31 7.42 11.83
11/14/2022 11:00:00 AM 6.24 43.232 0.022 6.31 7.66 11.83
11/14/2022 11:15:00 AM 6.28 43.304 0.022 6.32 6.85 11.83
11/14/2022 11:30:00 AM 6.29 43.322 0.022 6.32 7.48 11.82
11/14/2022 11:45:00 AM 6.33 43.394 0.022 6.33 6.61 11.81
11/14/2022 12:00:00 PM 6.33 43.394 0.022 6.32 6.58 11.81
11/14/2022 12:15:00 PM 6.37 43.466 0.022 6.33 6.8 11.81
11/14/2022 12:30:00 PM 6.39 43.502 0.022 6.33 6.75 11.8
11/14/2022 12:45:00 PM 6.4 43.52 0.022 6.33 6.5 11.79
11/14/2022 1:00:00 PM 6.41 43.538 0.022 6.33 6.66 11.79
11/14/2022 1:15:00 PM 6.4 43.52 0.022 6.33 7.93 11.79
11/14/2022 1:30:00 PM 6.4 43.52 0.022 6.33 6.69 11.79
11/14/2022 1:45:00 PM 6.41 43.538 0.021 6.33 6.62 11.79
11/14/2022 2:00:00 PM 6.39 43.502 0.022 6.34 6.67 11.78
11/14/2022 2:15:00 PM 6.35 43.43 0.021 6.34 6.52 11.78
11/14/2022 2:30:00 PM 6.29 43.322 0.021 6.33 7.53 11.78
11/14/2022 2:45:00 PM 6.23 43.214 0.022 6.34 6.76 11.78
11/14/2022 3:00:00 PM 6.19 43.142 0.021 6.33 6.67 11.78
11/14/2022 3:15:00 PM 6.16 43.088 0.021 6.33 6.97 11.77
11/14/2022 3:30:00 PM 6.15 43.07 0.022 6.33 6.54 11.77
11/14/2022 3:45:00 PM 6.15 43.07 0.021 6.33 6.94 11.77
11/14/2022 4:00:00 PM 6.14 43.052 0.022 6.33 6.41 11.76
11/14/2022 4:15:00 PM 6.13 43.034 0.022 6.33 6.52 11.75
11/14/2022 4:30:00 PM 6.12 43.016 0.022 6.33 6.6 11.73
11/14/2022 4:45:00 PM 6.1 42.98 0.022 6.32 9.14 11.72
11/14/2022 5:00:00 PM 6.09 42.962 0.022 6.32 6.85 11.71
11/14/2022 5:15:00 PM 6.08 42.944 0.022 6.32 6.18 11.7
11/14/2022 5:30:00 PM 6.07 42.926 0.022 6.33 6.12 11.69
11/14/2022 5:45:00 PM 6.05 42.89 0.022 6.31 6.22 11.69
11/14/2022 6:00:00 PM 6.04 42.872 0.022 6.31 6.13 11.69
11/14/2022 6:15:00 PM 6.02 42.836 0.022 6.31 6.03 11.7
11/14/2022 6:30:00 PM 6 42.8 0.022 6.31 6.54 11.7
11/14/2022 6:45:00 PM 5.98 42.764 0.022 6.31 5.95 11.71
11/14/2022 7:00:00 PM 5.95 42.71 0.022 6.32 6.31 11.71
11/14/2022 7:15:00 PM 5.92 42.656 0.022 6.31 6.28 11.72
11/14/2022 7:30:00 PM 5.89 42.602 0.022 6.31 6.1 11.74
11/14/2022 7:45:00 PM 5.85 42.53 0.022 6.31 6.27 11.75
11/14/2022 8:00:00 PM 5.81 42.458 0.022 6.31 6.36 11.76
11/14/2022 8:15:00 PM 5.76 42.368 0.022 6.31 6.2 11.77
11/14/2022 8:30:00 PM 5.72 42.296 0.022 6.3 6.4 11.78
11/14/2022 8:45:00 PM 5.67 42.206 0.022 6.31 6.44 11.8
11/14/2022 9:00:00 PM 5.62 42.116 0.022 6.3 6.3 11.82
11/14/2022 9:15:00 PM 5.57 42.026 0.022 6.3 6.27 11.84
11/14/2022 9:30:00 PM 5.52 41.936 0.022 6.31 6.03 11.85
11/14/2022 9:45:00 PM 5.46 41.828 0.022 6.3 7.03 11.87
11/14/2022 10:00:00 PM 5.41 41.738 0.022 6.29 6.02 11.88
11/14/2022 10:15:00 PM 5.36 41.648 0.022 6.29 6 11.9
11/14/2022 10:30:00 PM 5.3 41.54 0.022 6.28 6.05 11.91
11/14/2022 10:45:00 PM 5.25 41.45 0.022 6.28 6.11 11.94
11/14/2022 11:00:00 PM 5.19 41.342 0.022 6.28 6.08 11.96
11/14/2022 11:15:00 PM 5.14 41.252 0.022 6.28 6.78 11.98
11/14/2022 11:30:00 PM 5.08 41.144 0.022 6.28 6.12 11.98
11/14/2022 11:45:00 PM 5.03 41.054 0.022 6.28 5.97 12.01
11/15/2022 12:00:00 AM 4.98 40.964 0.022 6.27 6.37 12.03
11/15/2022 12:15:00 AM 4.93 40.874 0.022 6.27 6.09 12.04
11/15/2022 12:30:00 AM 4.88 40.784 0.022 6.28 6.1 12.05
11/15/2022 12:45:00 AM 4.83 40.694 0.022 6.27 6.2 12.07
11/15/2022 1:00:00 AM 4.77 40.586 0.022 6.27 6.14 12.09
11/15/2022 1:15:00 AM 4.72 40.496 0.022 6.27 6.1 12.11
11/15/2022 1:30:00 AM 4.67 40.406 0.022 6.27 6.14 12.12
11/15/2022 1:45:00 AM 4.62 40.316 0.022 6.27 5.99 12.14
11/15/2022 2:00:00 AM 4.58 40.244 0.022 6.27 6.08 12.15
11/15/2022 2:15:00 AM 4.53 40.154 0.022 6.27 6.21 12.18
11/15/2022 2:30:00 AM 4.48 40.064 0.022 6.27 6.15 12.18
11/15/2022 2:45:00 AM 4.43 39.974 0.022 6.26 6.19 12.21
11/15/2022 3:00:00 AM 4.38 39.884 0.022 6.26 6.14 12.23
11/15/2022 3:15:00 AM 4.33 39.794 0.022 6.27 6.18 12.24
11/15/2022 3:30:00 AM 4.29 39.722 0.022 6.26 6.14 12.26
11/15/2022 3:45:00 AM 4.24 39.632 0.022 6.27 6.42 12.28
11/15/2022 4:00:00 AM 4.2 39.56 0.022 6.27 6.04 12.29
11/15/2022 4:15:00 AM 4.15 39.47 0.022 6.27 6.01 12.31
11/15/2022 4:30:00 AM 4.1 39.38 0.022 6.27 6.07 12.32
11/15/2022 4:45:00 AM 4.06 39.308 0.022 6.27 6.09 12.34
11/15/2022 5:00:00 AM 4.01 39.218 0.022 6.27 6.12 12.35
11/15/2022 5:15:00 AM 3.97 39.146 0.022 6.27 6.04 12.37
11/15/2022 5:30:00 AM 3.93 39.074 0.022 6.27 6.09 12.39
11/15/2022 5:45:00 AM 3.9 39.02 0.022 6.27 6.14 12.4
11/15/2022 6:00:00 AM 3.88 38.984 0.022 6.27 6.18 12.41
11/15/2022 6:15:00 AM 3.85 38.93 0.022 6.27 6.13 12.41
11/15/2022 6:30:00 AM 3.81 38.858 0.022 6.28 6.59 12.43
11/15/2022 6:45:00 AM 3.77 38.786 0.022 6.28 6.52 12.44
11/15/2022 7:00:00 AM 3.73 38.714 0.022 6.28 6.29 12.46
11/15/2022 7:15:00 AM 3.69 38.642 0.022 6.29 6.71 12.48
11/15/2022 7:30:00 AM 3.67 38.606 0.022 6.29 8.17 12.5
11/15/2022 7:45:00 AM 3.66 38.588 0.022 6.29 6.72 12.52
11/15/2022 8:00:00 AM 3.66 38.588 0.022 6.3 6.53 12.56
11/15/2022 8:15:00 AM 3.67 38.606 0.022 6.3 6.66 12.58
11/15/2022 8:30:00 AM 3.69 38.642 0.022 6.31 6.4 12.6
11/15/2022 8:45:00 AM 3.72 38.696 0.022 6.32 6.53 12.61
11/15/2022 9:00:00 AM 3.77 38.786 0.022 6.32 6.23 12.62
11/15/2022 9:15:00 AM 3.8 38.84 0.022 6.33 6.03 12.62
11/15/2022 9:30:00 AM 3.84 38.912 0.022 6.34 6.88 12.62
11/15/2022 9:45:00 AM 3.89 39.002 0.022 6.34 6.16 12.61
11/15/2022 10:00:00 AM 3.95 39.11 0.022 6.35 6.32 12.61
11/15/2022 10:15:00 AM 4.03 39.254 0.022 6.35 6.26 12.59
11/15/2022 10:30:00 AM 4.09 39.362 0.022 6.36 6.76 12.58
11/15/2022 10:45:00 AM 4.15 39.47 0.022 6.38 6.49 12.56
11/15/2022 11:00:00 AM 4.19 39.542 0.022 6.37 6.52 12.55
11/15/2022 11:15:00 AM 4.23 39.614 0.022 6.37 6.62 12.54
11/15/2022 11:30:00 AM 4.27 39.686 0.022 6.38 6.22 12.52
11/15/2022 11:45:00 AM 4.3 39.74 0.022 6.39 6.24 12.5
11/15/2022 12:00:00 PM 4.32 39.776 0.022 6.38 6.39 12.48
11/15/2022 12:15:00 PM 4.33 39.794 0.022 6.39 6.21 12.46
11/15/2022 12:30:00 PM 4.34 39.812 0.022 6.39 6.2 12.46
11/15/2022 12:45:00 PM 4.35 39.83 0.022 6.39 6.12 12.45
11/15/2022 1:00:00 PM 4.36 39.848 0.022 6.39 6.15 12.43
11/15/2022 1:15:00 PM 4.38 39.884 0.022 6.39 6.38 12.42
11/15/2022 1:30:00 PM 4.39 39.902 0.022 6.39 6.37 12.41
11/15/2022 1:45:00 PM 4.39 39.902 0.022 6.4 6.48 12.39
11/15/2022 2:00:00 PM 4.39 39.902 0.022 6.4 6.54 12.38
11/15/2022 2:15:00 PM 4.4 39.92 0.022 6.4 6.39 12.37
11/15/2022 2:30:00 PM 4.42 39.956 0.022 6.4 6.58 12.37
11/15/2022 2:45:00 PM 4.44 39.992 0.022 6.4 6.03 12.36
11/15/2022 3:00:00 PM 4.44 39.992 0.022 6.4 6.25 12.35
11/15/2022 3:15:00 PM 4.43 39.974 0.022 6.4 6.82 12.33
11/15/2022 3:30:00 PM 4.41 39.938 0.022 6.4 6.05 12.32
11/15/2022 3:45:00 PM 4.35 39.83 0.022 6.39 5.84 12.3
11/15/2022 4:00:00 PM 4.28 39.704 0.022 6.39 5.82 12.29
11/15/2022 4:15:00 PM 4.21 39.578 0.022 6.39 6 12.27
11/15/2022 4:30:00 PM 4.13 39.434 0.022 6.39 5.94 12.28
11/15/2022 4:45:00 PM 4.05 39.29 0.022 6.39 6.17 12.28
11/15/2022 5:00:00 PM 4.01 39.218 0.022 6.38 5.97 12.28
11/15/2022 5:15:00 PM 3.97 39.146 0.022 6.38 5.99 12.29
11/15/2022 5:30:00 PM 3.9 39.02 0.022 6.38 5.87 12.3
11/15/2022 5:45:00 PM 3.78 38.804 0.022 6.38 5.98 12.31
11/15/2022 6:00:00 PM 3.67 38.606 0.022 6.37 6.11 12.34
11/15/2022 6:15:00 PM 3.58 38.444 0.022 6.37 5.96 12.36
11/15/2022 6:30:00 PM 3.47 38.246 0.022 6.37 6.14 12.37
11/15/2022 6:45:00 PM 3.38 38.084 0.022 6.35 6.5 12.4
11/15/2022 7:00:00 PM 3.28 37.904 0.022 6.35 6.42 12.43
11/15/2022 7:15:00 PM 3.21 37.778 0.022 6.34 5.74 12.46
11/15/2022 7:30:00 PM 3.1 37.58 0.022 6.34 6.86 12.48
11/15/2022 7:45:00 PM 3.05 37.49 0.022 6.34 5.76 12.51
11/15/2022 8:00:00 PM 3.01 37.418 0.022 6.34 5.74 12.53
11/15/2022 8:15:00 PM 3 37.4 0.022 6.34 5.8 12.54
11/15/2022 8:30:00 PM 3.05 37.49 0.022 6.35 5.76 12.55
11/15/2022 8:45:00 PM 3.11 37.598 0.022 6.35 5.77 12.56
11/15/2022 9:00:00 PM 3.17 37.706 0.022 6.36 5.75 12.57
11/15/2022 9:15:00 PM 3.21 37.778 0.022 6.35 5.8 12.57
11/15/2022 9:30:00 PM 3.25 37.85 0.022 6.36 5.78 12.57
11/15/2022 9:45:00 PM 3.3 37.94 0.022 6.36 5.8 12.55
11/15/2022 10:00:00 PM 3.36 38.048 0.022 6.37 5.78 12.53
11/15/2022 10:15:00 PM 3.41 38.138 0.022 6.37 5.81 12.51
11/15/2022 10:30:00 PM 3.46 38.228 0.023 6.39 5.8 12.49
11/15/2022 10:45:00 PM 3.5 38.3 0.023 6.39 5.78 12.48
11/15/2022 11:00:00 PM 3.54 38.372 0.023 6.38 5.82 12.47
11/15/2022 11:15:00 PM 3.57 38.426 0.023 6.38 5.8 12.45
11/15/2022 11:30:00 PM 3.59 38.462 0.023 6.38 5.72 12.44
11/15/2022 11:45:00 PM 3.61 38.498 0.024 6.38 5.73 12.44
11/16/2022 12:00:00 AM 3.63 38.534 0.024 6.38 5.75 12.42
11/16/2022 12:15:00 AM 3.64 38.552 0.025 6.38 5.75 12.42
11/16/2022 12:30:00 AM 3.66 38.588 0.025 6.38 5.82 12.41
11/16/2022 12:45:00 AM 3.67 38.606 0.025 6.38 5.83 12.4
11/16/2022 1:00:00 AM 3.67 38.606 0.026 6.38 5.82 12.39
11/16/2022 1:15:00 AM 3.7 38.66 0.026 6.38 5.79 12.38
11/16/2022 1:30:00 AM 3.71 38.678 0.026 6.39 5.83 12.37
11/16/2022 1:45:00 AM 3.73 38.714 0.026 6.39 5.91 12.36
11/16/2022 2:00:00 AM 3.74 38.732 0.027 6.39 5.91 12.35
11/16/2022 2:15:00 AM 3.75 38.75 0.027 6.39 5.86 12.35
11/16/2022 2:30:00 AM 3.76 38.768 0.027 6.4 5.82 12.34
11/16/2022 2:45:00 AM 3.78 38.804 0.027 6.4 5.85 12.33
11/16/2022 3:00:00 AM 3.79 38.822 0.027 6.4 5.9 12.32
11/16/2022 3:15:00 AM 3.81 38.858 0.027 6.4 6.01 12.32
11/16/2022 3:30:00 AM 3.82 38.876 0.027 6.41 6.02 12.31
11/16/2022 3:45:00 AM 3.84 38.912 0.026 6.4 5.93 12.31
11/16/2022 4:00:00 AM 3.85 38.93 0.026 6.4 6.03 12.31
11/16/2022 4:15:00 AM 3.86 38.948 0.026 6.4 6.01 12.3
11/16/2022 4:30:00 AM 3.88 38.984 0.026 6.41 6.08 12.29
11/16/2022 4:45:00 AM 3.89 39.002 0.026 6.4 5.98 12.28
11/16/2022 5:00:00 AM 3.91 39.038 0.026 6.4 6.2 12.28
11/16/2022 5:15:00 AM 3.93 39.074 0.025 6.4 6.24 12.28
11/16/2022 5:30:00 AM 3.94 39.092 0.025 6.41 6.18 12.27
11/16/2022 5:45:00 AM 3.96 39.128 0.025 6.41 6.1 12.27
11/16/2022 6:00:00 AM 3.97 39.146 0.025 6.4 6.18 12.26
11/16/2022 6:15:00 AM 3.99 39.182 0.025 6.4 6.16 12.26
11/16/2022 6:30:00 AM 4 39.2 0.024 6.4 6.21 12.26
11/16/2022 6:45:00 AM 4.02 39.236 0.024 6.4 6.18 12.24
11/16/2022 7:00:00 AM 4.03 39.254 0.024 6.4 6.11 12.24
11/16/2022 7:15:00 AM 4.04 39.272 0.024 6.4 6.22 12.24
11/16/2022 7:30:00 AM 4.05 39.29 0.024 6.4 6.21 12.25
11/16/2022 7:45:00 AM 4.07 39.326 0.024 6.4 6.17 12.25
11/16/2022 8:00:00 AM 4.1 39.38 0.024 6.39 8.24 12.27
11/16/2022 8:15:00 AM 4.13 39.434 0.024 6.4 6.77 12.28
11/16/2022 8:30:00 AM 4.15 39.47 0.021 6.41 6.1 12.28
11/16/2022 8:45:00 AM 4.17 39.506 0.021 6.41 6.17 12.28
11/16/2022 9:00:00 AM 4.2 39.56 0.02 6.42 6.2 12.29
11/16/2022 9:15:00 AM 4.22 39.596 0.02 6.4 6.15 12.29
11/16/2022 9:30:00 AM 4.23 39.614 0.02 6.41 6.15 12.28
11/16/2022 9:45:00 AM 4.25 39.65 0.02 6.41 6.15 12.27
11/16/2022 10:00:00 AM 4.27 39.686 0.02 6.41 6.22 12.27
11/16/2022 10:15:00 AM 4.32 39.776 0.024 6.41 6.8 12.27
11/16/2022 10:30:00 AM 4.36 39.848 0.02 6.43 6.13 12.26
11/16/2022 10:45:00 AM 4.39 39.902 0.023 6.44 6.71 12.26
11/16/2022 11:00:00 AM 4.41 39.938 0.024 6.43 6.65 12.26
11/16/2022 11:15:00 AM 4.46 40.028 0.023 6.43 6.7 12.25
11/16/2022 11:30:00 AM 4.53 40.154 0.023 6.44 6.63 12.24
11/16/2022 11:45:00 AM 4.59 40.262 0.021 6.44 6.28 12.24
11/16/2022 12:00:00 PM 4.62 40.316 0.02 6.44 6.17 12.22
11/16/2022 12:15:00 PM 4.65 40.37 0.02 6.44 6.24 12.21
11/16/2022 12:30:00 PM 4.68 40.424 0.02 6.44 6.22 12.2
11/16/2022 12:45:00 PM 4.7 40.46 0.02 6.44 6.23 12.19
11/16/2022 1:00:00 PM 4.75 40.55 0.02 6.45 6.21 12.17
11/16/2022 1:15:00 PM 4.81 40.658 0.02 6.45 6.21 12.17
11/16/2022 1:30:00 PM 4.82 40.676 0.02 6.45 6.16 12.15
11/16/2022 1:45:00 PM 4.81 40.658 0.02 6.44 6.24 12.14
11/16/2022 2:00:00 PM 4.81 40.658 0.023 6.45 6.78 12.13
11/16/2022 2:15:00 PM 4.83 40.694 0.021 6.45 6.33 12.12
11/16/2022 2:30:00 PM 4.83 40.694 0.021 6.45 6.3 12.12
11/16/2022 2:45:00 PM 4.84 40.712 0.023 6.44 6.57 12.11
11/16/2022 3:00:00 PM 4.84 40.712 0.023 6.45 6.62 12.1
11/16/2022 3:15:00 PM 4.83 40.694 0.023 6.45 6.74 12.09
11/16/2022 3:30:00 PM 4.82 40.676 0.02 6.44 6.33 12.09
11/16/2022 3:45:00 PM 4.81 40.658 0.023 6.44 6.53 12.09
11/16/2022 4:00:00 PM 4.8 40.64 0.02 6.44 6.35 12.09
11/16/2022 4:15:00 PM 4.77 40.586 0.023 6.44 6.51 12.08
11/16/2022 4:30:00 PM 4.75 40.55 0.025 6.45 6.84 12.06
11/16/2022 4:45:00 PM 4.73 40.514 0.022 6.44 6.51 12.05
11/16/2022 5:00:00 PM 4.71 40.478 0.021 6.44 6.34 12.04
11/16/2022 5:15:00 PM 4.69 40.442 0.023 6.43 7.03 12.03
11/16/2022 5:30:00 PM 4.67 40.406 0.023 6.42 6.66 12.03
11/16/2022 5:45:00 PM 4.64 40.352 0.02 6.42 6.43 12.03
11/16/2022 6:00:00 PM 4.62 40.316 0.02 6.42 6.5 12.03
11/16/2022 6:15:00 PM 4.61 40.298 0.022 6.42 6.51 12.04
11/16/2022 6:30:00 PM 4.6 40.28 0.021 6.41 6.47 12.04
11/16/2022 6:45:00 PM 4.57 40.226 0.02 6.41 6.59 12.04
11/16/2022 7:00:00 PM 4.54 40.172 0.02 6.41 6.47 12.05
11/16/2022 7:15:00 PM 4.51 40.118 0.02 6.4 6.61 12.05
11/16/2022 7:30:00 PM 4.49 40.082 0.023 6.4 6.67 12.06
11/16/2022 7:45:00 PM 4.47 40.046 0.02 6.4 6.57 12.07
11/16/2022 8:00:00 PM 4.45 40.01 0.022 6.4 6.78 12.07
11/16/2022 8:15:00 PM 4.42 39.956 0.02 6.4 6.65 12.08
11/16/2022 8:30:00 PM 4.4 39.92 0.02 6.39 6.57 12.09
11/16/2022 8:45:00 PM 4.38 39.884 0.02 6.39 6.5 12.1
11/16/2022 9:00:00 PM 4.36 39.848 0.023 6.39 6.9 12.1
11/16/2022 9:15:00 PM 4.33 39.794 0.023 6.39 6.73 12.11
11/16/2022 9:30:00 PM 4.3 39.74 0.02 6.39 6.5 12.12
11/16/2022 9:45:00 PM 4.27 39.686 0.022 6.39 6.57 12.13
11/16/2022 10:00:00 PM 4.25 39.65 0.02 6.39 6.46 12.14
11/16/2022 10:15:00 PM 4.23 39.614 0.02 6.39 6.58 12.14
11/16/2022 10:30:00 PM 4.2 39.56 0.023 6.38 7.11 12.15
11/16/2022 10:45:00 PM 4.18 39.524 0.02 6.39 6.46 12.15
11/16/2022 11:00:00 PM 4.15 39.47 0.023 6.38 7.27 12.17
11/16/2022 11:15:00 PM 4.13 39.434 0.02 6.39 6.47 12.17
11/16/2022 11:30:00 PM 4.11 39.398 0.019 6.38 6.5 12.17
11/16/2022 11:45:00 PM 4.1 39.38 0.023 6.38 6.92 12.19
11/17/2022 12:00:00 AM 4.09 39.362 0.022 6.38 6.5 12.19
11/17/2022 12:15:00 AM 4.08 39.344 0.022 6.38 6.45 12.19
11/17/2022 12:30:00 AM 4.07 39.326 0.022 6.38 6.44 12.19
11/17/2022 12:45:00 AM 4.06 39.308 0.022 6.38 6.41 12.2
11/17/2022 1:00:00 AM 4.04 39.272 0.022 6.38 6.43 12.2
11/17/2022 1:15:00 AM 4.01 39.218 0.022 6.37 6.35 12.2
11/17/2022 1:30:00 AM 4 39.2 0.022 6.38 6.38 12.21
11/17/2022 1:45:00 AM 4 39.2 0.022 6.38 6.42 12.21
11/17/2022 2:00:00 AM 3.99 39.182 0.022 6.38 6.41 12.21
11/17/2022 2:15:00 AM 3.97 39.146 0.021 6.38 6.39 12.22
11/17/2022 2:30:00 AM 3.95 39.11 0.021 6.38 6.28 12.23
11/17/2022 2:45:00 AM 3.93 39.074 0.021 6.38 6.43 12.23
11/17/2022 3:00:00 AM 3.92 39.056 0.021 6.38 6.36 12.24
11/17/2022 3:15:00 AM 3.91 39.038 0.021 6.37 6.41 12.24
11/17/2022 3:30:00 AM 3.89 39.002 0.021 6.38 6.33 12.24
11/17/2022 3:45:00 AM 3.88 38.984 0.021 6.37 6.34 12.25
11/17/2022 4:00:00 AM 3.87 38.966 0.021 6.37 6.43 12.25
11/17/2022 4:15:00 AM 3.86 38.948 0.021 6.37 6.45 12.25
11/17/2022 4:30:00 AM 3.85 38.93 0.021 6.37 6.4 12.25
11/17/2022 4:45:00 AM 3.84 38.912 0.021 6.37 6.43 12.26
11/17/2022 5:00:00 AM 3.83 38.894 0.021 6.37 6.46 12.26
11/17/2022 5:15:00 AM 3.81 38.858 0.02 6.37 6.33 12.27
11/17/2022 5:30:00 AM 3.8 38.84 0.021 6.37 6.42 12.27
11/17/2022 5:45:00 AM 3.78 38.804 0.021 6.37 6.4 12.27
11/17/2022 6:00:00 AM 3.76 38.768 0.02 6.37 6.33 12.28
11/17/2022 6:15:00 AM 3.75 38.75 0.021 6.37 6.31 12.28
11/17/2022 6:30:00 AM 3.73 38.714 0.02 6.37 6.35 12.29
11/17/2022 6:45:00 AM 3.71 38.678 0.02 6.37 6.4 12.3
11/17/2022 7:00:00 AM 3.69 38.642 0.02 6.37 6.36 12.31
11/17/2022 7:15:00 AM 3.67 38.606 0.02 6.37 6.4 12.32
11/17/2022 7:30:00 AM 3.65 38.57 0.02 6.37 6.36 12.33
11/17/2022 7:45:00 AM 3.62 38.516 0.02 6.37 6.37 12.35
11/17/2022 8:00:00 AM 3.62 38.516 0.02 6.37 6.3 12.37
11/17/2022 8:15:00 AM 3.62 38.516 0.02 6.37 6.36 12.39
11/17/2022 8:30:00 AM 3.63 38.534 0.019 6.37 6.31 12.41
11/17/2022 8:45:00 AM 3.64 38.552 0.019 6.38 6.31 12.42
11/17/2022 9:00:00 AM 3.64 38.552 0.018 6.38 6.3 12.44
11/17/2022 9:15:00 AM 3.64 38.552 0.019 6.38 6.41 12.44
11/17/2022 9:30:00 AM 3.65 38.57 0.019 6.38 6.38 12.45
11/17/2022 9:45:00 AM 3.67 38.606 0.019 6.39 6.21 12.45
11/17/2022 10:00:00 AM 3.7 38.66 0.018 6.39 6.33 12.46
11/17/2022 10:15:00 AM 3.74 38.732 0.018 6.39 6.31 12.46
11/17/2022 10:30:00 AM 3.75 38.75 0.018 6.39 6.22 12.46
11/17/2022 10:45:00 AM 3.76 38.768 0.018 6.4 6.28 12.45
11/17/2022 11:00:00 AM 3.76 38.768 0.018 6.39 6.23 12.45
11/17/2022 11:15:00 AM 3.8 38.84 0.018 6.4 6.18 12.45
11/17/2022 11:30:00 AM 3.84 38.912 0.018 6.4 6.18 12.45
11/17/2022 11:45:00 AM 3.89 39.002 0.018 6.39 6.21 12.45
11/17/2022 12:00:00 PM 3.92 39.056 0.018 6.41 6.16 12.44
11/17/2022 12:15:00 PM 3.92 39.056 0.018 6.41 6.24 12.43
11/17/2022 12:30:00 PM 3.91 39.038 0.018 6.4 6.21 12.43
11/17/2022 12:45:00 PM 3.89 39.002 0.018 6.41 6.13 12.42
11/17/2022 1:00:00 PM 3.88 38.984 0.018 6.41 6.15 12.42
11/17/2022 1:15:00 PM 3.88 38.984 0.018 6.4 6.15 12.41
11/17/2022 1:30:00 PM 3.89 39.002 0.018 6.41 6.26 12.42
11/17/2022 1:45:00 PM 3.9 39.02 0.018 6.41 6.2 12.41
11/17/2022 2:00:00 PM 3.91 39.038 0.018 6.41 6.17 12.41
11/17/2022 2:15:00 PM 3.93 39.074 0.018 6.41 6.25 12.42
11/17/2022 2:30:00 PM 3.92 39.056 0.018 6.41 6.15 12.41
11/17/2022 2:45:00 PM 3.91 39.038 0.018 6.41 6.13 12.41
11/17/2022 3:00:00 PM 3.88 38.984 0.018 6.41 6.21 12.41
11/17/2022 3:15:00 PM 3.87 38.966 0.018 6.41 6.19 12.4
11/17/2022 3:30:00 PM 3.87 38.966 0.018 6.41 6.33 12.4
11/17/2022 3:45:00 PM 3.86 38.948 0.018 6.41 6.19 12.4
11/17/2022 4:00:00 PM 3.84 38.912 0.018 6.41 6.23 12.4
11/17/2022 4:15:00 PM 3.82 38.876 0.018 6.41 6.21 12.39
11/17/2022 4:30:00 PM 3.8 38.84 0.018 6.41 6.18 12.38
11/17/2022 4:45:00 PM 3.78 38.804 0.018 6.41 6.16 12.37
11/17/2022 5:00:00 PM 3.75 38.75 0.018 6.4 6.13 12.36
11/17/2022 5:15:00 PM 3.72 38.696 0.018 6.4 6.2 12.36
11/17/2022 5:30:00 PM 3.69 38.642 0.018 6.4 6.26 12.35
11/17/2022 5:45:00 PM 3.67 38.606 0.018 6.4 6.19 12.36
11/17/2022 6:00:00 PM 3.64 38.552 0.018 6.4 6.29 12.36
11/17/2022 6:15:00 PM 3.61 38.498 0.018 6.4 6.29 12.37
11/17/2022 6:30:00 PM 3.6 38.48 0.018 6.4 6.3 12.37
11/17/2022 6:45:00 PM 3.59 38.462 0.018 6.39 6.31 12.38
11/17/2022 7:00:00 PM 3.57 38.426 0.018 6.4 6.35 12.39
11/17/2022 7:15:00 PM 3.55 38.39 0.018 6.39 6.35 12.39
11/17/2022 7:30:00 PM 3.54 38.372 0.018 6.4 6.3 12.4
11/17/2022 7:45:00 PM 3.51 38.318 0.018 6.4 6.27 12.41
11/17/2022 8:00:00 PM 3.49 38.282 0.018 6.4 6.42 12.42
11/17/2022 8:15:00 PM 3.46 38.228 0.018 6.4 6.42 12.42
11/17/2022 8:30:00 PM 3.43 38.174 0.018 6.4 6.51 12.43
11/17/2022 8:45:00 PM 3.4 38.12 0.018 6.39 6.45 12.44
11/17/2022 9:00:00 PM 3.37 38.066 0.018 6.39 6.31 12.45
11/17/2022 9:15:00 PM 3.34 38.012 0.018 6.39 6.3 12.39
11/17/2022 9:30:00 PM 3.31 37.958 0.018 6.39 6.61 12.47
11/17/2022 9:45:00 PM 3.28 37.904 0.018 6.39 6.77 12.48
11/17/2022 10:00:00 PM 3.24 37.832 0.018 6.39 6.38 12.49
11/17/2022 10:15:00 PM 3.21 37.778 0.018 6.4 6.28 12.5
11/17/2022 10:30:00 PM 3.17 37.706 0.018 6.39 6.32 12.51
11/17/2022 10:45:00 PM 3.14 37.652 0.018 6.39 6.29 12.52
11/17/2022 11:00:00 PM 3.12 37.616 0.018 6.4 6.27 12.53
11/17/2022 11:15:00 PM 3.1 37.58 0.018 6.39 6.26 12.54
11/17/2022 11:30:00 PM 3.09 37.562 0.018 6.4 6.27 12.56
11/17/2022 11:45:00 PM 3.08 37.544 0.018 6.4 6.22 12.56
11/18/2022 12:00:00 AM 3.06 37.508 0.018 6.4 6.24 12.56
11/18/2022 12:15:00 AM 3.04 37.472 0.018 6.4 6.31 12.57
11/18/2022 12:30:00 AM 3.01 37.418 0.018 6.39 6.37 12.58
11/18/2022 12:45:00 AM 2.98 37.364 0.018 6.4 6.29 12.59
11/18/2022 1:00:00 AM 2.95 37.31 0.018 6.4 6.34 12.6
11/18/2022 1:15:00 AM 2.92 37.256 0.018 6.4 6.33 12.6
11/18/2022 1:30:00 AM 2.9 37.22 0.018 6.4 6.32 12.6
11/18/2022 1:45:00 AM 2.9 37.22 0.018 6.4 6.28 12.61
11/18/2022 2:00:00 AM 2.89 37.202 0.018 6.4 6.35 12.61
11/18/2022 2:15:00 AM 2.89 37.202 0.018 6.4 6.36 12.62
11/18/2022 2:30:00 AM 2.87 37.166 0.018 6.4 6.33 12.62
11/18/2022 2:45:00 AM 2.85 37.13 0.018 6.4 6.33 12.63
11/18/2022 3:00:00 AM 2.83 37.094 0.018 6.4 6.3 12.64
11/18/2022 3:15:00 AM 2.81 37.058 0.018 6.4 6.31 12.64
11/18/2022 3:30:00 AM 2.8 37.04 0.018 6.4 6.34 12.65
11/18/2022 3:45:00 AM 2.79 37.022 0.018 6.4 6.32 12.65
11/18/2022 4:00:00 AM 2.8 37.04 0.018 6.4 6.36 12.66
11/18/2022 4:15:00 AM 2.79 37.022 0.018 6.4 6.27 12.66
11/18/2022 4:30:00 AM 2.77 36.986 0.018 6.4 6.31 12.66
11/18/2022 4:45:00 AM 2.74 36.932 0.018 6.4 6.43 12.67
11/18/2022 5:00:00 AM 2.71 36.878 0.018 6.4 6.38 12.69
11/18/2022 5:15:00 AM 2.67 36.806 0.018 6.41 6.41 12.69
11/18/2022 5:30:00 AM 2.63 36.734 0.018 6.41 6.38 12.7
11/18/2022 5:45:00 AM 2.6 36.68 0.018 6.4 6.34 12.71
11/18/2022 6:00:00 AM 2.56 36.608 0.018 6.4 6.31 12.72
11/18/2022 6:15:00 AM 2.53 36.554 0.018 6.4 6.33 12.74
11/18/2022 6:30:00 AM 2.51 36.518 0.018 6.41 6.36 12.74
11/18/2022 6:45:00 AM 2.48 36.464 0.018 6.4 6.36 12.76
11/18/2022 7:00:00 AM 2.44 36.392 0.018 6.41 6.39 12.76
11/18/2022 7:15:00 AM 2.41 36.338 0.019 6.41 6.36 12.77
11/18/2022 7:30:00 AM 2.38 36.284 0.019 6.41 6.37 12.8
11/18/2022 7:45:00 AM 2.35 36.23 0.019 6.41 6.29 12.83
11/18/2022 8:00:00 AM 2.33 36.194 0.019 6.41 6.38 12.85
11/18/2022 8:15:00 AM 2.31 36.158 0.019 6.41 6.29 12.88
11/18/2022 8:30:00 AM 2.3 36.14 0.019 6.41 6.34 12.89
11/18/2022 8:45:00 AM 2.31 36.158 0.019 6.39 6.25 12.92
11/18/2022 9:00:00 AM 2.35 36.23 0.019 6.4 6.34 12.93
11/18/2022 9:15:00 AM 2.36 36.248 0.018 6.41 6.27 12.94
11/18/2022 9:30:00 AM 2.36 36.248 0.019 6.42 6.32 12.94
11/18/2022 9:45:00 AM 2.38 36.284 0.018 6.42 6.35 12.95
11/18/2022 10:00:00 AM 2.45 36.41 0.018 6.42 6.23 12.94
11/18/2022 10:15:00 AM 2.53 36.554 0.018 6.42 6.26 12.94
11/18/2022 10:30:00 AM 2.58 36.644 0.018 6.43 6.27 12.92
11/18/2022 10:45:00 AM 2.64 36.752 0.019 6.43 6.25 12.92
11/18/2022 11:00:00 AM 2.71 36.878 0.018 6.43 6.25 12.9
11/18/2022 11:15:00 AM 2.76 36.968 0.018 6.44 6.21 12.89
11/18/2022 11:30:00 AM 2.82 37.076 0.018 6.44 6.29 12.87
11/18/2022 11:45:00 AM 2.9 37.22 0.018 6.44 6.27 12.85
11/18/2022 12:00:00 PM 2.97 37.346 0.019 6.45 6.23 12.84
11/18/2022 12:15:00 PM 3.02 37.436 0.019 6.44 6.2 12.81
11/18/2022 12:30:00 PM 3.06 37.508 0.018 6.45 6.25 12.81
11/18/2022 12:45:00 PM 3.1 37.58 0.019 6.45 6.19 12.8
11/18/2022 1:00:00 PM 3.13 37.634 0.018 6.45 6.21 12.78
11/18/2022 1:15:00 PM 3.15 37.67 0.018 6.45 6.15 12.77
11/18/2022 1:30:00 PM 3.17 37.706 0.018 6.46 6.17 12.77
11/18/2022 1:45:00 PM 3.16 37.688 0.018 6.45 6.17 12.76
11/18/2022 2:00:00 PM 3.16 37.688 0.019 6.45 6.22 12.74
11/18/2022 2:15:00 PM 3.16 37.688 0.019 6.46 6.29 12.75
11/18/2022 2:30:00 PM 3.14 37.652 0.019 6.46 6.19 12.74
11/18/2022 2:45:00 PM 3.1 37.58 0.019 6.46 6.27 12.72
11/18/2022 3:00:00 PM 3.07 37.526 0.019 6.46 6.24 12.71
11/18/2022 3:15:00 PM 3.06 37.508 0.019 6.46 6.14 12.71
11/18/2022 3:30:00 PM 3.05 37.49 0.019 6.46 6.28 12.7
11/18/2022 3:45:00 PM 3.04 37.472 0.019 6.46 6.26 12.7
11/18/2022 4:00:00 PM 3.02 37.436 0.019 6.46 6.24 12.7
11/18/2022 4:15:00 PM 3 37.4 0.019 6.46 6.19 12.68
11/18/2022 4:30:00 PM 2.99 37.382 0.019 6.45 6.2 12.66
11/18/2022 4:45:00 PM 2.97 37.346 0.018 6.45 6.21 12.64
11/18/2022 5:00:00 PM 2.93 37.274 0.018 6.44 6.3 12.62
11/18/2022 5:15:00 PM 2.92 37.256 0.018 6.44 6.29 12.62
11/18/2022 5:30:00 PM 2.91 37.238 0.018 6.44 6.25 12.61
11/18/2022 5:45:00 PM 2.91 37.238 0.018 6.44 6.29 12.61
11/18/2022 6:00:00 PM 2.91 37.238 0.018 6.44 6.24 12.61
11/18/2022 6:15:00 PM 2.88 37.184 0.018 6.43 6.27 12.61
11/18/2022 6:30:00 PM 2.86 37.148 0.018 6.43 6.23 12.61
11/18/2022 6:45:00 PM 2.83 37.094 0.018 6.43 6.32 12.62
11/18/2022 7:00:00 PM 2.79 37.022 0.018 6.43 6.31 12.63
11/18/2022 7:15:00 PM 2.78 37.004 0.018 6.43 6.33 12.63
11/18/2022 7:30:00 PM 2.76 36.968 0.019 6.43 6.33 12.64
11/18/2022 7:45:00 PM 2.74 36.932 0.018 6.42 6.33 12.65
11/18/2022 8:00:00 PM 2.73 36.914 0.018 6.43 6.32 12.66
11/18/2022 8:15:00 PM 2.71 36.878 0.018 6.43 6.25 12.67
11/18/2022 8:30:00 PM 2.69 36.842 0.018 6.42 6.33 12.67
11/18/2022 8:45:00 PM 2.67 36.806 0.018 6.43 6.27 12.69
11/18/2022 9:00:00 PM 2.63 36.734 0.018 6.42 6.35 12.7
11/18/2022 9:15:00 PM 2.61 36.698 0.018 6.43 6.29 12.71
11/18/2022 9:30:00 PM 2.58 36.644 0.018 6.42 6.34 12.71
11/18/2022 9:45:00 PM 2.54 36.572 0.018 6.42 6.33 12.73
11/18/2022 10:00:00 PM 2.52 36.536 0.019 6.42 6.36 12.73
11/18/2022 10:15:00 PM 2.49 36.482 0.018 6.42 6.38 12.74
11/18/2022 10:30:00 PM 2.46 36.428 0.018 6.42 6.36 12.76
11/18/2022 10:45:00 PM 2.43 36.374 0.019 6.42 6.3 12.78
11/18/2022 11:00:00 PM 2.39 36.302 0.019 6.42 6.36 12.79
11/18/2022 11:15:00 PM 2.37 36.266 0.019 6.42 6.38 12.8
11/18/2022 11:30:00 PM 2.32 36.176 0.019 6.42 6.4 12.82
11/18/2022 11:45:00 PM 2.29 36.122 0.019 6.42 6.37 12.83
11/19/2022 12:00:00 AM 2.25 36.05 0.019 6.42 6.36 12.85
11/19/2022 12:15:00 AM 2.21 35.978 0.019 6.42 6.49 12.86
11/19/2022 12:30:00 AM 2.17 35.906 0.019 6.42 6.49 12.88
11/19/2022 12:45:00 AM 2.13 35.834 0.019 6.42 6.42 12.89
11/19/2022 1:00:00 AM 2.09 35.762 0.019 6.42 6.4 12.91
11/19/2022 1:15:00 AM 2.05 35.69 0.019 6.42 6.38 12.93
11/19/2022 1:30:00 AM 2.01 35.618 0.019 6.42 6.39 12.93
11/19/2022 1:45:00 AM 1.97 35.546 0.019 6.42 6.33 12.95
11/19/2022 2:00:00 AM 1.94 35.492 0.019 6.42 6.43 12.97
11/19/2022 2:15:00 AM 1.9 35.42 0.019 6.42 6.36 12.98
11/19/2022 2:30:00 AM 1.86 35.348 0.019 6.42 6.44 13
11/19/2022 2:45:00 AM 1.83 35.294 0.019 6.42 6.43 13.01
11/19/2022 3:00:00 AM 1.8 35.24 0.019 6.42 6.33 13.02
11/19/2022 3:15:00 AM 1.76 35.168 0.019 6.41 6.34 13.03
11/19/2022 3:30:00 AM 1.74 35.132 0.019 6.41 6.44 13.05
11/19/2022 3:45:00 AM 1.71 35.078 0.019 6.42 6.35 13.06
11/19/2022 4:00:00 AM 1.68 35.024 0.019 6.41 6.41 13.07
11/19/2022 4:15:00 AM 1.65 34.97 0.019 6.41 6.39 13.08
11/19/2022 4:30:00 AM 1.62 34.916 0.019 6.38 6.39 13.09
11/19/2022 4:45:00 AM 1.59 34.862 0.019 6.38 6.43 13.1
11/19/2022 5:00:00 AM 1.55 34.79 0.019 6.39 6.4 13.11
11/19/2022 5:15:00 AM 1.52 34.736 0.019 6.39 6.46 13.12
11/19/2022 5:30:00 AM 1.48 34.664 0.019 6.39 6.39 13.14
11/19/2022 5:45:00 AM 1.46 34.628 0.019 6.39 6.47 13.14
11/19/2022 6:00:00 AM 1.42 34.556 0.019 6.39 6.39 13.16
11/19/2022 6:15:00 AM 1.4 34.52 0.019 6.39 6.47 13.18
11/19/2022 6:30:00 AM 1.37 34.466 0.019 6.39 6.45 13.19
11/19/2022 6:45:00 AM 1.33 34.394 0.019 6.39 6.48 13.21
11/19/2022 7:00:00 AM 1.31 34.358 0.019 6.39 6.35 13.21
11/19/2022 7:15:00 AM 1.28 34.304 0.019 6.39 6.89 13.22
11/19/2022 7:30:00 AM 1.25 34.25 0.023 6.39 8.75 13.24
11/19/2022 7:45:00 AM 1.24 34.232 0.023 6.39 8.44 13.26
11/19/2022 8:00:00 AM 1.22 34.196 0.023 6.4 8.37 13.28
11/19/2022 8:15:00 AM 1.21 34.178 0.023 6.4 8.29 13.3
11/19/2022 8:30:00 AM 1.2 34.16 0.023 6.4 8.35 13.32
11/19/2022 8:45:00 AM 1.19 34.142 0.024 6.4 8.13 13.33
11/19/2022 9:00:00 AM 1.2 34.16 0.023 6.41 8.03 13.35
11/19/2022 9:15:00 AM 1.2 34.16 0.023 6.41 8.05 13.36
11/19/2022 9:30:00 AM 1.23 34.214 0.023 6.42 8.03 13.37
11/19/2022 9:45:00 AM 1.27 34.286 0.023 6.42 8.01 13.36
11/19/2022 10:00:00 AM 1.32 34.376 0.023 6.43 8.07 13.38
11/19/2022 10:15:00 AM 1.37 34.466 0.023 6.43 8.03 13.37
11/19/2022 10:30:00 AM 1.44 34.592 0.023 6.44 8.07 13.35
11/19/2022 10:45:00 AM 1.48 34.664 0.023 6.44 8.11 13.36
11/19/2022 11:00:00 AM 1.48 34.664 0.024 6.45 8.07 13.35
11/19/2022 11:15:00 AM 1.52 34.736 0.024 6.45 8.07 13.35
11/19/2022 11:30:00 AM 1.61 34.898 0.023 6.45 8.07 13.33
11/19/2022 11:45:00 AM 1.71 35.078 0.023 6.45 8.18 13.31
11/19/2022 12:00:00 PM 1.84 35.312 0.024 6.45 8.44 13.27
11/19/2022 12:15:00 PM 1.92 35.456 0.023 6.46 8.07 13.25
11/19/2022 12:30:00 PM 1.98 35.564 0.023 6.46 7.98 13.23
11/19/2022 12:45:00 PM 2.02 35.636 0.024 6.46 7.99 13.2
11/19/2022 1:00:00 PM 2.07 35.726 0.024 6.46 8.03 13.19
11/19/2022 1:15:00 PM 2.09 35.762 0.024 6.46 7.96 13.17
11/19/2022 1:30:00 PM 2.1 35.78 0.024 6.47 8.02 13.16
11/19/2022 1:45:00 PM 2.11 35.798 0.024 6.46 8 13.13
11/19/2022 2:00:00 PM 2.1 35.78 0.024 6.47 8.01 13.13
11/19/2022 2:15:00 PM 2.08 35.744 0.024 6.47 7.96 13.13
11/19/2022 2:30:00 PM 2.06 35.708 0.024 6.47 7.97 13.13
11/19/2022 2:45:00 PM 2.02 35.636 0.024 6.47 8.06 13.13
11/19/2022 3:00:00 PM 1.98 35.564 0.024 6.47 8.55 13.14
11/19/2022 3:15:00 PM 1.92 35.456 0.024 6.47 8.07 13.13
11/19/2022 3:30:00 PM 1.87 35.366 0.024 6.47 8.02 13.15
11/19/2022 3:45:00 PM 1.81 35.258 0.024 6.47 8.05 13.14
11/19/2022 4:00:00 PM 1.76 35.168 0.024 6.47 8.09 13.15
11/19/2022 4:15:00 PM 1.72 35.096 0.024 6.47 8.04 13.14
11/19/2022 4:30:00 PM 1.67 35.006 0.024 6.47 8.08 13.14
11/19/2022 4:45:00 PM 1.64 34.952 0.024 6.47 8.05 13.13
11/19/2022 5:00:00 PM 1.6 34.88 0.024 6.46 8.12 13.13
11/19/2022 5:15:00 PM 1.58 34.844 0.024 6.46 8.09 13.12
11/19/2022 5:30:00 PM 1.56 34.808 0.025 6.46 8.09 13.11
11/19/2022 5:45:00 PM 1.55 34.79 0.026 6.46 8.12 13.1
11/19/2022 6:00:00 PM 1.52 34.736 0.026 6.46 8.1 13.1
11/19/2022 6:15:00 PM 1.51 34.718 0.025 6.46 8.14 13.1
11/19/2022 6:30:00 PM 1.49 34.682 0.025 6.46 8.17 13.1
11/19/2022 6:45:00 PM 1.48 34.664 0.024 6.46 8.19 13.1
11/19/2022 7:00:00 PM 1.46 34.628 0.024 6.46 8.11 13.1
11/19/2022 7:15:00 PM 1.44 34.592 0.024 6.45 8.13 13.11
11/19/2022 7:30:00 PM 1.42 34.556 0.024 6.45 8.11 13.11
11/19/2022 7:45:00 PM 1.41 34.538 0.024 6.45 8.09 13.1
11/19/2022 8:00:00 PM 1.38 34.484 0.024 6.45 8.22 13.11
11/19/2022 8:15:00 PM 1.36 34.448 0.024 6.45 8.06 13.11
11/19/2022 8:30:00 PM 1.34 34.412 0.024 6.45 8.1 13.13
11/19/2022 8:45:00 PM 1.32 34.376 0.024 6.45 8.15 13.13
11/19/2022 9:00:00 PM 1.29 34.322 0.024 6.45 8.17 13.13
11/19/2022 9:15:00 PM 1.27 34.286 0.024 6.45 8.1 13.14
11/19/2022 9:30:00 PM 1.25 34.25 0.024 6.45 8.08 13.15
11/19/2022 9:45:00 PM 1.23 34.214 0.024 6.45 8.1 13.16
11/19/2022 10:00:00 PM 1.22 34.196 0.024 6.45 8.1 13.16
11/19/2022 10:15:00 PM 1.21 34.178 0.024 6.45 8.13 13.16
11/19/2022 10:30:00 PM 1.2 34.16 0.024 6.45 8.11 13.17
11/19/2022 10:45:00 PM 1.2 34.16 0.024 6.45 8.12 13.18
11/19/2022 11:00:00 PM 1.2 34.16 0.024 6.45 8.16 13.19
11/19/2022 11:15:00 PM 1.19 34.142 0.024 6.45 8.17 13.18
11/19/2022 11:30:00 PM 1.19 34.142 0.024 6.44 8.53 13.18
11/19/2022 11:45:00 PM 1.19 34.142 0.024 6.45 8.23 13.19
11/20/2022 12:00:00 AM 1.18 34.124 0.024 6.44 8.19 13.19
11/20/2022 12:15:00 AM 1.18 34.124 0.024 6.45 8.22 13.19
11/20/2022 12:30:00 AM 1.17 34.106 0.024 6.45 8.14 13.2
11/20/2022 12:45:00 AM 1.17 34.106 0.024 6.44 8.12 13.19
11/20/2022 1:00:00 AM 1.16 34.088 0.024 6.45 8.18 13.2
11/20/2022 1:15:00 AM 1.16 34.088 0.024 6.45 8.07 13.19
11/20/2022 1:30:00 AM 1.15 34.07 0.024 6.45 8.19 13.2
11/20/2022 1:45:00 AM 1.15 34.07 0.024 6.45 8.22 13.2
11/20/2022 2:00:00 AM 1.14 34.052 0.024 6.45 8.15 13.2
11/20/2022 2:15:00 AM 1.12 34.016 0.024 6.45 8.17 13.2
11/20/2022 2:30:00 AM 1.09 33.962 0.024 6.45 8.17 13.21
11/20/2022 2:45:00 AM 1.06 33.908 0.025 6.45 8.15 13.21
11/20/2022 3:00:00 AM 1.02 33.836 0.024 6.45 8.19 13.23
11/20/2022 3:15:00 AM 1 33.8 0.024 6.45 8.14 13.23
11/20/2022 3:30:00 AM 0.98 33.764 0.024 6.45 8.16 13.24
11/20/2022 3:45:00 AM 0.97 33.746 0.024 6.45 8.16 13.24
11/20/2022 4:00:00 AM 0.95 33.71 0.024 6.45 8.16 13.24
11/20/2022 4:15:00 AM 0.94 33.692 0.024 6.45 8.15 13.25
11/20/2022 4:30:00 AM 0.9 33.62 0.024 6.45 8.17 13.26
11/20/2022 4:45:00 AM 0.87 33.566 0.024 6.45 8.15 13.27
11/20/2022 5:00:00 AM 0.83 33.494 0.025 6.45 8.15 13.29
11/20/2022 5:15:00 AM 0.79 33.422 0.024 6.45 8.17 13.3
11/20/2022 5:30:00 AM 0.75 33.35 0.024 6.45 8.16 13.31
11/20/2022 5:45:00 AM 0.72 33.296 0.024 6.46 8.21 13.33
11/20/2022 6:00:00 AM 0.7 33.26 0.024 6.46 8.21 13.35
11/20/2022 6:15:00 AM 0.69 33.242 0.024 6.45 8.12 13.35
11/20/2022 6:30:00 AM 0.66 33.188 0.024 6.45 8.2 13.37
11/20/2022 6:45:00 AM 0.63 33.134 0.024 6.45 8.22 13.38
11/20/2022 7:00:00 AM 0.6 33.08 0.024 6.45 8.11 13.38
11/20/2022 7:15:00 AM 0.56 33.008 0.024 6.45 8.2 13.41
11/20/2022 7:30:00 AM 0.54 32.972 0.024 6.45 8.17 13.43
11/20/2022 7:45:00 AM 0.52 32.936 0.025 6.46 8.25 13.45
11/20/2022 8:00:00 AM 0.5 32.9 0.024 6.46 8.15 13.48
11/20/2022 8:15:00 AM 0.48 32.864 0.024 6.45 8.15 13.51
11/20/2022 8:30:00 AM 0.48 32.864 0.024 6.43 8.16 13.54
11/20/2022 8:45:00 AM 0.5 32.9 0.024 6.44 8.16 13.55
11/20/2022 9:00:00 AM 0.53 32.954 0.024 6.46 8.18 13.57
11/20/2022 9:15:00 AM 0.56 33.008 0.024 6.46 8.18 13.58
11/20/2022 9:30:00 AM 0.58 33.044 0.024 6.46 8.09 13.59
11/20/2022 9:45:00 AM 0.6 33.08 0.024 6.46 8.16 13.6
11/20/2022 10:00:00 AM 0.63 33.134 0.025 6.46 8.18 13.6
11/20/2022 10:15:00 AM 0.69 33.242 0.025 6.46 8.14 13.59
11/20/2022 10:30:00 AM 0.75 33.35 0.025 6.47 8.14 13.59
11/20/2022 10:45:00 AM 0.84 33.512 0.024 6.47 8.1 13.59
11/20/2022 11:00:00 AM 0.9 33.62 0.024 6.48 8.13 13.57
11/20/2022 11:15:00 AM 0.94 33.692 0.024 6.48 8.23 13.57
11/20/2022 11:30:00 AM 0.99 33.782 0.024 6.48 8.09 13.56
11/20/2022 11:45:00 AM 1.04 33.872 0.024 6.48 8.07 13.55
11/20/2022 12:00:00 PM 1.1 33.98 0.024 6.48 8.08 13.54
11/20/2022 12:15:00 PM 1.16 34.088 0.024 6.49 8.08 13.53
11/20/2022 12:30:00 PM 1.22 34.196 0.024 6.49 8.17 13.51
11/20/2022 12:45:00 PM 1.26 34.268 0.024 6.49 8.08 13.49
11/20/2022 1:00:00 PM 1.3 34.34 0.024 6.5 8.09 13.48
11/20/2022 1:15:00 PM 1.34 34.412 0.024 6.5 8.03 13.46
11/20/2022 1:30:00 PM 1.35 34.43 0.024 6.5 8.13 13.45
11/20/2022 1:45:00 PM 1.35 34.43 0.024 6.5 8.05 13.43
11/20/2022 2:00:00 PM 1.32 34.376 0.024 6.5 8.05 13.43
11/20/2022 2:15:00 PM 1.28 34.304 0.024 6.5 8.01 13.43
11/20/2022 2:30:00 PM 1.23 34.214 0.024 6.5 8.05 13.44
11/20/2022 2:45:00 PM 1.2 34.16 0.024 6.5 8.02 13.44
11/20/2022 3:00:00 PM 1.2 34.16 0.024 6.5 8.07 13.44
11/20/2022 3:15:00 PM 1.2 34.16 0.024 6.5 8.06 13.45
11/20/2022 3:30:00 PM 1.18 34.124 0.024 6.5 8.08 13.44
11/20/2022 3:45:00 PM 1.16 34.088 0.024 6.49 8.12 13.45
11/20/2022 4:00:00 PM 1.13 34.034 0.024 6.5 8.06 13.45
11/20/2022 4:15:00 PM 1.08 33.944 0.024 6.5 8.06 13.45
11/20/2022 4:30:00 PM 1.02 33.836 0.024 6.49 8.08 13.46
11/20/2022 4:45:00 PM 0.95 33.71 0.024 6.5 8.15 13.45
11/20/2022 5:00:00 PM 0.91 33.638 0.024 6.49 8.21 13.44
11/20/2022 5:15:00 PM 0.83 33.494 0.024 6.49 8.16 13.45
11/20/2022 5:30:00 PM 0.79 33.422 0.024 6.49 8.15 13.45
11/20/2022 5:45:00 PM 0.76 33.368 0.024 6.48 8.17 13.45
11/20/2022 6:00:00 PM 0.73 33.314 0.025 6.48 8.21 13.46
11/20/2022 6:15:00 PM 0.69 33.242 0.024 6.48 8.14 13.46
11/20/2022 6:30:00 PM 0.67 33.206 0.025 6.48 8.16 13.47
11/20/2022 6:45:00 PM 0.65 33.17 0.024 6.48 8.18 13.48
11/20/2022 7:00:00 PM 0.65 33.17 0.025 6.47 8.24 13.49
11/20/2022 7:15:00 PM 0.63 33.134 0.025 6.47 8.14 13.5
11/20/2022 7:30:00 PM 0.6 33.08 0.024 6.48 8.14 13.51
11/20/2022 7:45:00 PM 0.59 33.062 0.024 6.47 8.12 13.52
11/20/2022 8:00:00 PM 0.59 33.062 0.024 6.47 8.23 13.52
11/20/2022 8:15:00 PM 0.58 33.044 0.024 6.47 8.17 13.52
11/20/2022 8:30:00 PM 0.56 33.008 0.025 6.47 8.21 13.52
11/20/2022 8:45:00 PM 0.54 32.972 0.025 6.47 8.22 13.53
11/20/2022 9:00:00 PM 0.53 32.954 0.025 6.47 8.32 13.54
11/20/2022 9:15:00 PM 0.53 32.954 0.024 6.47 8.24 13.54
11/20/2022 9:30:00 PM 0.54 32.972 0.024 6.47 8.28 13.55
11/20/2022 9:45:00 PM 0.55 32.99 0.025 6.47 8.27 13.55
11/20/2022 10:00:00 PM 0.55 32.99 0.025 6.47 8.24 13.55
11/20/2022 10:15:00 PM 0.56 33.008 0.025 6.47 8.21 13.54
11/20/2022 10:30:00 PM 0.54 32.972 0.025 6.47 8.29 13.55
11/20/2022 10:45:00 PM 0.54 32.972 0.025 6.47 8.17 13.56
11/20/2022 11:00:00 PM 0.54 32.972 0.025 6.47 8.21 13.56
11/20/2022 11:15:00 PM 0.54 32.972 0.025 6.47 8.2 13.56
11/20/2022 11:30:00 PM 0.54 32.972 0.025 6.47 8.18 13.56
11/20/2022 11:45:00 PM 0.55 32.99 0.025 6.47 8.17 13.56
11/21/2022 12:00:00 AM 0.54 32.972 0.025 6.47 8.21 13.56
11/21/2022 12:15:00 AM 0.53 32.954 0.025 6.47 8.23 13.57
11/21/2022 12:30:00 AM 0.54 32.972 0.025 6.47 8.16 13.56
11/21/2022 12:45:00 AM 0.53 32.954 0.024 6.47 8.28 13.57
11/21/2022 1:00:00 AM 0.52 32.936 0.025 6.47 8.27 13.58
11/21/2022 1:15:00 AM 0.5 32.9 0.025 6.47 8.26 13.58
11/21/2022 1:30:00 AM 0.48 32.864 0.025 6.47 8.22 13.58
11/21/2022 1:45:00 AM 0.45 32.81 0.025 6.47 8.31 13.6
11/21/2022 2:00:00 AM 0.42 32.756 0.025 6.47 8.2 13.6
11/21/2022 2:15:00 AM 0.4 32.72 0.025 6.46 8.22 13.61
11/21/2022 2:30:00 AM 0.37 32.666 0.025 6.46 8.28 13.63
11/21/2022 2:45:00 AM 0.33 32.594 0.025 6.47 8.17 13.63
11/21/2022 3:00:00 AM 0.3 32.54 0.025 6.47 8.21 13.65
11/21/2022 3:15:00 AM 0.27 32.486 0.025 6.47 8.21 13.66
11/21/2022 3:30:00 AM 0.23 32.414 0.025 6.47 8.27 13.67
11/21/2022 3:45:00 AM 0.2 32.36 0.025 6.47 8.23 13.69
11/21/2022 4:00:00 AM 0.17 32.306 0.025 6.47 8.31 13.7
11/21/2022 4:15:00 AM 0.13 32.234 0.025 6.47 8.3 13.72
11/21/2022 4:30:00 AM 0.11 32.198 0.025 6.46 8.21 13.72
11/21/2022 4:45:00 AM 0.07 32.126 0.025 6.47 8.27 13.74
11/21/2022 5:00:00 AM 0.04 32.072 0.025 6.47 8.21 13.74
11/21/2022 5:15:00 AM 0.02 32.036 0.025 6.47 8.25 13.77
11/21/2022 5:30:00 AM 0.01 32.018 0.026 6.46 8.28 13.78
11/21/2022 5:45:00 AM 0 32 0.025 6.46 8.2 13.78
11/21/2022 6:00:00 AM -0.01 31.982 0.025 6.46 8.36 13.8
11/21/2022 6:15:00 AM -0.02 31.964 0.025 6.46 8.25 13.8
11/21/2022 6:30:00 AM -0.02 31.964 0.026 6.46 8.29 13.78
11/21/2022 6:45:00 AM -0.03 31.946 0.026 6.47 8.33 13.79
11/21/2022 7:00:00 AM -0.02 31.964 0.026 6.46 8.21 13.8
11/21/2022 7:15:00 AM -0.03 31.946 0.026 6.47 8.25 13.8
11/21/2022 7:30:00 AM -0.04 31.928 0.026 6.47 8.25 13.81
11/21/2022 7:45:00 AM -0.02 31.964 0.027 6.47 8.25 13.81
11/21/2022 8:00:00 AM -0.02 31.964 0.026 6.46 8.24 13.82
11/21/2022 8:15:00 AM 0.02 32.036 0.027 6.46 8.29 13.82
11/21/2022 8:30:00 AM 0.04 32.072 0.026 6.48 8.22 13.86
11/21/2022 8:45:00 AM 0.09 32.162 0.026 6.48 8.2 13.88
11/21/2022 9:00:00 AM 0.13 32.234 0.026 6.49 8.25 13.88
11/21/2022 9:15:00 AM 0.18 32.324 0.026 6.48 8.18 13.89
11/21/2022 9:30:00 AM 0.17 32.306 0.026 6.49 8.28 13.89
11/21/2022 9:45:00 AM 0.19 32.342 0.026 6.49 8.19 13.9
11/21/2022 10:00:00 AM 0.22 32.396 0.025 6.49 8.2 13.88
11/21/2022 10:15:00 AM 0.26 32.468 0.026 6.5 8.25 13.88
11/21/2022 10:30:00 AM 0.3 32.54 0.025 6.5 8.23 13.87
11/21/2022 10:45:00 AM 0.34 32.612 0.025 6.51 8.26 13.87
11/21/2022 11:00:00 AM 0.41 32.738 0.025 6.51 8.23 13.84
11/21/2022 11:15:00 AM 0.5 32.9 0.025 6.51 8.25 13.83
11/21/2022 11:30:00 AM 0.59 33.062 0.025 6.51 8.26 13.81
11/21/2022 11:45:00 AM 0.7 33.26 0.025 6.51 8.22 13.79
11/21/2022 12:00:00 PM 0.78 33.404 0.025 6.52 8.29 13.76
11/21/2022 12:15:00 PM 0.89 33.602 0.025 6.52 8.24 13.74
11/21/2022 12:30:00 PM 0.99 33.782 0.025 6.52 8.17 13.71
11/21/2022 12:45:00 PM 1.08 33.944 0.025 6.52 8.21 13.68
11/21/2022 1:00:00 PM 1.16 34.088 0.025 6.52 8.2 13.65
11/21/2022 1:15:00 PM 1.26 34.268 0.025 6.53 8.16 13.61
11/21/2022 1:30:00 PM 1.35 34.43 0.025 6.53 8.22 13.57
11/21/2022 1:45:00 PM 1.43 34.574 0.025 6.53 8.26 13.54
11/21/2022 2:00:00 PM 1.49 34.682 0.025 6.53 8.17 13.51
11/21/2022 2:15:00 PM 1.53 34.754 0.025 6.53 8.19 13.47
11/21/2022 2:30:00 PM 1.53 34.754 0.025 6.53 8.42 13.45
11/21/2022 2:45:00 PM 1.52 34.736 0.025 6.53 8.38 13.45
11/21/2022 3:00:00 PM 1.51 34.718 0.025 6.53 8.38 13.41
11/21/2022 3:15:00 PM 1.5 34.7 0.025 6.53 8.3 13.41
11/21/2022 3:30:00 PM 1.5 34.7 0.025 6.53 8.47 13.4
11/21/2022 3:45:00 PM 1.51 34.718 0.025 6.53 8.57 13.38
11/21/2022 4:00:00 PM 1.49 34.682 0.025 6.53 8.43 13.37
11/21/2022 4:15:00 PM 1.47 34.646 0.025 6.53 8.43 13.36
11/21/2022 4:30:00 PM 1.44 34.592 0.025 6.53 8.55 13.34
11/21/2022 4:45:00 PM 1.42 34.556 0.025 6.53 8.42 13.33
11/21/2022 5:00:00 PM 1.38 34.484 0.025 6.53 8.35 13.32
11/21/2022 5:15:00 PM 1.36 34.448 0.025 6.53 8.4 13.3
11/21/2022 5:30:00 PM 1.34 34.412 0.025 6.52 8.41 13.28
11/21/2022 5:45:00 PM 1.33 34.394 0.025 6.52 8.39 13.27
11/21/2022 6:00:00 PM 1.32 34.376 0.025 6.52 8.41 13.25
11/21/2022 6:15:00 PM 1.3 34.34 0.025 6.51 8.38 13.25
11/21/2022 6:30:00 PM 1.29 34.322 0.025 6.52 8.43 13.25
11/21/2022 6:45:00 PM 1.27 34.286 0.025 6.52 8.42 13.25
11/21/2022 7:00:00 PM 1.25 34.25 0.025 6.52 8.43 13.24
11/21/2022 7:15:00 PM 1.24 34.232 0.025 6.52 8.41 13.26
11/21/2022 7:30:00 PM 1.22 34.196 0.025 6.51 8.38 13.26
11/21/2022 7:45:00 PM 1.22 34.196 0.026 6.51 8.48 13.25
11/21/2022 8:00:00 PM 1.2 34.16 0.025 6.51 8.45 13.26
11/21/2022 8:15:00 PM 1.19 34.142 0.025 6.51 8.38 13.27
11/21/2022 8:30:00 PM 1.19 34.142 0.025 6.51 8.47 13.27
11/21/2022 8:45:00 PM 1.18 34.124 0.025 6.51 8.44 13.26
11/21/2022 9:00:00 PM 1.18 34.124 0.026 6.51 8.43 13.26
11/21/2022 9:15:00 PM 1.17 34.106 0.025 6.51 8.57 13.27
11/21/2022 9:30:00 PM 1.16 34.088 0.025 6.5 8.46 13.27
11/21/2022 9:45:00 PM 1.16 34.088 0.026 6.5 8.47 13.26
11/21/2022 10:00:00 PM 1.15 34.07 0.026 6.5 8.51 13.26
11/21/2022 10:15:00 PM 1.14 34.052 0.025 6.5 8.49 13.27
11/21/2022 10:30:00 PM 1.14 34.052 0.026 6.5 8.42 13.28
11/21/2022 10:45:00 PM 1.12 34.016 0.025 6.51 8.49 13.28
11/21/2022 11:00:00 PM 1.11 33.998 0.025 6.5 8.49 13.29
11/21/2022 11:15:00 PM 1.11 33.998 0.026 6.51 8.45 13.29
11/21/2022 11:30:00 PM 1.09 33.962 0.026 6.5 8.47 13.3
11/21/2022 11:45:00 PM 1.08 33.944 0.025 6.5 8.44 13.3
11/22/2022 12:00:00 AM 1.06 33.908 0.025 6.5 8.46 13.32
11/22/2022 12:15:00 AM 1.04 33.872 0.025 6.5 8.41 13.32
11/22/2022 12:30:00 AM 1.02 33.836 0.025 6.5 8.42 13.32
11/22/2022 12:45:00 AM 1.02 33.836 0.026 6.5 8.39 13.33
11/22/2022 1:00:00 AM 0.99 33.782 0.025 6.5 8.42 13.33
11/22/2022 1:15:00 AM 0.98 33.764 0.025 6.5 8.43 13.35
11/22/2022 1:30:00 AM 0.97 33.746 0.026 6.5 8.55 13.34
11/22/2022 1:45:00 AM 0.94 33.692 0.026 6.5 8.5 13.36
11/22/2022 2:00:00 AM 0.93 33.674 0.026 6.5 8.4 13.37
11/22/2022 2:15:00 AM 0.91 33.638 0.026 6.5 8.44 13.37
11/22/2022 2:30:00 AM 0.89 33.602 0.026 6.5 8.46 13.38
11/22/2022 2:45:00 AM 0.86 33.548 0.026 6.5 8.45 13.4
11/22/2022 3:00:00 AM 0.83 33.494 0.025 6.5 8.49 13.4
11/22/2022 3:15:00 AM 0.82 33.476 0.026 6.5 8.5 13.41
11/22/2022 3:30:00 AM 0.79 33.422 0.025 6.5 8.5 13.42
11/22/2022 3:45:00 AM 0.77 33.386 0.026 6.5 8.45 13.44
11/22/2022 4:00:00 AM 0.74 33.332 0.026 6.5 8.46 13.45
11/22/2022 4:15:00 AM 0.71 33.278 0.026 6.5 8.48 13.46
11/22/2022 4:30:00 AM 0.68 33.224 0.025 6.5 8.46 13.47
11/22/2022 4:45:00 AM 0.66 33.188 0.026 6.5 8.51 13.49
11/22/2022 5:00:00 AM 0.64 33.152 0.026 6.49 8.49 13.48
11/22/2022 5:15:00 AM 0.6 33.08 0.026 6.5 8.45 13.5
11/22/2022 5:30:00 AM 0.57 33.026 0.026 6.49 8.46 13.5
11/22/2022 5:45:00 AM 0.54 32.972 0.026 6.49 8.51 13.54
11/22/2022 6:00:00 AM 0.5 32.9 0.026 6.49 8.47 13.55
11/22/2022 6:15:00 AM 0.48 32.864 0.026 6.5 8.41 13.56
11/22/2022 6:30:00 AM 0.45 32.81 0.026 6.5 8.48 13.57
11/22/2022 6:45:00 AM 0.42 32.756 0.026 6.5 8.47 13.58
11/22/2022 7:00:00 AM 0.38 32.684 0.026 6.49 8.49 13.59
11/22/2022 7:15:00 AM 0.35 32.63 0.026 6.49 8.51 13.61
11/22/2022 7:30:00 AM 0.33 32.594 0.026 6.49 8.52 13.63
11/22/2022 7:45:00 AM 0.3 32.54 0.026 6.5 8.43 13.66
11/22/2022 8:00:00 AM 0.29 32.522 0.026 6.49 8.41 13.67
11/22/2022 8:15:00 AM 0.28 32.504 0.026 6.5 8.41 13.71
11/22/2022 8:30:00 AM 0.28 32.504 0.026 6.5 8.47 13.72
11/22/2022 8:45:00 AM 0.28 32.504 0.026 6.5 8.39 13.76
11/22/2022 9:00:00 AM 0.29 32.522 0.026 6.5 8.42 13.75
11/22/2022 9:15:00 AM 0.33 32.594 0.026 6.5 8.45 13.76
11/22/2022 9:30:00 AM 0.39 32.702 0.026 6.51 8.36 13.76
11/22/2022 9:45:00 AM 0.47 32.846 0.026 6.51 8.37 13.76
11/22/2022 10:00:00 AM 0.56 33.008 0.026 6.51 8.41 13.75
11/22/2022 10:15:00 AM 0.67 33.206 0.026 6.51 8.37 13.74
11/22/2022 10:30:00 AM 0.78 33.404 0.026 6.52 8.32 13.73
11/22/2022 10:45:00 AM 0.91 33.638 0.026 6.52 8.34 13.69
11/22/2022 11:00:00 AM 1.04 33.872 0.026 6.53 8.36 13.67
11/22/2022 11:15:00 AM 1.19 34.142 0.026 6.53 8.35 13.63
11/22/2022 11:30:00 AM 1.3 34.34 0.026 6.54 8.37 13.6
11/22/2022 11:45:00 AM 1.43 34.574 0.026 6.54 8.29 13.55
11/22/2022 12:00:00 PM 1.55 34.79 0.026 6.54 8.36 13.52
11/22/2022 12:15:00 PM 1.68 35.024 0.026 6.54 8.37 13.48
11/22/2022 12:30:00 PM 1.8 35.24 0.026 6.55 8.3 13.42
11/22/2022 12:45:00 PM 1.91 35.438 0.026 6.55 8.31 13.38
11/22/2022 1:00:00 PM 2.01 35.618 0.026 6.55 8.29 13.34
11/22/2022 1:15:00 PM 2.09 35.762 0.026 6.55 8.3 13.3
11/22/2022 1:30:00 PM 2.17 35.906 0.026 6.56 8.33 13.27
11/22/2022 1:45:00 PM 2.23 36.014 0.026 6.56 8.32 13.23
11/22/2022 2:00:00 PM 2.27 36.086 0.026 6.56 8.23 13.21
11/22/2022 2:15:00 PM 2.31 36.158 0.026 6.56 8.28 13.17
11/22/2022 2:30:00 PM 2.34 36.212 0.026 6.55 8.18 13.13
11/22/2022 2:45:00 PM 2.34 36.212 0.026 6.56 8.14 13.14
11/22/2022 3:00:00 PM 2.33 36.194 0.026 6.56 8.19 13.13
11/22/2022 3:15:00 PM 2.3 36.14 0.026 6.56 8.2 13.12
11/22/2022 3:30:00 PM 2.26 36.068 0.026 6.56 8.17 13.11
11/22/2022 3:45:00 PM 2.23 36.014 0.026 6.56 8.22 13.11
11/22/2022 4:00:00 PM 2.18 35.924 0.026 6.56 8.12 13.1
11/22/2022 4:15:00 PM 2.13 35.834 0.026 6.56 8.06 13.1
11/22/2022 4:30:00 PM 2.09 35.762 0.026 6.55 8.12 13.1
11/22/2022 4:45:00 PM 2.05 35.69 0.026 6.55 8.01 13.09
11/22/2022 5:00:00 PM 1.99 35.582 0.026 6.55 8.09 13.08
11/22/2022 5:15:00 PM 1.95 35.51 0.026 6.54 8.2 13.07
11/22/2022 5:30:00 PM 1.92 35.456 0.026 6.54 8.22 13.05
11/22/2022 5:45:00 PM 1.88 35.384 0.026 6.54 8.23 13.06
11/22/2022 6:00:00 PM 1.86 35.348 0.026 6.54 8.19 13.04
11/22/2022 6:15:00 PM 1.84 35.312 0.026 6.53 8.3 13.04
11/22/2022 6:30:00 PM 1.82 35.276 0.027 6.53 8.21 13.04
11/22/2022 6:45:00 PM 1.8 35.24 0.027 6.53 8.28 13.05
11/22/2022 7:00:00 PM 1.77 35.186 0.027 6.53 8.26 13.05
11/22/2022 7:15:00 PM 1.75 35.15 0.028 6.53 8.32 13.04
11/22/2022 7:30:00 PM 1.72 35.096 0.027 6.53 8.31 13.06
11/22/2022 7:45:00 PM 1.7 35.06 0.027 6.53 8.36 13.06
11/22/2022 8:00:00 PM 1.67 35.006 0.027 6.53 8.36 13.07
11/22/2022 8:15:00 PM 1.64 34.952 0.026 6.53 8.34 13.08
11/22/2022 8:30:00 PM 1.62 34.916 0.027 6.53 8.35 13.08
11/22/2022 8:45:00 PM 1.6 34.88 0.027 6.52 8.38 13.09
11/22/2022 9:00:00 PM 1.57 34.826 0.026 6.53 8.3 13.1
11/22/2022 9:15:00 PM 1.56 34.808 0.026 6.52 8.39 13.11
11/22/2022 9:30:00 PM 1.54 34.772 0.026 6.53 8.31 13.12
11/22/2022 9:45:00 PM 1.53 34.754 0.026 6.53 8.36 13.12
11/22/2022 10:00:00 PM 1.52 34.736 0.026 6.52 8.31 13.13
11/22/2022 10:15:00 PM 1.5 34.7 0.026 6.52 8.32 13.13
11/22/2022 10:30:00 PM 1.5 34.7 0.027 6.52 8.35 13.14
11/22/2022 10:45:00 PM 1.47 34.646 0.026 6.52 8.29 13.14
11/22/2022 11:00:00 PM 1.44 34.592 0.026 6.52 8.26 13.15
11/22/2022 11:15:00 PM 1.41 34.538 0.026 6.52 8.33 13.16
11/22/2022 11:30:00 PM 1.4 34.52 0.026 6.52 8.29 13.15
11/22/2022 11:45:00 PM 1.37 34.466 0.026 6.52 8.34 13.16
11/23/2022 12:00:00 AM 1.34 34.412 0.026 6.52 8.27 13.18
11/23/2022 12:15:00 AM 1.32 34.376 0.026 6.52 8.33 13.19
11/23/2022 12:30:00 AM 1.31 34.358 0.026 6.52 8.3 13.18
11/23/2022 12:45:00 AM 1.29 34.322 0.026 6.52 8.28 13.19
11/23/2022 1:00:00 AM 1.26 34.268 0.026 6.52 8.26 13.2
11/23/2022 1:15:00 AM 1.26 34.268 0.026 6.52 8.31 13.21
11/23/2022 1:30:00 AM 1.24 34.232 0.026 6.52 8.31 13.21
11/23/2022 1:45:00 AM 1.23 34.214 0.026 6.52 8.33 13.22
11/23/2022 2:00:00 AM 1.22 34.196 0.026 6.52 8.35 13.22
11/23/2022 2:15:00 AM 1.21 34.178 0.026 6.52 8.33 13.23
11/23/2022 2:30:00 AM 1.19 34.142 0.026 6.52 8.31 13.24
11/23/2022 2:45:00 AM 1.17 34.106 0.026 6.52 8.31 13.24
11/23/2022 3:00:00 AM 1.16 34.088 0.026 6.52 8.34 13.25
11/23/2022 3:15:00 AM 1.13 34.034 0.026 6.52 8.37 13.26
11/23/2022 3:30:00 AM 1.12 34.016 0.026 6.52 8.32 13.26
11/23/2022 3:45:00 AM 1.11 33.998 0.026 6.51 8.36 13.26
11/23/2022 4:00:00 AM 1.08 33.944 0.026 6.51 8.37 13.27
11/23/2022 4:15:00 AM 1.06 33.908 0.026 6.52 8.42 13.27
11/23/2022 4:30:00 AM 1.05 33.89 0.026 6.51 8.35 13.28
11/23/2022 4:45:00 AM 1.03 33.854 0.027 6.51 8.38 13.28
11/23/2022 5:00:00 AM 1.01 33.818 0.026 6.51 8.31 13.3
11/23/2022 5:15:00 AM 0.99 33.782 0.026 6.51 8.36 13.3
11/23/2022 5:30:00 AM 0.96 33.728 0.026 6.52 8.36 13.31
11/23/2022 5:45:00 AM 0.94 33.692 0.026 6.51 8.36 13.32
11/23/2022 6:00:00 AM 0.92 33.656 0.026 6.51 8.36 13.33
11/23/2022 6:15:00 AM 0.9 33.62 0.026 6.51 8.37 13.33
11/23/2022 6:30:00 AM 0.87 33.566 0.026 6.51 8.34 13.35
11/23/2022 6:45:00 AM 0.85 33.53 0.026 6.51 8.21 13.36
11/23/2022 7:00:00 AM 0.82 33.476 0.026 6.51 8.32 13.37
11/23/2022 7:15:00 AM 0.8 33.44 0.026 6.51 8.42 13.39
11/23/2022 7:30:00 AM 0.78 33.404 0.026 6.51 8.34 13.41
11/23/2022 7:45:00 AM 0.77 33.386 0.026 6.51 8.31 13.42
11/23/2022 8:00:00 AM 0.75 33.35 0.026 6.52 8.38 13.46
11/23/2022 8:15:00 AM 0.75 33.35 0.026 6.51 8.32 13.48
11/23/2022 8:30:00 AM 0.75 33.35 0.027 6.51 8.34 13.48
11/23/2022 8:45:00 AM 0.75 33.35 0.026 6.52 14.03 13.53
11/23/2022 9:00:00 AM 0.81 33.458 0.029 6.52 8.24 13.53
11/23/2022 9:15:00 AM 0.82 33.476 0.027 6.52 8.31 13.54
11/23/2022 9:30:00 AM 0.89 33.602 0.027 6.52 12.6 13.55
11/23/2022 9:45:00 AM 0.96 33.728 0.026 6.53 8.2 13.55
11/23/2022 10:00:00 AM 1.05 33.89 0.026 6.53 8.25 13.54
11/23/2022 10:15:00 AM 1.15 34.07 0.026 6.54 8.16 13.51
11/23/2022 10:30:00 AM 1.28 34.304 0.027 6.54 8.22 13.49
11/23/2022 10:45:00 AM 1.39 34.502 0.026 6.55 8.1 13.47
11/23/2022 11:00:00 AM 1.54 34.772 0.027 6.55 8.08 13.43
11/23/2022 11:15:00 AM 1.66 34.988 0.026 6.55 8.08 13.41
11/23/2022 11:30:00 AM 1.81 35.258 0.026 6.55 8.1 13.38
11/23/2022 11:45:00 AM 1.94 35.492 0.026 6.56 8.13 13.34
11/23/2022 12:00:00 PM 2.07 35.726 0.026 6.56 8.06 13.29
11/23/2022 12:15:00 PM 2.2 35.96 0.026 6.56 8.2 13.25
11/23/2022 12:30:00 PM 2.32 36.176 0.026 6.57 8.05 13.21
11/23/2022 12:45:00 PM 2.44 36.392 0.026 6.57 8.21 13.18
11/23/2022 1:00:00 PM 2.55 36.59 0.026 6.57 8.19 13.13
11/23/2022 1:15:00 PM 2.64 36.752 0.026 6.57 8.19 13.09
11/23/2022 1:30:00 PM 2.73 36.914 0.026 6.57 8.12 13.06
11/23/2022 1:45:00 PM 2.8 37.04 0.026 6.58 8.09 13.02
11/23/2022 2:00:00 PM 2.85 37.13 0.027 6.58 8.18 13
11/23/2022 2:15:00 PM 2.89 37.202 0.026 6.58 8.32 12.98
11/23/2022 2:30:00 PM 2.91 37.238 0.026 6.58 7.62 12.96
11/23/2022 2:45:00 PM 2.92 37.256 0.026 6.58 7.68 12.95
11/23/2022 3:00:00 PM 2.92 37.256 0.026 6.58 7.68 12.93
11/23/2022 3:15:00 PM 2.89 37.202 0.026 6.58 7.74 12.92
11/23/2022 3:30:00 PM 2.86 37.148 0.026 6.58 7.86 12.91
11/23/2022 3:45:00 PM 2.81 37.058 0.026 6.58 7.91 12.91
11/23/2022 4:00:00 PM 2.77 36.986 0.026 6.58 7.64 12.91
11/23/2022 4:15:00 PM 2.71 36.878 0.026 6.58 7.8 12.92
11/23/2022 4:30:00 PM 2.64 36.752 0.026 6.57 6.24 12.9
11/23/2022 4:45:00 PM 2.6 36.68 0.026 6.57 6.15 12.91
11/23/2022 5:00:00 PM 2.52 36.536 0.026 6.57 6.22 12.9
11/23/2022 5:15:00 PM 2.48 36.464 0.026 6.57 6.17 12.9
11/23/2022 5:30:00 PM 2.43 36.374 0.026 6.55 6.15 12.88
11/23/2022 5:45:00 PM 2.38 36.284 0.026 6.55 6.23 12.88
11/23/2022 6:00:00 PM 2.34 36.212 0.026 6.56 11.68 12.88
11/23/2022 6:15:00 PM 2.3 36.14 0.026 6.56 6.38 12.88
11/23/2022 6:30:00 PM 2.27 36.086 0.026 6.56 14.01 12.89
11/23/2022 6:45:00 PM 2.24 36.032 0.026 6.55 6.34 12.9
11/23/2022 7:00:00 PM 2.19 35.942 0.026 6.55 6.26 12.91
11/23/2022 7:15:00 PM 2.16 35.888 0.026 6.55 6.27 12.92
11/23/2022 7:30:00 PM 2.13 35.834 0.026 6.55 6.26 12.94
11/23/2022 7:45:00 PM 2.09 35.762 0.026 6.55 6.25 12.95
11/23/2022 8:00:00 PM 2.06 35.708 0.026 6.55 6.26 12.96
11/23/2022 8:15:00 PM 2.03 35.654 0.026 6.54 6.28 12.97
11/23/2022 8:30:00 PM 1.99 35.582 0.026 6.54 6.28 12.96
11/23/2022 8:45:00 PM 1.96 35.528 0.027 6.54 6.35 12.98
11/23/2022 9:00:00 PM 1.92 35.456 0.027 6.54 6.4 13
11/23/2022 9:15:00 PM 1.89 35.402 0.026 6.53 6.3 13.02
11/23/2022 9:30:00 PM 1.86 35.348 0.027 6.53 6.26 13.04
11/23/2022 9:45:00 PM 1.82 35.276 0.027 6.53 6.27 13.05
11/23/2022 10:00:00 PM 1.79 35.222 0.026 6.53 6.3 13.07
11/23/2022 10:15:00 PM 1.76 35.168 0.026 6.53 6.28 13.07
11/23/2022 10:30:00 PM 1.74 35.132 0.026 6.53 6.31 13.08
11/23/2022 10:45:00 PM 1.71 35.078 0.026 6.53 6.26 13.1
11/23/2022 11:00:00 PM 1.68 35.024 0.026 6.53 6.24 13.11
11/23/2022 11:15:00 PM 1.66 34.988 0.026 6.53 6.3 13.11
11/23/2022 11:30:00 PM 1.63 34.934 0.026 6.53 6.25 13.12
11/23/2022 11:45:00 PM 1.61 34.898 0.026 6.53 6.32 13.13
11/24/2022 12:00:00 AM 1.59 34.862 0.026 6.52 6.31 13.15
11/24/2022 12:15:00 AM 1.56 34.808 0.026 6.52 6.27 13.15
11/24/2022 12:30:00 AM 1.54 34.772 0.027 6.52 6.27 13.17
11/24/2022 12:45:00 AM 1.53 34.754 0.026 6.51 6.28 13.16
11/24/2022 1:00:00 AM 1.5 34.7 0.027 6.53 6.27 13.17
11/24/2022 1:15:00 AM 1.47 34.646 0.027 6.52 6.26 13.18
11/24/2022 1:30:00 AM 1.45 34.61 0.026 6.52 6.26 13.18
11/24/2022 1:45:00 AM 1.42 34.556 0.026 6.52 6.25 13.2
11/24/2022 2:00:00 AM 1.4 34.52 0.026 6.52 6.34 13.21
11/24/2022 2:15:00 AM 1.38 34.484 0.026 6.53 6.26 13.22
11/24/2022 2:30:00 AM 1.35 34.43 0.026 6.53 6.25 13.23
11/24/2022 2:45:00 AM 1.33 34.394 0.026 6.52 6.2 13.23
11/24/2022 3:00:00 AM 1.3 34.34 0.026 6.52 6.21 13.25
11/24/2022 3:15:00 AM 1.28 34.304 0.026 6.52 6.23 13.26
11/24/2022 3:30:00 AM 1.26 34.268 0.026 6.52 6.23 13.27
11/24/2022 3:45:00 AM 1.24 34.232 0.026 6.52 6.28 13.27
11/24/2022 4:00:00 AM 1.22 34.196 0.027 6.52 6.28 13.29
11/24/2022 4:15:00 AM 1.18 34.124 0.026 6.52 6.24 13.29
11/24/2022 4:30:00 AM 1.17 34.106 0.027 6.51 6.31 13.3
11/24/2022 4:45:00 AM 1.15 34.07 0.027 6.52 6.27 13.31
11/24/2022 5:00:00 AM 1.12 34.016 0.026 6.52 6.27 13.31
11/24/2022 5:15:00 AM 1.1 33.98 0.027 6.52 6.32 13.33
11/24/2022 5:30:00 AM 1.07 33.926 0.026 6.52 6.35 13.33
11/24/2022 5:45:00 AM 1.05 33.89 0.027 6.52 6.31 13.35
11/24/2022 6:00:00 AM 1.02 33.836 0.026 6.51 6.25 13.35
11/24/2022 6:15:00 AM 0.99 33.782 0.026 6.51 6.24 13.37
11/24/2022 6:30:00 AM 0.97 33.746 0.026 6.51 6.28 13.37
11/24/2022 6:45:00 AM 0.94 33.692 0.026 6.52 6.25 13.39
11/24/2022 7:00:00 AM 0.92 33.656 0.027 6.51 6.27 13.4
11/24/2022 7:15:00 AM 0.89 33.602 0.027 6.51 6.23 13.43
11/24/2022 7:30:00 AM 0.86 33.548 0.026 6.52 6.28 13.45
11/24/2022 7:45:00 AM 0.85 33.53 0.026 6.52 6.22 13.47
11/24/2022 8:00:00 AM 0.83 33.494 0.026 6.53 6.26 13.5
11/24/2022 8:15:00 AM 0.83 33.494 0.026 6.53 6.38 13.52
11/24/2022 8:30:00 AM 0.82 33.476 0.027 6.53 6.2 13.55
11/24/2022 8:45:00 AM 0.84 33.512 0.026 6.53 6.18 13.56
11/24/2022 9:00:00 AM 0.87 33.566 0.027 6.53 6.25 13.6
11/24/2022 9:15:00 AM 0.92 33.656 0.026 6.54 6.17 13.61
11/24/2022 9:30:00 AM 0.97 33.746 0.026 6.54 6.17 13.62
11/24/2022 9:45:00 AM 1.04 33.872 0.027 6.54 6.23 13.61
11/24/2022 10:00:00 AM 1.12 34.016 0.026 6.55 6.26 13.6
11/24/2022 10:15:00 AM 1.22 34.196 0.026 6.55 6.17 13.58
11/24/2022 10:30:00 AM 1.34 34.412 0.026 6.55 6.21 13.57
11/24/2022 10:45:00 AM 1.48 34.664 0.026 6.55 6.16 13.54
11/24/2022 11:00:00 AM 1.62 34.916 0.027 6.56 6.15 13.5
11/24/2022 11:15:00 AM 1.78 35.204 0.026 6.56 6.22 13.47
11/24/2022 11:30:00 AM 1.92 35.456 0.026 6.57 6.21 13.43
11/24/2022 11:45:00 AM 2.06 35.708 0.026 6.58 6.11 13.39
11/24/2022 12:00:00 PM 2.2 35.96 0.026 6.57 6.15 13.34
11/24/2022 12:15:00 PM 2.33 36.194 0.026 6.58 6.15 13.3
11/24/2022 12:30:00 PM 2.45 36.41 0.026 6.58 6.11 13.26
11/24/2022 12:45:00 PM 2.56 36.608 0.026 6.58 6.18 13.22
11/24/2022 1:00:00 PM 2.66 36.788 0.026 6.58 6.07 13.17
11/24/2022 1:15:00 PM 2.76 36.968 0.026 6.58 6.1 13.13
11/24/2022 1:30:00 PM 2.85 37.13 0.026 6.59 6.09 13.1
11/24/2022 1:45:00 PM 2.91 37.238 0.026 6.59 6.07 13.06
11/24/2022 2:00:00 PM 2.97 37.346 0.026 6.59 6.07 13.03
11/24/2022 2:15:00 PM 3.01 37.418 0.026 6.59 6.07 13.01
11/24/2022 2:30:00 PM 3.03 37.454 0.026 6.59 6.07 12.99
11/24/2022 2:45:00 PM 3.04 37.472 0.026 6.59 6.07 12.97
11/24/2022 3:00:00 PM 3.03 37.454 0.026 6.6 6.06 12.95
11/24/2022 3:15:00 PM 3.01 37.418 0.026 6.59 6.07 12.92
11/24/2022 3:30:00 PM 2.99 37.382 0.026 6.59 6.1 12.92
11/24/2022 3:45:00 PM 2.97 37.346 0.026 6.59 6.09 12.92
11/24/2022 4:00:00 PM 2.93 37.274 0.026 6.59 6.1 12.92
11/24/2022 4:15:00 PM 2.88 37.184 0.026 6.59 6.05 12.92
11/24/2022 4:30:00 PM 2.83 37.094 0.026 6.6 6.11 12.91
11/24/2022 4:45:00 PM 2.77 36.986 0.026 6.59 6.11 12.9
11/24/2022 5:00:00 PM 2.73 36.914 0.026 6.58 6.12 12.88
11/24/2022 5:15:00 PM 2.67 36.806 0.026 6.58 6.06 12.87
11/24/2022 5:30:00 PM 2.61 36.698 0.026 6.58 6.97 12.85
11/24/2022 5:45:00 PM 2.57 36.626 0.026 6.56 6.33 12.83
11/24/2022 6:00:00 PM 2.52 36.536 0.026 6.57 13.65 12.83
11/24/2022 6:15:00 PM 2.48 36.464 0.026 6.56 6.34 12.83
11/24/2022 6:30:00 PM 2.45 36.41 0.026 6.56 11.14 12.81
11/24/2022 6:45:00 PM 2.42 36.356 0.027 6.55 6.26 12.82
11/24/2022 7:00:00 PM 2.38 36.284 0.026 6.55 6.3 12.83
11/24/2022 7:15:00 PM 2.36 36.248 0.026 6.55 6.31 12.84
11/24/2022 7:30:00 PM 2.33 36.194 0.026 6.55 6.31 12.84
11/24/2022 7:45:00 PM 2.31 36.158 0.027 6.55 6.33 12.83
11/24/2022 8:00:00 PM 2.27 36.086 0.026 6.54 6.33 12.84
11/24/2022 8:15:00 PM 2.24 36.032 0.026 6.54 6.39 12.85
11/24/2022 8:30:00 PM 2.22 35.996 0.026 6.54 6.25 12.86
11/24/2022 8:45:00 PM 2.19 35.942 0.026 6.54 6.27 12.87
11/24/2022 9:00:00 PM 2.17 35.906 0.026 6.54 6.27 12.87
11/24/2022 9:15:00 PM 2.16 35.888 0.026 6.54 6.28 12.87
11/24/2022 9:30:00 PM 2.15 35.87 0.026 6.54 6.28 12.87
11/24/2022 9:45:00 PM 2.14 35.852 0.026 6.54 6.33 12.89
11/24/2022 10:00:00 PM 2.13 35.834 0.026 6.53 6.29 12.9
11/24/2022 10:15:00 PM 2.13 35.834 0.026 6.54 6.29 12.9
11/24/2022 10:30:00 PM 2.14 35.852 0.026 6.54 6.32 12.9
11/24/2022 10:45:00 PM 2.15 35.87 0.027 6.55 6.32 12.9
11/24/2022 11:00:00 PM 2.16 35.888 0.026 6.55 6.31 12.89
11/24/2022 11:15:00 PM 2.18 35.924 0.026 6.55 6.29 12.87
11/24/2022 11:30:00 PM 2.22 35.996 0.027 6.53 6.34 12.86
11/24/2022 11:45:00 PM 2.24 36.032 0.027 6.54 6.37 12.85
11/25/2022 12:00:00 AM 2.27 36.086 0.027 6.53 6.34 12.85
11/25/2022 12:15:00 AM 2.3 36.14 0.026 6.54 6.27 12.83
11/25/2022 12:30:00 AM 2.33 36.194 0.026 6.54 6.28 12.82
11/25/2022 12:45:00 AM 2.37 36.266 0.027 6.54 6.37 12.81
11/25/2022 1:00:00 AM 2.39 36.302 0.026 6.55 6.29 12.8
11/25/2022 1:15:00 AM 2.43 36.374 0.027 6.55 6.25 12.77
11/25/2022 1:30:00 AM 2.46 36.428 0.026 6.55 6.27 12.74
11/25/2022 1:45:00 AM 2.49 36.482 0.026 6.54 6.32 12.75
11/25/2022 2:00:00 AM 2.53 36.554 0.027 6.54 6.27 12.74
11/25/2022 2:15:00 AM 2.55 36.59 0.026 6.56 6.47 12.74
11/25/2022 2:30:00 AM 2.58 36.644 0.027 6.56 6.23 12.73
11/25/2022 2:45:00 AM 2.61 36.698 0.026 6.57 6.22 12.71
11/25/2022 3:00:00 AM 2.64 36.752 0.026 6.56 6.26 12.7
11/25/2022 3:15:00 AM 2.67 36.806 0.026 6.56 6.32 12.69
11/25/2022 3:30:00 AM 2.71 36.878 0.026 6.56 6.24 12.68
11/25/2022 3:45:00 AM 2.74 36.932 0.026 6.55 6.25 12.66
11/25/2022 4:00:00 AM 2.77 36.986 0.026 6.56 6.23 12.64
11/25/2022 4:15:00 AM 2.8 37.04 0.026 6.56 6.27 12.63
11/25/2022 4:30:00 AM 2.83 37.094 0.027 6.56 6.26 12.62
11/25/2022 4:45:00 AM 2.86 37.148 0.027 6.57 6.3 12.61
11/25/2022 5:00:00 AM 2.88 37.184 0.027 6.56 6.32 12.59
11/25/2022 5:15:00 AM 2.91 37.238 0.026 6.55 6.27 12.58
11/25/2022 5:30:00 AM 2.93 37.274 0.027 6.55 6.25 12.57
11/25/2022 5:45:00 AM 2.95 37.31 0.027 6.55 6.31 12.57
11/25/2022 6:00:00 AM 2.97 37.346 0.026 6.55 6.31 12.56
11/25/2022 6:15:00 AM 2.99 37.382 0.027 6.56 6.26 12.55
11/25/2022 6:30:00 AM 3.01 37.418 0.027 6.56 6.29 12.55
11/25/2022 6:45:00 AM 3.01 37.418 0.027 6.57 6.3 12.53
11/25/2022 7:00:00 AM 3.02 37.436 0.027 6.57 6.25 12.52
11/25/2022 7:15:00 AM 3.03 37.454 0.026 6.57 6.32 12.53
11/25/2022 7:30:00 AM 3.05 37.49 0.027 6.56 6.35 12.52
11/25/2022 7:45:00 AM 3.07 37.526 0.027 6.57 6.33 12.51
11/25/2022 8:00:00 AM 3.09 37.562 0.027 6.57 6.22 12.52
11/25/2022 8:15:00 AM 3.1